Provisional Data: West Branch Susquehanna River near Milton, PA


Please select a monitoring station.
Please select start date.
Please select start date.

Toggle Unit: C/F Toggle Unit: C/F
Sample Time Temperature (C) Temperature (F) Specific Conductivity (mS/cm) pH   Turbidity (NTU+) DO (mg/L)
8/11/2023 12:00:00 AM 22.69 72.842 0.224 7.86 6.82 7.53
8/11/2023 12:15:00 AM 22.66 72.788 0.224 7.86 6.28 7.54
8/11/2023 12:30:00 AM 22.63 72.734 0.224 7.86 6.02 7.48
8/11/2023 12:45:00 AM 22.6 72.68 0.223 7.85 6.82 7.39
8/11/2023 1:00:00 AM 22.58 72.644 0.222 7.85 6.29 7.42
8/11/2023 1:15:00 AM 22.55 72.59 0.222 7.84 6.32 7.48
8/11/2023 1:30:00 AM 22.52 72.536 0.221 7.84 10.89 7.41
8/11/2023 1:45:00 AM 22.49 72.482 0.221 7.83 10.52 7.35
8/11/2023 2:00:00 AM 22.46 72.42799 0.221 7.83 10.33 7.4
8/11/2023 2:15:00 AM 22.44 72.392 0.22 7.82 9.06 7.34
8/11/2023 2:30:00 AM 22.4 72.32 0.22 7.82 9.73 7.29
8/11/2023 2:45:00 AM 22.38 72.284 0.22 7.82 10.24 7.31
8/11/2023 3:00:00 AM 22.37 72.266 0.219 7.81 8.66 7.73
8/11/2023 3:15:00 AM 22.33 72.194 0.219 7.81 6.89 7.21
8/11/2023 3:30:00 AM 22.29 72.122 0.219 7.81 7.12 7.28
8/11/2023 3:45:00 AM 22.27 72.086 0.219 7.8 6.61 7.27
8/11/2023 4:00:00 AM 22.25 72.05 0.218 7.8 7.2 7.2
8/11/2023 4:15:00 AM 22.22 71.996 0.218 7.79 8.97 7.18
8/11/2023 4:30:00 AM 22.2 71.96 0.217 7.79 6.65 7.2
8/11/2023 4:45:00 AM 22.16 71.888 0.218 7.78 9.72 7.18
8/11/2023 5:00:00 AM 22.14 71.852 0.217 7.78 9.26 7.16
8/11/2023 5:15:00 AM 22.11 71.798 0.218 7.78 8.44 7.14
8/11/2023 5:30:00 AM 22.08 71.744 0.217 7.78 6.97 7.19
8/11/2023 5:45:00 AM 22.07 71.726 0.217 7.78 6.86 7.15
8/11/2023 6:00:00 AM 22.07 71.726 0.216 7.77 7.43 7.14
8/11/2023 6:15:00 AM 22.05 71.69 0.215 7.77 7.72 7.17
8/11/2023 6:30:00 AM 22.03 71.654 0.215 7.77 7.28 7.12
8/11/2023 6:45:00 AM 22 71.6 0.215 7.77 7.69 7.18
8/11/2023 7:00:00 AM 21.98 71.564 0.215 7.77 8.81 7.16
8/11/2023 7:15:00 AM 21.98 71.564 0.214 7.77 6.93 7.11
8/11/2023 7:30:00 AM 21.96 71.528 0.214 7.77 36.51 7.16
8/11/2023 7:45:00 AM 21.95 71.51 0.214 7.77 9.69 7.12
8/11/2023 8:00:00 AM 21.95 71.51 0.214 7.77 7.08 7.13
8/11/2023 8:15:00 AM 21.94 71.492 0.215 7.77 7.98 7.18
8/11/2023 8:30:00 AM 21.95 71.51 0.214 7.78 7.05 7.21
8/11/2023 8:45:00 AM 22.47 72.446 0.229 7.77 8.67 7.93
8/11/2023 9:00:00 AM 22.47 72.446 0.225 7.78 11.42 7.99
8/11/2023 9:15:00 AM 22.1 71.78 0.216 7.78 10.18 7.62
8/11/2023 9:30:00 AM 22.02 71.636 0.213 7.79 8.04 7.32
8/11/2023 9:45:00 AM 22.06 71.708 0.212 7.79 7.78 7.35
8/11/2023 10:00:00 AM 22.1 71.78 0.212 7.79 7.07 7.37
8/11/2023 10:15:00 AM 22.14 71.852 0.212 7.8 8 7.41
8/11/2023 10:30:00 AM 22.19 71.942 0.212 7.8 7.15 7.43
8/11/2023 10:45:00 AM 22.26 72.068 0.211 7.81 7.01 7.5
8/11/2023 11:00:00 AM 22.32 72.176 0.211 7.81 7.62 7.49
8/11/2023 11:15:00 AM 22.4 72.32 0.21 7.82 7.28 7.56
8/11/2023 11:30:00 AM 22.47 72.446 0.21 7.83 7.35 7.59
8/11/2023 11:45:00 AM 22.53 72.554 0.209 7.83 6.93 7.63
8/11/2023 12:00:00 PM 22.62 72.716 0.207 7.84 6.82 7.65
8/11/2023 12:15:00 PM 22.7 72.86 0.208 7.85 6.84 7.69
8/11/2023 12:30:00 PM 22.78 73.004 0.207 7.85 6.89 7.73
8/11/2023 12:45:00 PM 22.84 73.112 0.206 7.86 7.02 7.8
8/11/2023 1:00:00 PM 22.87 73.166 0.206 7.87 6.35 7.76
8/11/2023 1:15:00 PM 22.94 73.292 0.205 7.87 6.69 7.77
8/11/2023 1:30:00 PM 23.07 73.526 0.203 7.88 7.53 7.84
8/11/2023 1:45:00 PM 23.15 73.67 0.204 7.89 6.23 7.9
8/11/2023 2:00:00 PM 23.2 73.76 0.203 7.89 6.35 7.95
8/11/2023 2:15:00 PM 23.25 73.85 0.202 7.9 6.5 7.94
8/11/2023 2:30:00 PM 23.33 73.994 0.203 7.9 6.3 7.99
8/11/2023 2:45:00 PM 23.44 74.192 0.203 7.91 6.36 7.97
8/11/2023 3:00:00 PM 23.56 74.408 0.202 7.92 5.85 8.04
8/11/2023 3:15:00 PM 23.62 74.516 0.201 7.93 6.58 8.01
8/11/2023 3:30:00 PM 23.68 74.624 0.201 7.93 6 8.05
8/11/2023 3:45:00 PM 23.74 74.732 0.199 7.94 6 8.09
8/11/2023 4:00:00 PM 23.79 74.82201 0.199 7.94 5.91 8.1
8/11/2023 4:15:00 PM 23.84 74.912 0.199 7.95 6.16 8.15
8/11/2023 4:30:00 PM 23.86 74.948 0.198 7.96 5.99 8.23
8/11/2023 4:45:00 PM 23.83 74.894 0.198 7.96 5.3 8.19
8/11/2023 5:00:00 PM 23.84 74.912 0.197 7.96 5.47 8.19
8/11/2023 5:15:00 PM 23.86 74.948 0.197 7.96 6.03 8.21
8/11/2023 5:30:00 PM 23.94 75.092 0.187 7.97 5.36 8.27
8/11/2023 5:45:00 PM 24 75.2 0.186 7.97 6.1 8.31
8/11/2023 6:00:00 PM 23.7 74.66 0.219 7.9 9.35 8.34
8/11/2023 6:15:00 PM 23.82 74.876 0.205 7.86 13.56 8.44
8/11/2023 6:30:00 PM 24.17 75.506 0.196 7.93 15.86 8.42
8/11/2023 6:45:00 PM 24.22 75.596 0.194 7.97 13.54 8.34
8/11/2023 7:00:00 PM 24.22 75.596 0.194 7.98 11.48 8.3
8/11/2023 7:15:00 PM 24.19 75.542 0.194 7.99 9.99 8.28
8/11/2023 7:30:00 PM 24.15 75.47 0.194 7.99 6.99 8.23
8/11/2023 7:45:00 PM 24.14 75.452 0.193 7.99 6.91 8.29
8/11/2023 8:00:00 PM 24.16 75.488 0.192 7.99 6.55 8.26
8/11/2023 8:15:00 PM 24.13 75.434 0.193 7.99 6.68 8.28
8/11/2023 8:30:00 PM 24.12 75.416 0.192 7.98 6.73 8.19
8/11/2023 8:45:00 PM 24.1 75.38 0.192 7.98 6.01 7.98
8/11/2023 9:00:00 PM 24.08 75.344 0.191 7.97 6.5 8.16
8/11/2023 9:15:00 PM 24.04 75.272 0.191 7.97 6.31 8.16
8/11/2023 9:30:00 PM 24.01 75.218 0.19 7.96 5.94 8.13
8/11/2023 9:45:00 PM 23.95 75.11 0.191 7.96 6.53 8.09
8/11/2023 10:00:00 PM 23.92 75.056 0.19 7.95 6.27 8.02
8/11/2023 10:15:00 PM 23.88 74.984 0.19 7.95 7.3 8.08
8/11/2023 10:30:00 PM 23.85 74.93 0.189 7.94 6.7 8.07
8/11/2023 10:45:00 PM 23.81 74.858 0.189 7.93 6.39 8.04
8/11/2023 11:00:00 PM 23.75 74.75 0.189 7.92 6.44 8
8/11/2023 11:15:00 PM 23.69 74.642 0.189 7.92 6.53 7.99
8/11/2023 11:30:00 PM 23.62 74.516 0.189 7.91 6.27 7.96
8/11/2023 11:45:00 PM 23.55 74.39 0.189 7.9 5.92 7.93
8/12/2023 12:00:00 AM 23.46 74.228 0.189 7.9 5.68 7.91
8/12/2023 12:15:00 AM 23.39 74.102 0.189 7.89 6.34 7.9
8/12/2023 12:30:00 AM 23.32 73.976 0.19 7.88 5.85 7.87
8/12/2023 12:45:00 AM 23.25 73.85 0.189 7.87 6.55 7.87
8/12/2023 1:00:00 AM 23.19 73.742 0.189 7.87 6.07 7.84
8/12/2023 1:15:00 AM 23.13 73.634 0.189 7.86 6.88 7.8
8/12/2023 1:30:00 AM 23.07 73.526 0.19 7.85 5.8 7.77
8/12/2023 1:45:00 AM 23.04 73.472 0.189 7.85 6.52 7.76
8/12/2023 2:00:00 AM 22.99 73.382 0.19 7.84 6.37 7.7
8/12/2023 2:15:00 AM 22.96 73.328 0.189 7.83 5.64 7.72
8/12/2023 2:30:00 AM 22.93 73.274 0.188 7.83 6.86 7.68
8/12/2023 2:45:00 AM 22.89 73.202 0.189 7.82 6.75 7.63
8/12/2023 3:00:00 AM 22.86 73.148 0.189 7.82 6.27 7.61
8/12/2023 3:15:00 AM 22.84 73.112 0.189 7.81 7.08 7.57
8/12/2023 3:30:00 AM 22.81 73.058 0.189 7.8 7.16 7.57
8/12/2023 3:45:00 AM 22.79 73.022 0.189 7.8 5.98 7.56
8/12/2023 4:00:00 AM 22.76 72.968 0.189 7.79 7.4 7.5
8/12/2023 4:15:00 AM 22.74 72.932 0.189 7.79 7.22 7.49
8/12/2023 4:30:00 AM 22.73 72.914 0.189 7.78 6.83 7.47
8/12/2023 4:45:00 AM 22.72 72.896 0.189 7.77 6.3 7.37
8/12/2023 5:00:00 AM 22.72 72.896 0.188 7.77 7.04 7.37
8/12/2023 5:15:00 AM 22.72 72.896 0.188 7.76 7.28 7.36
8/12/2023 5:30:00 AM 22.7 72.86 0.188 7.76 5.78 7.37
8/12/2023 5:45:00 AM 22.69 72.842 0.189 7.75 6.85 7.33
8/12/2023 6:00:00 AM 22.67 72.806 0.189 7.75 7.63 7.34
8/12/2023 6:15:00 AM 22.67 72.806 0.188 7.75 7.82 7.33
8/12/2023 6:30:00 AM 22.66 72.788 0.188 7.75 6.63 7.29
8/12/2023 6:45:00 AM 22.66 72.788 0.188 7.74 6.02 7.23
8/12/2023 7:00:00 AM 22.64 72.752 0.188 7.74 7.25 7.3
8/12/2023 7:15:00 AM 22.63 72.734 0.188 7.74 6.28 7.26
8/12/2023 7:30:00 AM 22.62 72.716 0.188 7.73 6.09 7.29
8/12/2023 7:45:00 AM 22.62 72.716 0.188 7.73 5.54 7.25
8/12/2023 8:00:00 AM 22.62 72.716 0.188 7.73 6.42 7.22
8/12/2023 8:15:00 AM 22.62 72.716 0.188 7.73 6.78 7.24
8/12/2023 8:30:00 AM 22.62 72.716 0.188 7.73 6.37 7.21
8/12/2023 8:45:00 AM 22.62 72.716 0.187 7.73 5.87 7.3
8/12/2023 9:00:00 AM 22.65 72.77 0.187 7.73 5.97 7.31
8/12/2023 9:15:00 AM 22.65 72.77 0.187 7.73 6.4 7.28
8/12/2023 9:30:00 AM 22.63 72.734 0.187 7.73 5.72 7.28
8/12/2023 9:45:00 AM 22.65 72.77 0.187 7.73 6.96 7.28
8/12/2023 10:00:00 AM 22.66 72.788 0.187 7.73 14.59 7.35
8/12/2023 10:15:00 AM 22.7 72.86 0.187 7.73 5.47 7.34
8/12/2023 10:30:00 AM 22.74 72.932 0.186 7.73 6.77 7.35
8/12/2023 10:45:00 AM 22.79 73.022 0.186 7.74 6.78 7.41
8/12/2023 11:00:00 AM 22.83 73.094 0.186 7.74 5.84 7.46
8/12/2023 11:15:00 AM 22.86 73.148 0.186 7.74 5.59 7.5
8/12/2023 11:30:00 AM 22.9 73.22 0.185 7.75 5.94 7.49
8/12/2023 11:45:00 AM 22.93 73.274 0.186 7.74 5.35 7.54
8/12/2023 12:00:00 PM 22.99 73.382 0.186 7.75 5.36 7.59
8/12/2023 12:15:00 PM 23.05 73.49 0.185 7.76 5.66 7.58
8/12/2023 12:30:00 PM 23.13 73.634 0.185 7.76 5.19 7.62
8/12/2023 12:45:00 PM 23.2 73.76 0.185 7.76 5.09 7.66
8/12/2023 1:00:00 PM 23.29 73.922 0.185 7.77 5.38 7.68
8/12/2023 1:15:00 PM 23.36 74.048 0.185 7.78 5.43 7.7
8/12/2023 1:30:00 PM 23.45 74.21 0.185 7.79 5.31 7.71
8/12/2023 1:45:00 PM 23.51 74.318 0.185 7.79 5.13 7.75
8/12/2023 2:00:00 PM 23.58 74.444 0.185 7.8 5.48 7.76
8/12/2023 2:15:00 PM 23.65 74.57 0.185 7.8 5.46 7.81
8/12/2023 2:30:00 PM 23.71 74.67799 0.185 7.81 5.29 7.8
8/12/2023 2:45:00 PM 23.8 74.84 0.184 7.82 5.46 7.8
8/12/2023 3:00:00 PM 23.83 74.894 0.185 7.82 5.34 7.88
8/12/2023 3:15:00 PM 23.9 75.02 0.184 7.83 5.23 7.83
8/12/2023 3:30:00 PM 23.98 75.164 0.184 7.83 5.43 7.93
8/12/2023 3:45:00 PM 24.09 75.362 0.184 7.84 5.98 7.98
8/12/2023 4:00:00 PM 24.18 75.524 0.184 7.84 5.33 7.96
8/12/2023 4:15:00 PM 24.25 75.65 0.185 7.86 5 8.03
8/12/2023 4:30:00 PM 24.32 75.776 0.184 7.86 5.37 8.05
8/12/2023 4:45:00 PM 24.39 75.902 0.185 7.87 5.5 8.13
8/12/2023 5:00:00 PM 24.46 76.028 0.185 7.87 5.52 8.15
8/12/2023 5:15:00 PM 24.5 76.1 0.185 7.87 5.44 8.18
8/12/2023 5:30:00 PM 24.51 76.118 0.184 7.88 5.33 8.19
8/12/2023 5:45:00 PM 24.51 76.118 0.184 7.88 5.85 8.14
8/12/2023 6:00:00 PM 24.51 76.118 0.185 7.88 5.5 8.17
8/12/2023 6:15:00 PM 24.51 76.118 0.185 7.88 5.52 8.17
8/12/2023 6:30:00 PM 24.53 76.154 0.186 7.88 5.12 8.1
8/12/2023 6:45:00 PM 24.55 76.19 0.186 7.9 5.15 8.2
8/12/2023 7:00:00 PM 24.57 76.226 0.186 7.9 4.98 8.2
8/12/2023 7:15:00 PM 24.58 76.244 0.186 7.91 4.97 8.19
8/12/2023 7:30:00 PM 24.56 76.208 0.187 7.91 5.47 8.12
8/12/2023 7:45:00 PM 24.52 76.136 0.187 7.91 5.12 8.13
8/12/2023 8:00:00 PM 24.3 75.74 0.204 7.91 24.84 8.35
8/12/2023 8:15:00 PM 24.11 75.398 0.2 7.86 11.15 8.16
8/12/2023 8:30:00 PM 24.28 75.704 0.19 7.84 7.81 8.1
8/12/2023 8:45:00 PM 24.37 75.866 0.187 7.88 9.34 8.03
8/12/2023 9:00:00 PM 24.34 75.812 0.188 7.89 7.74 7.99
8/12/2023 9:15:00 PM 24.31 75.758 0.187 7.89 6.51 8
8/12/2023 9:30:00 PM 24.29 75.722 0.187 7.89 7.54 7.95
8/12/2023 9:45:00 PM 24.24 75.632 0.187 7.88 6.11 7.92
8/12/2023 10:00:00 PM 24.2 75.56 0.187 7.87 5.78 7.87
8/12/2023 10:15:00 PM 24.14 75.452 0.188 7.87 6.41 7.87
8/12/2023 10:30:00 PM 24.08 75.344 0.188 7.86 6.58 7.86
8/12/2023 10:45:00 PM 24.01 75.218 0.188 7.86 6.27 7.83
8/12/2023 11:00:00 PM 23.95 75.11 0.188 7.84 6.74 7.81
8/12/2023 11:15:00 PM 23.88 74.984 0.188 7.84 6.7 7.78
8/12/2023 11:30:00 PM 23.81 74.858 0.188 7.84 6.31 7.78
8/12/2023 11:45:00 PM 23.74 74.732 0.188 7.83 6.33 7.74
8/13/2023 12:00:00 AM 23.67 74.606 0.188 7.83 6.47 7.71
8/13/2023 12:15:00 AM 23.61 74.498 0.188 7.82 7.56 7.69
8/13/2023 12:30:00 AM 23.54 74.372 0.189 7.81 6.18 7.68
8/13/2023 12:45:00 AM 23.48 74.264 0.189 7.81 6.7 7.64
8/13/2023 1:00:00 AM 23.43 74.174 0.189 7.8 6.04 7.63
8/13/2023 1:15:00 AM 23.38 74.084 0.189 7.8 6.93 7.6
8/13/2023 1:30:00 AM 23.32 73.976 0.189 7.79 7.05 7.65
8/13/2023 1:45:00 AM 23.29 73.922 0.189 7.79 7.14 7.57
8/13/2023 2:00:00 AM 23.25 73.85 0.189 7.78 6.74 7.58
8/13/2023 2:15:00 AM 23.22 73.796 0.19 7.78 5.93 7.58
8/13/2023 2:30:00 AM 23.19 73.742 0.189 7.77 6.01 7.57
8/13/2023 2:45:00 AM 23.16 73.688 0.19 7.77 6.09 7.47
8/13/2023 3:00:00 AM 23.13 73.634 0.19 7.76 6.77 7.51
8/13/2023 3:15:00 AM 23.1 73.58 0.189 7.76 6.89 7.47
8/13/2023 3:30:00 AM 23.06 73.508 0.19 7.75 6.66 7.44
8/13/2023 3:45:00 AM 23.03 73.454 0.19 7.75 6.75 7.42
8/13/2023 4:00:00 AM 23 73.4 0.19 7.75 7.04 7.45
8/13/2023 4:15:00 AM 22.99 73.382 0.19 7.74 7.4 7.39
8/13/2023 4:30:00 AM 22.96 73.328 0.19 7.74 6.71 7.37
8/13/2023 4:45:00 AM 22.95 73.31 0.19 7.74 5.83 7.33
8/13/2023 5:00:00 AM 22.94 73.292 0.19 7.73 5.97 7.33
8/13/2023 5:15:00 AM 22.92 73.256 0.19 7.72 5.75 7.33
8/13/2023 5:30:00 AM 22.92 73.256 0.19 7.72 6.05 7.35
8/13/2023 5:45:00 AM 22.92 73.256 0.19 7.71 6.43 7.21
8/13/2023 6:00:00 AM 22.91 73.238 0.19 7.71 5.52 7.27
8/13/2023 6:15:00 AM 22.91 73.238 0.19 7.7 6.58 7.22
8/13/2023 6:30:00 AM 22.9 73.22 0.19 7.7 6.21 7.26
8/13/2023 6:45:00 AM 22.89 73.202 0.19 7.7 5.87 7.2
8/13/2023 7:00:00 AM 22.9 73.22 0.19 7.7 5.37 7.17
8/13/2023 7:15:00 AM 22.91 73.238 0.19 7.69 6.53 7.12
8/13/2023 7:30:00 AM 22.9 73.22 0.191 7.69 5.94 7.16
8/13/2023 7:45:00 AM 22.9 73.22 0.191 7.69 6.62 7.08
8/13/2023 8:00:00 AM 22.9 73.22 0.191 7.69 5.74 7.15
8/13/2023 8:15:00 AM 22.91 73.238 0.191 7.69 6.27 7.11
8/13/2023 8:30:00 AM 22.92 73.256 0.191 7.69 5.56 7.1
8/13/2023 8:45:00 AM 22.93 73.274 0.191 7.69 6.32 7.09
8/13/2023 9:00:00 AM 22.95 73.31 0.19 7.69 5.63 7.15
8/13/2023 9:15:00 AM 22.99 73.382 0.19 7.69 6.53 7.17
8/13/2023 9:30:00 AM 23.01 73.418 0.191 7.69 6.56 7.13
8/13/2023 9:45:00 AM 23.04 73.472 0.191 7.69 5.38 7.24
8/13/2023 10:00:00 AM 23.08 73.544 0.191 7.7 5.87 7.26
8/13/2023 10:15:00 AM 23.12 73.616 0.191 7.7 5.43 7.24
8/13/2023 10:30:00 AM 23.16 73.688 0.191 7.7 5.26 7.31
8/13/2023 10:45:00 AM 23.22 73.796 0.19 7.7 6.52 7.34
8/13/2023 11:00:00 AM 23.26 73.868 0.19 7.71 5.75 7.34
8/13/2023 11:15:00 AM 23.29 73.922 0.191 7.71 6.27 7.39
8/13/2023 11:30:00 AM 23.36 74.048 0.19 7.72 5.7 7.4
8/13/2023 11:45:00 AM 23.43 74.174 0.19 7.72 5.97 7.43
8/13/2023 12:00:00 PM 23.48 74.264 0.19 7.72 6.04 7.53
8/13/2023 12:15:00 PM 23.57 74.426 0.19 7.73 5.59 7.52
8/13/2023 12:30:00 PM 23.58 74.444 0.19 7.74 5.84 7.52
8/13/2023 12:45:00 PM 23.61 74.498 0.19 7.75 6.25 7.54
8/13/2023 1:00:00 PM 23.7 74.66 0.189 7.75 6.08 7.6
8/13/2023 1:15:00 PM 23.74 74.732 0.189 7.76 6.02 7.22
8/13/2023 1:30:00 PM 23.82 74.876 0.189 7.77 5.53 7.66
8/13/2023 1:45:00 PM 23.93 75.074 0.188 7.77 5.73 7.47
8/13/2023 2:00:00 PM 24.03 75.254 0.188 7.78 5.73 7.68
8/13/2023 2:15:00 PM 24.16 75.488 0.188 7.79 5.78 7.71
8/13/2023 2:30:00 PM 24.28 75.704 0.188 7.79 6.12 7.77
8/13/2023 2:45:00 PM 24.38 75.884 0.187 7.8 5.47 7.83
8/13/2023 3:00:00 PM 24.47 76.046 0.187 7.81 6.28 7.81
8/13/2023 3:15:00 PM 24.54 76.172 0.187 7.82 5.22 7.86
8/13/2023 3:30:00 PM 24.59 76.262 0.187 7.81 4.93 7.84
8/13/2023 3:45:00 PM 24.66 76.388 0.186 7.8 5.71 7.82
8/13/2023 4:00:00 PM 24.74 76.532 0.186 7.8 5.76 7.91
8/13/2023 4:15:00 PM 24.77 76.586 0.186 7.8 5.58 7.96
8/13/2023 4:30:00 PM 24.77 76.586 0.186 7.81 5.73 7.87
8/13/2023 4:45:00 PM 24.78 76.604 0.186 7.82 5.53 7.91
8/13/2023 5:00:00 PM 24.45 76.01 0.203 7.83 9.68 8.15
8/13/2023 5:15:00 PM 24.45 76.01 0.196 7.8 14.32 8.22
8/13/2023 5:30:00 PM 24.58 76.244 0.19 7.8 29.23 8.15
8/13/2023 5:45:00 PM 24.74 76.532 0.186 7.81 26.74 8.11
8/13/2023 6:00:00 PM 24.83 76.694 0.185 7.82 23.78 8.1
8/13/2023 6:15:00 PM 24.85 76.73 0.185 7.82 21.33 8.06
8/13/2023 6:30:00 PM 24.88 76.784 0.185 7.84 19.21 8.06
8/13/2023 6:45:00 PM 24.9 76.82 0.185 7.84 16.41 8.14
8/13/2023 7:00:00 PM 24.91 76.838 0.185 7.84 14.51 8.06
8/13/2023 7:15:00 PM 24.91 76.838 0.184 7.84 12.6 8.09
8/13/2023 7:30:00 PM 24.91 76.838 0.185 7.85 11.01 7.96
8/13/2023 7:45:00 PM 24.92 76.856 0.185 7.85 9.52 8.07
8/13/2023 8:00:00 PM 24.93 76.874 0.184 7.85 9.11 8.03
8/13/2023 8:15:00 PM 24.91 76.838 0.184 7.85 7.77 8.02
8/13/2023 8:30:00 PM 24.9 76.82 0.185 7.85 7.04 7.97
8/13/2023 8:45:00 PM 24.88 76.784 0.184 7.85 6.86 7.97
8/13/2023 9:00:00 PM 24.86 76.748 0.184 7.84 6.09 7.94
8/13/2023 9:15:00 PM 24.83 76.694 0.184 7.84 5.93 7.9
8/13/2023 9:30:00 PM 24.79 76.622 0.185 7.84 5.66 7.91
8/13/2023 9:45:00 PM 24.75 76.55 0.184 7.83 5.91 7.89
8/13/2023 10:00:00 PM 24.71 76.478 0.184 7.83 5.42 7.78
8/13/2023 10:15:00 PM 24.66 76.388 0.184 7.83 6.02 7.88
8/13/2023 10:30:00 PM 24.61 76.298 0.184 7.83 5.14 7.81
8/13/2023 10:45:00 PM 24.56 76.208 0.185 7.82 6.16 7.8
8/13/2023 11:00:00 PM 24.51 76.118 0.185 7.82 6.71 7.73
8/13/2023 11:15:00 PM 24.47 76.046 0.185 7.81 5.81 7.73
8/13/2023 11:30:00 PM 24.42 75.956 0.185 7.82 5.39 7.71
8/13/2023 11:45:00 PM 24.36 75.848 0.185 7.81 5.44 7.59
8/14/2023 12:00:00 AM 24.31 75.758 0.186 7.8 5.35 7.66
8/14/2023 12:15:00 AM 24.26 75.668 0.186 7.8 5.76 7.57
8/14/2023 12:30:00 AM 24.21 75.578 0.186 7.79 5.32 7.58
8/14/2023 12:45:00 AM 24.17 75.506 0.187 7.79 6.03 7.61
8/14/2023 1:00:00 AM 24.15 75.47 0.186 7.78 5.21 7.59
8/14/2023 1:15:00 AM 24.11 75.398 0.187 7.78 5.67 7.54
8/14/2023 1:30:00 AM 24.09 75.362 0.186 7.77 5.68 7.52
8/14/2023 1:45:00 AM 24.05 75.29 0.186 7.75 5.81 7.42
8/14/2023 2:00:00 AM 24.02 75.236 0.186 7.75 5.6 7.44
8/14/2023 2:15:00 AM 23.99 75.182 0.186 7.74 5.82 7.46
8/14/2023 2:30:00 AM 23.96 75.128 0.186 7.74 5.22 7.38
8/14/2023 2:45:00 AM 23.94 75.092 0.186 7.73 5.59 7.34
8/14/2023 3:00:00 AM 23.9 75.02 0.187 7.73 5.66 7.38
8/14/2023 3:15:00 AM 23.87 74.966 0.186 7.73 5.77 7.23
8/14/2023 3:30:00 AM 23.85 74.93 0.186 7.73 5.74 7.25
8/14/2023 3:45:00 AM 23.82 74.876 0.186 7.73 5.82 7.36
8/14/2023 4:00:00 AM 23.79 74.82201 0.187 7.73 7.73 7.31
8/14/2023 4:15:00 AM 23.94 75.092 0.202 7.74 18.53 7.85
8/14/2023 4:30:00 AM 24.04 75.272 0.2 7.75 27.39 8.04
8/14/2023 4:45:00 AM 23.8 74.84 0.189 7.74 7.73 7.48
8/14/2023 5:00:00 AM 23.71 74.67799 0.187 7.73 6.99 7.29
8/14/2023 5:15:00 AM 23.7 74.66 0.187 7.72 6.62 7.28
8/14/2023 5:30:00 AM 23.69 74.642 0.187 7.71 6.78 7.22
8/14/2023 5:45:00 AM 23.69 74.642 0.186 7.71 5.98 7.24
8/14/2023 6:00:00 AM 23.68 74.624 0.186 7.71 7.08 7.21
8/14/2023 6:15:00 AM 23.68 74.624 0.186 7.71 6.43 7.19
8/14/2023 6:30:00 AM 23.68 74.624 0.186 7.71 6.57 7.2
8/14/2023 6:45:00 AM 23.67 74.606 0.186 7.7 6.05 7.13
8/14/2023 7:00:00 AM 23.66 74.588 0.186 7.7 6.82 7.1
8/14/2023 7:15:00 AM 23.65 74.57 0.186 7.7 7.62 7.18
8/14/2023 7:30:00 AM 23.64 74.552 0.186 7.7 6.95 7.13
8/14/2023 7:45:00 AM 23.64 74.552 0.185 7.7 7.05 7.13
8/14/2023 8:00:00 AM 23.63 74.534 0.186 7.69 6.41 7.18
8/14/2023 8:15:00 AM 23.62 74.516 0.186 7.69 5.94 7.09
8/14/2023 8:30:00 AM 23.62 74.516 0.186 7.7 7.67 7.14
8/14/2023 8:45:00 AM 23.62 74.516 0.186 7.69 6.5 7.15
8/14/2023 9:00:00 AM 23.63 74.534 0.185 7.7 6.98 7.14
8/14/2023 9:15:00 AM 23.62 74.516 0.185 7.69 7.45 7.18
8/14/2023 9:30:00 AM 23.61 74.498 0.186 7.7 7.23 7.16
8/14/2023 9:45:00 AM 23.61 74.498 0.185 7.7 6.44 7.18
8/14/2023 10:00:00 AM 23.61 74.498 0.185 7.7 6 7.21
8/14/2023 10:15:00 AM 23.6 74.48 0.186 7.7 6.68 7.21
8/14/2023 10:30:00 AM 23.61 74.498 0.186 7.7 6.37 7.26
8/14/2023 10:45:00 AM 23.62 74.516 0.186 7.71 5.84 7.2
8/14/2023 11:00:00 AM 23.66 74.588 0.186 7.7 5.92 7.25
8/14/2023 11:15:00 AM 23.71 74.67799 0.187 7.72 7.31 7.4
8/14/2023 11:30:00 AM 23.77 74.786 0.187 7.72 7.95 7.39
8/14/2023 11:45:00 AM 23.84 74.912 0.186 7.73 6.91 7.43
8/14/2023 12:00:00 PM 23.9 75.02 0.186 7.73 7.51 7.47
8/14/2023 12:15:00 PM 23.95 75.11 0.186 7.74 7.82 7.49
8/14/2023 12:30:00 PM 24.01 75.218 0.186 7.75 6.76 7.53
8/14/2023 12:45:00 PM 24.08 75.344 0.186 7.75 5.85 7.52
8/14/2023 1:00:00 PM 24.15 75.47 0.186 7.76 6.35 7.55
8/14/2023 1:15:00 PM 24.26 75.668 0.186 7.77 6.82 7.56
8/14/2023 1:30:00 PM 24.33 75.794 0.186 7.77 6.06 7.61
8/14/2023 1:45:00 PM 24.42 75.956 0.186 7.78 7.23 7.61
8/14/2023 2:00:00 PM 24.5 76.1 0.186 7.79 6.82 7.69
8/14/2023 2:15:00 PM 24.56 76.208 0.186 7.8 6.36 7.7
8/14/2023 2:30:00 PM 24.64 76.352 0.185 7.81 6.07 7.71
8/14/2023 2:45:00 PM 24.67 76.406 0.186 7.82 6.41 7.77
8/14/2023 3:00:00 PM 24.68 76.424 0.186 7.82 7.07 7.79
8/14/2023 3:15:00 PM 24.69 76.442 0.185 7.83 7.39 7.81
8/14/2023 3:30:00 PM 24.71 76.478 0.185 7.83 6.6 7.82
8/14/2023 3:45:00 PM 24.75 76.55 0.185 7.83 5.92 7.8
8/14/2023 4:00:00 PM 24.8 76.64 0.184 7.84 6.18 7.84
8/14/2023 4:15:00 PM 24.84 76.712 0.184 7.84 7.37 7.89
8/14/2023 4:30:00 PM 24.85 76.73 0.185 7.85 5.74 7.92
8/14/2023 4:45:00 PM 24.86 76.748 0.185 7.85 6.91 7.86
8/14/2023 5:00:00 PM 24.89 76.802 0.184 7.85 7.79 7.91
8/14/2023 5:15:00 PM 24.9 76.82 0.184 7.85 7.45 7.89
8/14/2023 5:30:00 PM 24.9 76.82 0.185 7.85 7.67 7.93
8/14/2023 5:45:00 PM 24.89 76.802 0.185 7.86 6.64 7.91
8/14/2023 6:00:00 PM 24.87 76.766 0.184 7.86 7.84 7.91
8/14/2023 6:15:00 PM 24.85 76.73 0.184 7.86 7.73 7.86
8/14/2023 6:30:00 PM 24.83 76.694 0.184 7.86 9.61 7.88
8/14/2023 6:45:00 PM 24.8 76.64 0.184 7.86 8.59 7.88
8/14/2023 7:00:00 PM 24.76 76.568 0.184 7.86 8.32 7.87
8/14/2023 7:15:00 PM 24.72 76.496 0.184 7.85 6.67 7.81
8/14/2023 7:30:00 PM 24.69 76.442 0.184 7.85 6.85 7.81
8/14/2023 7:45:00 PM 24.65 76.37 0.185 7.85 7.63 7.8
8/14/2023 8:00:00 PM 24.62 76.316 0.185 7.85 8.33 7.8
8/14/2023 8:15:00 PM 24.58 76.244 0.185 7.84 6.68 7.79
8/14/2023 8:30:00 PM 24.54 76.172 0.186 7.84 7.98 7.75
8/14/2023 8:45:00 PM 24.5 76.1 0.186 7.84 10.07 7.74
8/14/2023 9:00:00 PM 24.44 75.992 0.186 7.84 8.58 7.71
8/14/2023 9:15:00 PM 24.39 75.902 0.186 7.83 7 7.66
8/14/2023 9:30:00 PM 24.33 75.794 0.186 7.82 8.47 7.67
8/14/2023 9:45:00 PM 24.29 75.722 0.187 7.82 7.65 7.62
8/14/2023 10:00:00 PM 24.25 75.65 0.187 7.81 8.86 7.61
8/14/2023 10:15:00 PM 24.21 75.578 0.187 7.81 9.33 7.62
8/14/2023 10:30:00 PM 24.16 75.488 0.186 7.81 11.34 7.61
8/14/2023 10:45:00 PM 24.12 75.416 0.186 7.81 11.3 7.69
8/14/2023 11:00:00 PM 24.08 75.344 0.186 7.8 11.6 7.71
8/14/2023 11:15:00 PM 24.05 75.29 0.186 7.81 7.87 7.65
8/14/2023 11:30:00 PM 24.02 75.236 0.185 7.81 10.9 7.66
8/14/2023 11:45:00 PM 24 75.2 0.184 7.8 10.24 7.66
8/15/2023 12:00:00 AM 23.98 75.164 0.185 7.8 10.58 7.66
8/15/2023 12:15:00 AM 23.96 75.128 0.185 7.8 10 7.67
8/15/2023 12:30:00 AM 23.93 75.074 0.185 7.81 10.16 7.69
8/15/2023 12:45:00 AM 23.9 75.02 0.184 7.8 10.79 7.63
8/15/2023 1:00:00 AM 23.87 74.966 0.184 7.8 9.5 7.65
8/15/2023 1:15:00 AM 23.85 74.93 0.183 7.8 8.18 7.65
8/15/2023 1:30:00 AM 23.84 74.912 0.184 7.8 8.55 7.61
8/15/2023 1:45:00 AM 23.85 74.93 0.186 7.8 10.29 7.61
8/15/2023 2:00:00 AM 23.84 74.912 0.188 7.79 12.81 7.62
8/15/2023 2:15:00 AM 23.98 75.164 0.202 7.79 12.41 7.94
8/15/2023 2:30:00 AM 24.01 75.218 0.196 7.77 7.8 7.87
8/15/2023 2:45:00 AM 23.73 74.714 0.188 7.78 13.53 7.53
8/15/2023 3:00:00 AM 23.68 74.624 0.19 7.79 13.09 7.52
8/15/2023 3:15:00 AM 23.64 74.552 0.189 7.8 14.55 7.48
8/15/2023 3:30:00 AM 23.58 74.444 0.189 7.8 20.14 7.39
8/15/2023 3:45:00 AM 23.54 74.372 0.188 7.8 25.11 7.46
8/15/2023 4:00:00 AM 23.49 74.282 0.187 7.8 18.76 7.47
8/15/2023 4:15:00 AM 23.44 74.192 0.187 7.8 26.24 7.45
8/15/2023 4:30:00 AM 23.33 73.994 0.189 7.79 28.55 7.34
8/15/2023 4:45:00 AM 23.17 73.706 0.192 7.8 37.37 7.36
8/15/2023 5:00:00 AM 22.98 73.364 0.194 7.81 35.17 7.27
8/15/2023 5:15:00 AM 22.87 73.166 0.189 7.8 51.14 7.21
8/15/2023 5:30:00 AM 22.84 73.112 0.182 7.78 37.86 7.11
8/15/2023 5:45:00 AM 22.82 73.076 0.176 7.76 69.26 7.06
8/15/2023 6:00:00 AM 22.76 72.968 0.172 7.74 58.17 7.09
8/15/2023 6:15:00 AM 22.71 72.878 0.168 7.73 80.69 7.06
8/15/2023 6:30:00 AM 22.65 72.77 0.164 7.72 87.32 7.09
8/15/2023 6:45:00 AM 22.58 72.644 0.161 7.71 80.09 7.02
8/15/2023 7:00:00 AM 22.56 72.608 0.159 7.69 80.29 7.02
8/15/2023 7:15:00 AM 22.51 72.518 0.156 7.68 101.43 7.01
8/15/2023 7:30:00 AM 22.47 72.446 0.155 7.68 95.21 7.01
8/15/2023 7:45:00 AM 22.43 72.374 0.154 7.67 112.68 7.02
8/15/2023 8:00:00 AM 22.42 72.356 0.154 7.66 107.37 6.88
8/15/2023 8:15:00 AM 22.38 72.284 0.154 7.65 98.3 6.97
8/15/2023 8:30:00 AM 22.38 72.284 0.155 7.65 103.47 7
8/15/2023 8:45:00 AM 22.42 72.356 0.157 7.64 85.91 6.99
8/15/2023 9:00:00 AM 22.49 72.482 0.16 7.65 87.97 6.96
8/15/2023 9:15:00 AM 22.55 72.59 0.162 7.65 80.22 6.99
8/15/2023 9:30:00 AM 22.58 72.644 0.163 7.65 56.07 6.97
8/15/2023 9:45:00 AM 22.65 72.77 0.165 7.65 66.98 6.97
8/15/2023 10:00:00 AM 22.67 72.806 0.166 7.65 61.88 6.96
8/15/2023 10:15:00 AM 22.72 72.896 0.167 7.65 55.56 7
8/15/2023 10:30:00 AM 22.75 72.95 0.168 7.66 54.99 6.95
8/15/2023 10:45:00 AM 22.75 72.95 0.168 7.66 41.96 6.98
8/15/2023 11:00:00 AM 22.78 73.004 0.169 7.66 38.17 7.01
8/15/2023 11:15:00 AM 22.82 73.076 0.17 7.66 36.76 7.03
8/15/2023 11:30:00 AM 22.85 73.13 0.171 7.67 42.91 7.05
8/15/2023 11:45:00 AM 22.87 73.166 0.17 7.67 35.71 7.03
8/15/2023 12:00:00 PM 22.88 73.184 0.17 7.68 38.23 7.07
8/15/2023 12:15:00 PM 22.86 73.148 0.169 7.68 35.93 7.07
8/15/2023 12:30:00 PM 22.87 73.166 0.167 7.68 34.03 7.01
8/15/2023 12:45:00 PM 22.86 73.148 0.166 7.68 28.86 7.06
8/15/2023 1:00:00 PM 22.84 73.112 0.164 7.68 39.19 7.01
8/15/2023 1:15:00 PM 22.79 73.022 0.162 7.67 37.13 7.05
8/15/2023 1:30:00 PM 22.77 72.986 0.16 7.67 38.43 7.05
8/15/2023 1:45:00 PM 22.77 72.986 0.159 7.66 39.75 7.1
8/15/2023 2:00:00 PM 22.78 73.004 0.157 7.66 35.62 7.1
8/15/2023 2:15:00 PM 22.79 73.022 0.156 7.66 32.53 7.11
8/15/2023 2:30:00 PM 22.81 73.058 0.154 7.65 38.47 7.1
8/15/2023 2:45:00 PM 22.83 73.094 0.154 7.65 32.25 7.1
8/15/2023 3:00:00 PM 22.83 73.094 0.153 7.65 29.37 7.15
8/15/2023 3:15:00 PM 22.83 73.094 0.152 7.65 33.38 7.15
8/15/2023 3:30:00 PM 22.83 73.094 0.151 7.65 29.58 7.16
8/15/2023 3:45:00 PM 22.84 73.112 0.15 7.65 31.84 7.14
8/15/2023 4:00:00 PM 22.84 73.112 0.15 7.65 32.99 7.17
8/15/2023 4:15:00 PM 22.78 73.004 0.149 7.65 32.04 7.15
8/15/2023 4:30:00 PM 22.76 72.968 0.148 7.65 34.69 7.23
8/15/2023 4:45:00 PM 22.75 72.95 0.147 7.65 32.44 7.21
8/15/2023 5:00:00 PM 22.76 72.968 0.146 7.65 33.14 7.24
8/15/2023 5:15:00 PM 22.76 72.968 0.145 7.66 27.23 7.27
8/15/2023 5:30:00 PM 22.73 72.914 0.144 7.65 36.31 7.29
8/15/2023 5:45:00 PM 22.74 72.932 0.138 7.65 27.04 7.31
8/15/2023 6:00:00 PM 22.73 72.914 0.143 7.65 39.4 7.27
8/15/2023 6:15:00 PM 22.71 72.878 0.142 7.64 36.09 7.33
8/15/2023 6:30:00 PM 22.69 72.842 0.142 7.64 29.1 7.24
8/15/2023 6:45:00 PM 22.67 72.806 0.142 7.63 24.64 7.25
8/15/2023 7:00:00 PM 22.64 72.752 0.141 7.63 27.89 7.27
8/15/2023 7:15:00 PM 22.6 72.68 0.138 7.63 27.72 7.34
8/15/2023 7:30:00 PM 22.56 72.608 0.142 7.62 29.34 7.31
8/15/2023 7:45:00 PM 22.53 72.554 0.14 7.62 25.29 7.28
8/15/2023 8:00:00 PM 22.51 72.518 0.142 7.62 26.13 7.26
8/15/2023 8:15:00 PM 22.49 72.482 0.143 7.62 30.01 7.31
8/15/2023 8:30:00 PM 22.47 72.446 0.143 7.62 22.46 7.31
8/15/2023 8:45:00 PM 22.45 72.41 0.143 7.62 26.6 7.3
8/15/2023 9:00:00 PM 22.43 72.374 0.143 7.62 24.43 7.27
8/15/2023 9:15:00 PM 22.41 72.338 0.143 7.62 21.26 7.33
8/15/2023 9:30:00 PM 22.37 72.266 0.144 7.62 28.56 7.37
8/15/2023 9:45:00 PM 22.35 72.23 0.144 7.62 23.56 7.32
8/15/2023 10:00:00 PM 22.34 72.212 0.144 7.62 25.3 7.39
8/15/2023 10:15:00 PM 22.33 72.194 0.144 7.62 26.11 7.43
8/15/2023 10:30:00 PM 22.33 72.194 0.144 7.63 27.14 7.45
8/15/2023 10:45:00 PM 22.32 72.176 0.144 7.63 19.96 7.46
8/15/2023 11:00:00 PM 22.33 72.194 0.145 7.63 22.5 7.46
8/15/2023 11:15:00 PM 22.34 72.212 0.145 7.63 19.85 7.55
8/15/2023 11:30:00 PM 22.34 72.212 0.145 7.63 22.48 7.59
8/15/2023 11:45:00 PM 22.33 72.194 0.145 7.64 23.13 7.58
8/16/2023 12:00:00 AM 22.32 72.176 0.146 7.64 16.86 7.53
8/16/2023 12:15:00 AM 22.28 72.104 0.147 7.64 22.34 7.55
8/16/2023 12:30:00 AM 22.2 71.96 0.149 7.64 19.56 7.62
8/16/2023 12:45:00 AM 22.09 71.762 0.151 7.65 21 7.62
8/16/2023 1:00:00 AM 22.02 71.636 0.15 7.66 28.27 7.65
8/16/2023 1:15:00 AM 21.95 71.51 0.147 7.66 31.73 7.65
8/16/2023 1:30:00 AM 21.93 71.474 0.145 7.66 30.19 7.55
8/16/2023 1:45:00 AM 21.9 71.42 0.142 7.66 50.37 7.55
8/16/2023 2:00:00 AM 21.89 71.402 0.141 7.65 37.96 7.58
8/16/2023 2:15:00 AM 21.88 71.384 0.139 7.65 42.27 7.51
8/16/2023 2:30:00 AM 21.87 71.366 0.138 7.65 38.61 7.55
8/16/2023 2:45:00 AM 21.87 71.366 0.138 7.64 49.3 7.53
8/16/2023 3:00:00 AM 21.89 71.402 0.137 7.64 33.57 7.51
8/16/2023 3:15:00 AM 21.92 71.456 0.137 7.64 35.38 7.48
8/16/2023 3:30:00 AM 21.95 71.51 0.137 7.64 35.14 7.54
8/16/2023 3:45:00 AM 21.96 71.528 0.137 7.63 64.05 7.5
8/16/2023 4:00:00 AM 21.95 71.51 0.136 7.63 31.64 7.51
8/16/2023 4:15:00 AM 21.93 71.474 0.136 7.63 30.17 7.51
8/16/2023 4:30:00 AM 21.92 71.456 0.136 7.63 29.33 7.49
8/16/2023 4:45:00 AM 21.88 71.384 0.135 7.63 32.41 7.48
8/16/2023 5:00:00 AM 21.84 71.312 0.135 7.63 26.88 7.49
8/16/2023 5:15:00 AM 21.79 71.222 0.135 7.62 22.11 7.51
8/16/2023 5:30:00 AM 21.76 71.168 0.135 7.62 25.79 7.52
8/16/2023 5:45:00 AM 22.64 72.752 0.163 7.61 15.62 7.8
8/16/2023 6:00:00 AM 22.27 72.086 0.155 7.61 16.17 8.18
8/16/2023 6:15:00 AM 21.72 71.096 0.136 7.62 30.26 7.59
8/16/2023 6:30:00 AM 21.59 70.862 0.134 7.61 21.5 7.56
8/16/2023 6:45:00 AM 21.55 70.79 0.134 7.61 21.81 7.56
8/16/2023 7:00:00 AM 21.51 70.718 0.134 7.61 16.68 7.58
8/16/2023 7:15:00 AM 21.47 70.646 0.133 7.61 16.14 7.49
8/16/2023 7:30:00 AM 21.44 70.592 0.134 7.6 22.86 7.56
8/16/2023 7:45:00 AM 21.4 70.52 0.134 7.6 21.83 7.57
8/16/2023 8:00:00 AM 21.38 70.484 0.134 7.6 21.61 7.52
8/16/2023 8:15:00 AM 21.36 70.448 0.134 7.6 22.31 7.6
8/16/2023 8:30:00 AM 21.35 70.43 0.134 7.6 19.07 7.61
8/16/2023 8:45:00 AM 21.34 70.412 0.135 7.6 16.29 7.58
8/16/2023 9:00:00 AM 21.33 70.394 0.135 7.6 17.03 7.58
8/16/2023 9:15:00 AM 21.32 70.376 0.135 7.6 19.92 7.59
8/16/2023 9:30:00 AM 21.32 70.376 0.135 7.6 17.47 7.58
8/16/2023 9:45:00 AM 21.32 70.376 0.135 7.6 22.59 7.63
8/16/2023 10:00:00 AM 21.33 70.394 0.135 7.6 19.46 7.58
8/16/2023 10:15:00 AM 21.34 70.412 0.135 7.6 17.48 7.57
8/16/2023 10:30:00 AM 21.36 70.448 0.135 7.6 23.36 7.57
8/16/2023 10:45:00 AM 21.39 70.502 0.135 7.6 16.27 7.58
8/16/2023 11:00:00 AM 21.42 70.556 0.136 7.6 15.44 7.57
8/16/2023 11:15:00 AM 21.42 70.556 0.136 7.6 16.95 7.62
8/16/2023 11:30:00 AM 21.43 70.574 0.137 7.6 19.61 7.61
8/16/2023 11:45:00 AM 21.43 70.574 0.136 7.6 20.87 7.63
8/16/2023 12:00:00 PM 21.46 70.628 0.136 7.6 19.54 7.59
8/16/2023 12:15:00 PM 21.5 70.7 0.137 7.6 17.08 7.6
8/16/2023 12:30:00 PM 21.59 70.862 0.135 7.6 19.95 7.59
8/16/2023 12:45:00 PM 21.65 70.97 0.135 7.61 17.02 7.6
8/16/2023 1:00:00 PM 21.72 71.096 0.135 7.6 18.47 7.61
8/16/2023 1:15:00 PM 21.81 71.258 0.135 7.61 18.4 7.62
8/16/2023 1:30:00 PM 21.9 71.42 0.135 7.61 16.9 7.58
8/16/2023 1:45:00 PM 21.98 71.564 0.134 7.61 16.42 7.62
8/16/2023 2:00:00 PM 22.08 71.744 0.134 7.61 16.32 7.66
8/16/2023 2:15:00 PM 22.15 71.87 0.134 7.61 16 7.66
8/16/2023 2:30:00 PM 22.21 71.978 0.134 7.62 14.93 7.53
8/16/2023 2:45:00 PM 22.67 72.806 0.152 7.61 10.64 8.08
8/16/2023 3:00:00 PM 22.52 72.536 0.144 7.6 11.09 7.96
8/16/2023 3:15:00 PM 22.44 72.392 0.135 7.61 15.21 7.65
8/16/2023 3:30:00 PM 22.52 72.536 0.135 7.61 13.84 7.67
8/16/2023 3:45:00 PM 22.59 72.662 0.133 7.62 15.64 7.67
8/16/2023 4:00:00 PM 22.62 72.716 0.136 7.62 14.83 7.66
8/16/2023 4:15:00 PM 22.68 72.824 0.135 7.62 12.54 7.73
8/16/2023 4:30:00 PM 22.72 72.896 0.133 7.63 14.78 7.69
8/16/2023 4:45:00 PM 22.68 72.824 0.132 7.63 13.03 7.69
8/16/2023 5:00:00 PM 22.71 72.878 0.132 7.63 14.58 7.73
8/16/2023 5:15:00 PM 22.74 72.932 0.132 7.63 15.98 7.7
8/16/2023 5:30:00 PM 22.7 72.86 0.132 7.63 15.06 7.76
8/16/2023 5:45:00 PM 22.68 72.824 0.132 7.63 15.17 7.73
8/16/2023 6:00:00 PM 22.72 72.896 0.132 7.64 14.71 7.78
8/16/2023 6:15:00 PM 22.79 73.022 0.132 7.64 18.41 7.8
8/16/2023 6:30:00 PM 22.79 73.022 0.132 7.64 14.81 7.8
8/16/2023 6:45:00 PM 22.79 73.022 0.131 7.64 13.27 7.79
8/16/2023 7:00:00 PM 22.81 73.058 0.131 7.65 15.35 7.84
8/16/2023 7:15:00 PM 22.83 73.094 0.132 7.64 17.51 7.86
8/16/2023 7:30:00 PM 22.82 73.076 0.132 7.65 16.24 7.75
8/16/2023 7:45:00 PM 22.79 73.022 0.132 7.65 16.08 7.79
8/16/2023 8:00:00 PM 22.74 72.932 0.131 7.65 15.36 7.78
8/16/2023 8:15:00 PM 22.7 72.86 0.132 7.65 15.53 7.79
8/16/2023 8:30:00 PM 22.68 72.824 0.132 7.65 13.47 7.79
8/16/2023 8:45:00 PM 22.66 72.788 0.132 7.65 12.51 7.78
8/16/2023 9:00:00 PM 22.65 72.77 0.132 7.65 15.76 7.84
8/16/2023 9:15:00 PM 22.65 72.77 0.132 7.64 12.85 7.84
8/16/2023 9:30:00 PM 22.64 72.752 0.132 7.64 14.22 7.77
8/16/2023 9:45:00 PM 22.63 72.734 0.132 7.65 14.62 7.85
8/16/2023 10:00:00 PM 22.6 72.68 0.132 7.65 11.32 7.83
8/16/2023 10:15:00 PM 22.58 72.644 0.133 7.64 13.21 7.83
8/16/2023 10:30:00 PM 22.54 72.57201 0.133 7.65 13.65 7.84
8/16/2023 10:45:00 PM 22.51 72.518 0.133 7.65 14.35 7.86
8/16/2023 11:00:00 PM 22.49 72.482 0.133 7.65 12.78 7.87
8/16/2023 11:15:00 PM 22.48 72.464 0.134 7.65 14.37 7.84
8/16/2023 11:30:00 PM 22.47 72.446 0.134 7.65 15.73 7.9
8/16/2023 11:45:00 PM 22.46 72.42799 0.134 7.65 11.19 7.88
8/17/2023 12:00:00 AM 22.45 72.41 0.135 7.65 13.13 7.9
8/17/2023 12:15:00 AM 22.44 72.392 0.135 7.65 15.67 7.9
8/17/2023 12:30:00 AM 22.42 72.356 0.135 7.65 13.54 7.87
8/17/2023 12:45:00 AM 22.41 72.338 0.136 7.66 15.84 7.92
8/17/2023 1:00:00 AM 22.4 72.32 0.136 7.66 14.18 7.89
8/17/2023 1:15:00 AM 22.39 72.302 0.136 7.66 14.96 7.91
8/17/2023 1:30:00 AM 22.39 72.302 0.137 7.66 14.26 7.9
8/17/2023 1:45:00 AM 22.37 72.266 0.137 7.66 15.7 7.88
8/17/2023 2:00:00 AM 22.35 72.23 0.137 7.66 13.74 7.89
8/17/2023 2:15:00 AM 22.33 72.194 0.138 7.66 15.05 7.9
8/17/2023 2:30:00 AM 22.33 72.194 0.138 7.66 14.52 7.86
8/17/2023 2:45:00 AM 22.31 72.158 0.139 7.67 14.71 7.91
8/17/2023 3:00:00 AM 22.29 72.122 0.139 7.67 13.32 7.85
8/17/2023 3:15:00 AM 22.26 72.068 0.14 7.67 13.89 7.85
8/17/2023 3:30:00 AM 22.24 72.032 0.14 7.67 14.18 7.83
8/17/2023 3:45:00 AM 22.2 71.96 0.14 7.67 14.16 7.86
8/17/2023 4:00:00 AM 22.17 71.906 0.141 7.67 14.28 7.87
8/17/2023 4:15:00 AM 22.13 71.834 0.141 7.67 13.77 7.82
8/17/2023 4:30:00 AM 22.09 71.762 0.141 7.67 14.63 7.83
8/17/2023 4:45:00 AM 22.05 71.69 0.142 7.67 16.93 7.81
8/17/2023 5:00:00 AM 22.02 71.636 0.142 7.68 14.67 7.81
8/17/2023 5:15:00 AM 21.98 71.564 0.142 7.68 15.16 7.82
8/17/2023 5:30:00 AM 21.95 71.51 0.143 7.68 15.4 7.79
8/17/2023 5:45:00 AM 21.91 71.438 0.143 7.68 14.72 7.78
8/17/2023 6:00:00 AM 21.88 71.384 0.143 7.68 12.98 7.76
8/17/2023 6:15:00 AM 21.84 71.312 0.144 7.68 15.08 7.72
8/17/2023 6:30:00 AM 21.81 71.258 0.144 7.67 15.34 7.74
8/17/2023 6:45:00 AM 21.78 71.204 0.144 7.67 13.71 7.7
8/17/2023 7:00:00 AM 21.76 71.168 0.145 7.67 14.83 7.7
8/17/2023 7:15:00 AM 21.73 71.114 0.145 7.67 13.65 7.69
8/17/2023 7:30:00 AM 21.71 71.078 0.145 7.67 12.63 7.67
8/17/2023 7:45:00 AM 21.7 71.06 0.146 7.67 13.34 7.69
8/17/2023 8:00:00 AM 21.68 71.024 0.146 7.67 13.69 7.68
8/17/2023 8:15:00 AM 21.67 71.006 0.146 7.67 15.41 7.66
8/17/2023 8:30:00 AM 21.65 70.97 0.146 7.67 12.65 7.65
8/17/2023 8:45:00 AM 21.63 70.934 0.147 7.67 14.12 7.65
8/17/2023 9:00:00 AM 21.62 70.916 0.147 7.67 13.57 7.67
8/17/2023 9:15:00 AM 21.61 70.898 0.147 7.67 11.31 7.63
8/17/2023 9:30:00 AM 21.59 70.862 0.147 7.67 13.12 7.66
8/17/2023 9:45:00 AM 21.58 70.844 0.148 7.66 13 7.63
8/17/2023 10:00:00 AM 21.58 70.844 0.148 7.66 12.84 7.63
8/17/2023 10:15:00 AM 21.58 70.844 0.148 7.67 13.78 7.66
8/17/2023 10:30:00 AM 21.59 70.862 0.148 7.67 12.67 7.67
8/17/2023 10:45:00 AM 21.58 70.844 0.149 7.67 14.06 7.66
8/17/2023 11:00:00 AM 21.58 70.844 0.149 7.67 13.27 7.65
8/17/2023 11:15:00 AM 21.57 70.826 0.149 7.67 12.21 7.68
8/17/2023 11:30:00 AM 21.58 70.844 0.149 7.67 12.52 7.68
8/17/2023 11:45:00 AM 21.62 70.916 0.15 7.67 13.15 7.7
8/17/2023 12:00:00 PM 21.69 71.042 0.15 7.68 12.94 7.7
8/17/2023 12:15:00 PM 21.74 71.132 0.15 7.68 13.51 7.71
8/17/2023 12:30:00 PM 21.79 71.222 0.149 7.68 11.43 7.7
8/17/2023 12:45:00 PM 21.85 71.33 0.15 7.68 12.28 7.71
8/17/2023 1:00:00 PM 21.89 71.402 0.151 7.68 12.04 7.73
8/17/2023 1:15:00 PM 22.09 71.762 0.155 7.67 13.28 8.04
8/17/2023 1:30:00 PM 22.37 72.266 0.155 7.65 9.58 8.09
8/17/2023 1:45:00 PM 22.19 71.942 0.154 7.63 10.36 7.97
8/17/2023 2:00:00 PM 22.08 71.744 0.152 7.65 10.24 7.79
8/17/2023 2:15:00 PM 22.1 71.78 0.152 7.66 11.02 7.77
8/17/2023 2:30:00 PM 22.13 71.834 0.153 7.67 10.58 7.78
8/17/2023 2:45:00 PM 22.18 71.924 0.153 7.68 11.02 7.8
8/17/2023 3:00:00 PM 22.26 72.068 0.154 7.68 11.71 7.86
8/17/2023 3:15:00 PM 22.38 72.284 0.154 7.69 12.54 7.87
8/17/2023 3:30:00 PM 22.48 72.464 0.154 7.69 12.73 7.91
8/17/2023 3:45:00 PM 22.53 72.554 0.155 7.7 11.54 7.94
8/17/2023 4:00:00 PM 22.57 72.626 0.155 7.71 11.96 7.94
8/17/2023 4:15:00 PM 22.61 72.698 0.155 7.71 12.29 7.95
8/17/2023 4:30:00 PM 22.64 72.752 0.158 7.73 14.51 8.01
8/17/2023 4:45:00 PM 22.69 72.842 0.159 7.74 13.14 8
8/17/2023 5:00:00 PM 22.74 72.932 0.16 7.74 12.99 8.01
8/17/2023 5:15:00 PM 22.77 72.986 0.159 7.75 12.93 8.04
8/17/2023 5:30:00 PM 22.83 73.094 0.159 7.75 12.42 7.86
8/17/2023 5:45:00 PM 22.85 73.13 0.159 7.75 12.75 7.88
8/17/2023 6:00:00 PM 22.84 73.112 0.16 7.76 12.12 7.86
8/17/2023 6:15:00 PM 22.86 73.148 0.16 7.76 11.55 7.89
8/17/2023 6:30:00 PM 22.88 73.184 0.16 7.76 12.09 7.84
8/17/2023 6:45:00 PM 22.88 73.184 0.161 7.76 11.95 7.9
8/17/2023 7:00:00 PM 22.87 73.166 0.161 7.77 12.57 7.87
8/17/2023 7:15:00 PM 22.85 73.13 0.162 7.77 11.7 7.9
8/17/2023 7:30:00 PM 22.83 73.094 0.162 7.77 11.74 7.91
8/17/2023 7:45:00 PM 22.8 73.04 0.162 7.77 11.79 7.88
8/17/2023 8:00:00 PM 22.77 72.986 0.163 7.77 13.02 7.9
8/17/2023 8:15:00 PM 22.71 72.878 0.163 7.77 12.96 7.88
8/17/2023 8:30:00 PM 22.66 72.788 0.164 7.77 12.58 7.89
8/17/2023 8:45:00 PM 22.62 72.716 0.164 7.76 13.17 7.89
8/17/2023 9:00:00 PM 22.59 72.662 0.165 7.77 11.5 7.85
8/17/2023 9:15:00 PM 22.57 72.626 0.165 7.77 11.99 7.86
8/17/2023 9:30:00 PM 22.55 72.59 0.165 7.77 12.83 7.86
8/17/2023 9:45:00 PM 22.53 72.554 0.166 7.77 12.9 7.86
8/17/2023 10:00:00 PM 22.53 72.554 0.166 7.77 12.08 7.87
8/17/2023 10:15:00 PM 22.53 72.554 0.166 7.77 13.43 7.86
8/17/2023 10:30:00 PM 22.53 72.554 0.167 7.77 12.77 7.86
8/17/2023 10:45:00 PM 22.52 72.536 0.167 7.77 10.98 7.84
8/17/2023 11:00:00 PM 22.51 72.518 0.167 7.77 12.38 7.87
8/17/2023 11:15:00 PM 22.5 72.5 0.168 7.76 12.31 7.85
8/17/2023 11:30:00 PM 22.51 72.518 0.168 7.76 12.49 7.84
8/17/2023 11:45:00 PM 22.5 72.5 0.168 7.77 12.57 7.86
8/18/2023 12:00:00 AM 22.5 72.5 0.168 7.76 12.67 7.86
8/18/2023 12:15:00 AM 22.5 72.5 0.168 7.77 12.08 7.84
8/18/2023 12:30:00 AM 22.5 72.5 0.169 7.77 12.04 7.84
8/18/2023 12:45:00 AM 22.49 72.482 0.169 7.77 13.37 7.85
8/18/2023 1:00:00 AM 22.5 72.5 0.169 7.77 11.52 7.84
8/18/2023 1:15:00 AM 22.48 72.464 0.168 7.77 12.26 7.86
8/18/2023 1:30:00 AM 22.45 72.41 0.168 7.77 11.95 7.84
8/18/2023 1:45:00 AM 22.42 72.356 0.168 7.77 12.79 7.87
8/18/2023 2:00:00 AM 22.42 72.356 0.166 7.78 12.79 7.86
8/18/2023 2:15:00 AM 22.41 72.338 0.167 7.79 13.73 7.84
8/18/2023 2:30:00 AM 22.42 72.356 0.167 7.79 11.86 7.86
8/18/2023 2:45:00 AM 22.41 72.338 0.167 7.78 12.66 7.85
8/18/2023 3:00:00 AM 22.4 72.32 0.167 7.78 13.37 7.84
8/18/2023 3:15:00 AM 22.38 72.284 0.166 7.78 13.24 7.83
8/18/2023 3:30:00 AM 22.34 72.212 0.167 7.78 12.16 7.81
8/18/2023 3:45:00 AM 22.3 72.14 0.168 7.78 15.57 7.81
8/18/2023 4:00:00 AM 22.25 72.05 0.17 7.78 16.58 7.81
8/18/2023 4:15:00 AM 22.2 71.96 0.171 7.79 16.99 7.8
8/18/2023 4:30:00 AM 22.18 71.924 0.17 7.79 20.03 7.75
8/18/2023 4:45:00 AM 22.15 71.87 0.169 7.79 22.15 7.73
8/18/2023 5:00:00 AM 22.11 71.798 0.169 7.79 27.29 7.74
8/18/2023 5:15:00 AM 22.01 71.618 0.171 7.79 26.54 7.73
8/18/2023 5:30:00 AM 21.87 71.366 0.173 7.79 31.57 7.72
8/18/2023 5:45:00 AM 21.76 71.168 0.172 7.79 40.73 7.66
8/18/2023 6:00:00 AM 21.69 71.042 0.166 7.78 44.72 7.58
8/18/2023 6:15:00 AM 21.68 71.024 0.16 7.76 52.85 7.52
8/18/2023 6:30:00 AM 21.67 71.006 0.155 7.74 69.42 7.44
8/18/2023 6:45:00 AM 21.67 71.006 0.152 7.73 72.93 7.41
8/18/2023 7:00:00 AM 21.65 70.97 0.15 7.71 70.52 7.4
8/18/2023 7:15:00 AM 21.63 70.934 0.148 7.7 85.12 7.43
8/18/2023 7:30:00 AM 21.6 70.88 0.147 7.69 89.84 7.38
8/18/2023 7:45:00 AM 21.56 70.808 0.146 7.67 79.83 7.36
8/18/2023 8:00:00 AM 21.53 70.754 0.145 7.66 83.16 7.37
8/18/2023 8:15:00 AM 21.49 70.682 0.144 7.65 75.27 7.4
8/18/2023 8:30:00 AM 21.45 70.61 0.144 7.65 82.11 7.27
8/18/2023 8:45:00 AM 21.42 70.556 0.144 7.65 66.21 7.38
8/18/2023 9:00:00 AM 21.39 70.502 0.143 7.65 71.66 7.33
8/18/2023 9:15:00 AM 21.34 70.412 0.143 7.64 79.15 7.31
8/18/2023 9:30:00 AM 21.3 70.34 0.146 7.64 85.6 7.32
8/18/2023 9:45:00 AM 21.25 70.25 0.138 7.64 85.61 7.27
8/18/2023 10:00:00 AM 21.19 70.142 0.135 7.63 87.47 7.29
8/18/2023 10:15:00 AM 21.11 69.998 0.131 7.62 109.42 7.33
8/18/2023 10:30:00 AM 21.04 69.872 0.129 7.61 107.83 7.35
8/18/2023 10:45:00 AM 20.93 69.674 0.125 7.6 129.37 7.37
8/18/2023 11:00:00 AM 20.84 69.512 0.122 7.59 135.33 7.41
8/18/2023 11:15:00 AM 21.67 71.006 0.145 7.56 95.4 7.97
8/18/2023 11:30:00 AM 21.68 71.024 0.147 7.58 74.7 7.96
8/18/2023 11:45:00 AM 21.32 70.376 0.135 7.58 112.7 7.88
8/18/2023 12:00:00 PM 20.6 69.08 0.112 7.57 165.01 7.46
8/18/2023 12:15:00 PM 20.44 68.792 0.108 7.54 156.27 7.51
8/18/2023 12:30:00 PM 20.35 68.63 0.106 7.52 170.05 7.52
8/18/2023 12:45:00 PM 20.29 68.522 0.105 7.51 182.75 7.54
8/18/2023 1:00:00 PM 20.21 68.378 0.103 7.5 181.71 7.61
8/18/2023 1:15:00 PM 20.15 68.27 0.101 7.5 186.63 7.61
8/18/2023 1:30:00 PM 20.11 68.198 0.099 7.49 207.19 7.66
8/18/2023 1:45:00 PM 20.07 68.126 0.097 7.49 216.84 7.67
8/18/2023 2:00:00 PM 19.99 67.982 0.095 7.49 220.45 7.73
8/18/2023 2:15:00 PM 19.96 67.92799 0.094 7.48 257.13 7.77
8/18/2023 2:30:00 PM 19.95 67.91 0.092 7.47 256.49 7.77
8/18/2023 2:45:00 PM 19.91 67.838 0.091 7.47 268.88 7.8
8/18/2023 3:00:00 PM 19.86 67.748 0.089 7.46 262.26 7.81
8/18/2023 3:15:00 PM 19.8 67.64 0.087 7.45 266.94 7.85
8/18/2023 3:30:00 PM 19.74 67.532 0.086 7.44 261.21 7.87
8/18/2023 3:45:00 PM 19.69 67.442 0.084 7.43 274.98 7.87
8/18/2023 4:00:00 PM 19.64 67.352 0.082 7.42 260.36 7.91
8/18/2023 4:15:00 PM 19.6 67.28 0.081 7.41 250.14 7.95
8/18/2023 4:30:00 PM 19.57 67.226 0.08 7.4 209.64 7.94
8/18/2023 4:45:00 PM 19.53 67.154 0.08 7.39 212.27 7.95
8/18/2023 5:00:00 PM 19.49 67.082 0.079 7.39 223.86 7.97
8/18/2023 5:15:00 PM 19.45 67.01 0.078 7.39 206.42 7.99
8/18/2023 5:30:00 PM 19.43 66.974 0.078 7.38 181.84 8
8/18/2023 5:45:00 PM 19.42 66.956 0.077 7.38 189.95 8.02
8/18/2023 6:00:00 PM 19.41 66.938 0.077 7.37 178.65 8.03
8/18/2023 6:15:00 PM 19.4 66.92 0.077 7.37 190.62 8.02
8/18/2023 6:30:00 PM 19.39 66.902 0.077 7.37 196.68 8.01
8/18/2023 6:45:00 PM 19.38 66.884 0.077 7.36 179.58 8.01
8/18/2023 7:00:00 PM 19.38 66.884 0.077 7.36 178.85 8.03
8/18/2023 7:15:00 PM 19.37 66.866 0.078 7.36 170.59 8.03
8/18/2023 7:30:00 PM 19.36 66.848 0.078 7.36 176.02 8.04
8/18/2023 7:45:00 PM 19.35 66.83 0.078 7.37 155.36 8.04
8/18/2023 8:00:00 PM 19.35 66.83 0.078 7.37 158.77 8.04
8/18/2023 8:15:00 PM 19.34 66.812 0.078 7.37 150.33 8.04
8/18/2023 8:30:00 PM 19.33 66.794 0.078 7.36 151.86 8.03
8/18/2023 8:45:00 PM 19.32 66.776 0.078 7.36 127.67 8.05
8/18/2023 9:00:00 PM 19.3 66.74 0.078 7.36 126.19 8.07
8/18/2023 9:15:00 PM 19.29 66.722 0.078 7.36 125.13 8.08
8/18/2023 9:30:00 PM 19.27 66.686 0.078 7.36 112.27 8.08
8/18/2023 9:45:00 PM 19.26 66.668 0.078 7.35 104.58 8.08
8/18/2023 10:00:00 PM 19.24 66.632 0.078 7.35 101.24 8.09
8/18/2023 10:15:00 PM 19.22 66.596 0.079 7.35 107.64 8.11
8/18/2023 10:30:00 PM 19.19 66.542 0.079 7.35 99 8.1
8/18/2023 10:45:00 PM 19.16 66.488 0.079 7.36 100.5 8.13
8/18/2023 11:00:00 PM 19.14 66.452 0.079 7.36 98.85 8.12
8/18/2023 11:15:00 PM 19.12 66.416 0.079 7.36 94.64 8.15
8/18/2023 11:30:00 PM 19.1 66.38 0.079 7.36 89.36 8.15
8/18/2023 11:45:00 PM 19.07 66.326 0.079 7.36 87.15 8.16
8/19/2023 12:00:00 AM 19.05 66.29 0.08 7.36 81.63 8.15
8/19/2023 12:15:00 AM 19.03 66.254 0.08 7.37 73.56 8.17
8/19/2023 12:30:00 AM 19.01 66.218 0.08 7.37 80.95 8.18
8/19/2023 12:45:00 AM 18.98 66.164 0.081 7.37 76.89 8.19
8/19/2023 1:00:00 AM 18.96 66.128 0.081 7.37 72.54 8.18
8/19/2023 1:15:00 AM 18.93 66.074 0.081 7.37 69.67 8.2
8/19/2023 1:30:00 AM 18.91 66.038 0.081 7.37 73.18 8.19
8/19/2023 1:45:00 AM 18.89 66.002 0.082 7.37 66.05 8.18
8/19/2023 2:00:00 AM 18.86 65.948 0.082 7.38 65.2 8.22
8/19/2023 2:15:00 AM 20.31 68.558 0.124 7.37 51.18 8.4
8/19/2023 2:30:00 AM 20.06 68.108 0.116 7.44 38.81 8.38
8/19/2023 2:45:00 AM 19.21 66.578 0.092 7.45 54.35 8.23
8/19/2023 3:00:00 AM 18.81 65.858 0.084 7.42 68.44 8.18
8/19/2023 3:15:00 AM 18.76 65.768 0.084 7.41 75.42 7.91
8/19/2023 3:30:00 AM 18.74 65.732 0.084 7.4 68.71 8.22
8/19/2023 3:45:00 AM 18.71 65.67799 0.085 7.4 72.51 8.25
8/19/2023 4:00:00 AM 18.69 65.642 0.085 7.41 64.33 8.29
8/19/2023 4:15:00 AM 18.68 65.624 0.085 7.41 65.5 8.23
8/19/2023 4:30:00 AM 18.65 65.57 0.086 7.41 64.95 8.3
8/19/2023 4:45:00 AM 18.63 65.534 0.084 7.41 51.89 8.24
8/19/2023 5:00:00 AM 18.61 65.498 0.086 7.41 53.54 8.24
8/19/2023 5:15:00 AM 18.58 65.444 0.087 7.41 52.61 8.29
8/19/2023 5:30:00 AM 18.56 65.408 0.087 7.41 56.26 8.28
8/19/2023 5:45:00 AM 18.53 65.354 0.087 7.41 53.87 8.23
8/19/2023 6:00:00 AM 18.51 65.318 0.088 7.42 40.72 8.28
8/19/2023 6:15:00 AM 18.49 65.282 0.088 7.42 49.01 8.2
8/19/2023 6:30:00 AM 18.47 65.246 0.089 7.42 45.46 8.26
8/19/2023 6:45:00 AM 18.45 65.21 0.089 7.42 50.89 8.3
8/19/2023 7:00:00 AM 18.43 65.174 0.09 7.43 47.17 8.25
8/19/2023 7:15:00 AM 18.41 65.138 0.09 7.43 50.31 8.29
8/19/2023 7:30:00 AM 18.39 65.102 0.091 7.43 50.41 8.33
8/19/2023 7:45:00 AM 18.38 65.084 0.091 7.43 42.4 8.29
8/19/2023 8:00:00 AM 18.36 65.048 0.092 7.43 47.12 8.13
8/19/2023 8:15:00 AM 18.34 65.012 0.092 7.44 37.36 8.33
8/19/2023 8:30:00 AM 18.33 64.994 0.093 7.44 38.42 8.29
8/19/2023 8:45:00 AM 18.32 64.976 0.093 7.44 42.39 8.27
8/19/2023 9:00:00 AM 18.31 64.958 0.094 7.44 47.19 8.2
8/19/2023 9:15:00 AM 18.3 64.94 0.094 7.44 46.36 8.31
8/19/2023 9:30:00 AM 18.29 64.922 0.095 7.45 47.35 8.33
8/19/2023 9:45:00 AM 18.3 64.94 0.095 7.45 45.79 8.32
8/19/2023 10:00:00 AM 18.31 64.958 0.096 7.45 43.77 8.33
8/19/2023 10:15:00 AM 18.32 64.976 0.096 7.45 42.99 8.3
8/19/2023 10:30:00 AM 18.34 65.012 0.096 7.46 44.83 8.33
8/19/2023 10:45:00 AM 18.35 65.03 0.097 7.46 43.15 8.33
8/19/2023 11:00:00 AM 18.38 65.084 0.097 7.46 43.97 8.35
8/19/2023 11:15:00 AM 18.41 65.138 0.098 7.47 42.82 8.34
8/19/2023 11:30:00 AM 18.43 65.174 0.098 7.47 41.26 8.35
8/19/2023 11:45:00 AM 18.46 65.228 0.098 7.47 39.28 8.31
8/19/2023 12:00:00 PM 18.5 65.3 0.099 7.47 40.82 8.33
8/19/2023 12:15:00 PM 18.54 65.372 0.099 7.47 33.2 8.33
8/19/2023 12:30:00 PM 18.59 65.462 0.1 7.47 39.74 8.32
8/19/2023 12:45:00 PM 18.63 65.534 0.1 7.48 35.13 8.32
8/19/2023 1:00:00 PM 18.69 65.642 0.101 7.48 36.32 8.23
8/19/2023 1:15:00 PM 18.76 65.768 0.101 7.48 36.72 8.35
8/19/2023 1:30:00 PM 18.82 65.876 0.101 7.48 36.41 8.34
8/19/2023 1:45:00 PM 18.88 65.984 0.101 7.49 32.71 8.35
8/19/2023 2:00:00 PM 18.94 66.092 0.102 7.49 34.13 8.36
8/19/2023 2:15:00 PM 19.75 67.55 0.118 7.48 29.44 8.38
8/19/2023 2:30:00 PM 19.56 67.208 0.11 7.47 26.6 8.47
8/19/2023 2:45:00 PM 19.16 66.488 0.104 7.48 33.71 8.06
8/19/2023 3:00:00 PM 19.2 66.56 0.104 7.49 35.04 8.27
8/19/2023 3:15:00 PM 19.23 66.614 0.104 7.5 35.15 8.28
8/19/2023 3:30:00 PM 19.26 66.668 0.104 7.51 33.18 8.05
8/19/2023 3:45:00 PM 19.32 66.776 0.105 7.51 32.12 8.36
8/19/2023 4:00:00 PM 19.38 66.884 0.105 7.51 27.72 8.33
8/19/2023 4:15:00 PM 19.43 66.974 0.106 7.51 33.54 8.27
8/19/2023 4:30:00 PM 19.48 67.064 0.106 7.51 32.28 8.15
8/19/2023 4:45:00 PM 19.51 67.118 0.106 7.51 32.54 8.21
8/19/2023 5:00:00 PM 19.55 67.19 0.107 7.51 32.9 8.35
8/19/2023 5:15:00 PM 19.58 67.244 0.107 7.52 33.11 8.32
8/19/2023 5:30:00 PM 19.62 67.316 0.108 7.52 33.73 8.33
8/19/2023 5:45:00 PM 19.64 67.352 0.108 7.52 30.32 8.31
8/19/2023 6:00:00 PM 19.66 67.388 0.108 7.53 32.02 8.34
8/19/2023 6:15:00 PM 19.68 67.424 0.109 7.53 30.07 8.33
8/19/2023 6:30:00 PM 19.69 67.442 0.109 7.53 35.22 8.29
8/19/2023 6:45:00 PM 19.7 67.46 0.11 7.53 31.13 8.35
8/19/2023 7:00:00 PM 19.72 67.496 0.11 7.54 31.08 7.9
8/19/2023 7:15:00 PM 19.72 67.496 0.11 7.54 29.56 8.33
8/19/2023 7:30:00 PM 19.73 67.514 0.111 7.54 28.19 8.36
8/19/2023 7:45:00 PM 19.73 67.514 0.111 7.54 23.85 8.32
8/19/2023 8:00:00 PM 19.74 67.532 0.112 7.55 28.67 8.37
8/19/2023 8:15:00 PM 19.74 67.532 0.112 7.55 30.87 8.33
8/19/2023 8:30:00 PM 19.74 67.532 0.113 7.55 30.48 8.35
8/19/2023 8:45:00 PM 19.73 67.514 0.113 7.55 29.92 8.36
8/19/2023 9:00:00 PM 19.73 67.514 0.113 7.56 27.77 8.36
8/19/2023 9:15:00 PM 19.71 67.478 0.114 7.56 29.69 8.37
8/19/2023 9:30:00 PM 19.72 67.496 0.115 7.56 29.27 8.35
8/19/2023 9:45:00 PM 19.71 67.478 0.115 7.56 27.74 8.35
8/19/2023 10:00:00 PM 19.71 67.478 0.116 7.56 29.89 8.39
8/19/2023 10:15:00 PM 19.7 67.46 0.116 7.56 28.43 8.39
8/19/2023 10:30:00 PM 19.7 67.46 0.116 7.57 26.58 8.35
8/19/2023 10:45:00 PM 19.69 67.442 0.117 7.57 29.41 8.36
8/19/2023 11:00:00 PM 19.69 67.442 0.117 7.57 28.32 8.33
8/19/2023 11:15:00 PM 19.69 67.442 0.118 7.57 27.82 8.34
8/19/2023 11:30:00 PM 19.69 67.442 0.118 7.57 27.11 8.36
8/19/2023 11:45:00 PM 19.69 67.442 0.119 7.57 28.03 8.34
8/20/2023 12:00:00 AM 19.69 67.442 0.119 7.57 26.86 8.36
8/20/2023 12:15:00 AM 19.7 67.46 0.119 7.57 25.97 8.32
8/20/2023 12:30:00 AM 19.7 67.46 0.12 7.57 26.67 8.31
8/20/2023 12:45:00 AM 19.7 67.46 0.12 7.57 27.19 8.35
8/20/2023 1:00:00 AM 19.7 67.46 0.12 7.57 24.54 8.32
8/20/2023 1:15:00 AM 19.7 67.46 0.121 7.58 26.37 8.33
8/20/2023 1:30:00 AM 19.7 67.46 0.121 7.58 27.26 8.31
8/20/2023 1:45:00 AM 19.7 67.46 0.122 7.58 24.95 8.3
8/20/2023 2:00:00 AM 19.69 67.442 0.122 7.58 23.85 8.31
8/20/2023 2:15:00 AM 19.7 67.46 0.122 7.58 24.64 8.3
8/20/2023 2:30:00 AM 19.68 67.424 0.123 7.57 22.49 8.33
8/20/2023 2:45:00 AM 19.68 67.424 0.123 7.57 24.08 8.27
8/20/2023 3:00:00 AM 19.67 67.406 0.123 7.57 24.26 8.3
8/20/2023 3:15:00 AM 19.66 67.388 0.124 7.56 22.16 8.33
8/20/2023 3:30:00 AM 19.65 67.37 0.124 7.57 23.36 8.3
8/20/2023 3:45:00 AM 19.64 67.352 0.124 7.57 22.1 8.3
8/20/2023 4:00:00 AM 19.63 67.334 0.125 7.56 21.15 8.25
8/20/2023 4:15:00 AM 19.61 67.298 0.125 7.55 21.71 8.23
8/20/2023 4:30:00 AM 19.6 67.28 0.125 7.54 21.05 8.21
8/20/2023 4:45:00 AM 19.59 67.262 0.126 7.55 21.41 8.24
8/20/2023 5:00:00 AM 19.57 67.226 0.126 7.54 21.8 8.25
8/20/2023 5:15:00 AM 19.55 67.19 0.127 7.54 23.72 8.22
8/20/2023 5:30:00 AM 19.53 67.154 0.127 7.54 22.13 8.24
8/20/2023 5:45:00 AM 19.5 67.1 0.127 7.55 19.93 8.23
8/20/2023 6:00:00 AM 19.47 67.046 0.128 7.55 19.29 8.21
8/20/2023 6:15:00 AM 19.45 67.01 0.128 7.55 21.81 8.2
8/20/2023 6:30:00 AM 19.42 66.956 0.128 7.55 22.18 8.24
8/20/2023 6:45:00 AM 19.39 66.902 0.128 7.55 21.25 8.2
8/20/2023 7:00:00 AM 19.36 66.848 0.129 7.54 20.77 8.22
8/20/2023 7:15:00 AM 19.34 66.812 0.13 7.55 20.38 8.23
8/20/2023 7:30:00 AM 19.31 66.758 0.132 7.56 20.7 8.22
8/20/2023 7:45:00 AM 19.28 66.704 0.133 7.56 21.49 8.22
8/20/2023 8:00:00 AM 19.25 66.65 0.132 7.56 21.35 8.24
8/20/2023 8:15:00 AM 19.22 66.596 0.136 7.55 21.78 8.26
8/20/2023 8:30:00 AM 19.2 66.56 0.138 7.55 21.61 8.25
8/20/2023 8:45:00 AM 19.18 66.524 0.137 7.55 21.62 8.25
8/20/2023 9:00:00 AM 19.17 66.506 0.137 7.56 21.01 8.28
8/20/2023 9:15:00 AM 19.16 66.488 0.137 7.56 22.49 8.28
8/20/2023 9:30:00 AM 19.16 66.488 0.137 7.57 21.33 8.26
8/20/2023 9:45:00 AM 19.17 66.506 0.135 7.57 21.5 8.31
8/20/2023 10:00:00 AM 19.17 66.506 0.133 7.58 21.48 8.24
8/20/2023 10:15:00 AM 19.19 66.542 0.132 7.58 20.53 8.28
8/20/2023 10:30:00 AM 19.2 66.56 0.132 7.58 20.8 8.26
8/20/2023 10:45:00 AM 19.24 66.632 0.132 7.59 25.97 8.3
8/20/2023 11:00:00 AM 19.28 66.704 0.132 7.6 23.62 8.27
8/20/2023 11:15:00 AM 19.32 66.776 0.133 7.6 23.95 8.32
8/20/2023 11:30:00 AM 19.37 66.866 0.133 7.6 21 8.33
8/20/2023 11:45:00 AM 19.42 66.956 0.136 7.6 22.64 8.32
8/20/2023 12:00:00 PM 19.48 67.064 0.137 7.61 20.63 8.34
8/20/2023 12:15:00 PM 19.53 67.154 0.136 7.61 21.93 8.36
8/20/2023 12:30:00 PM 19.6 67.28 0.136 7.62 22.15 8.32
8/20/2023 12:45:00 PM 19.67 67.406 0.136 7.63 21.63 8.32
8/20/2023 1:00:00 PM 19.73 67.514 0.136 7.64 19.89 8.35
8/20/2023 1:15:00 PM 19.8 67.64 0.136 7.64 21.02 8.3
8/20/2023 1:30:00 PM 19.87 67.766 0.136 7.64 19.83 8.33
8/20/2023 1:45:00 PM 19.95 67.91 0.137 7.64 18.65 8.35
8/20/2023 2:00:00 PM 20.04 68.07201 0.137 7.65 19.73 8.35
8/20/2023 2:15:00 PM 20.11 68.198 0.137 7.65 21.29 8.32
8/20/2023 2:30:00 PM 20.18 68.324 0.138 7.66 20.51 8.35
8/20/2023 2:45:00 PM 20.26 68.468 0.138 7.66 20.58 8.35
8/20/2023 3:00:00 PM 20.32 68.576 0.138 7.67 19.82 8.38
8/20/2023 3:15:00 PM 20.4 68.72 0.138 7.68 18.99 8.39
8/20/2023 3:30:00 PM 20.47 68.846 0.138 7.68 19.75 8.36
8/20/2023 3:45:00 PM 20.53 68.954 0.138 7.68 17.93 8.37
8/20/2023 4:00:00 PM 20.61 69.098 0.139 7.69 19.15 8.41
8/20/2023 4:15:00 PM 20.67 69.206 0.139 7.69 20.05 8.38
8/20/2023 4:30:00 PM 20.73 69.314 0.139 7.69 19.6 8.45
8/20/2023 4:45:00 PM 20.99 69.782 0.14 7.69 19.8 8.55
8/20/2023 5:00:00 PM 20.76 69.368 0.137 7.64 17.06 8.56
8/20/2023 5:15:00 PM 20.77 69.386 0.139 7.62 20.05 8.59
8/20/2023 5:30:00 PM 20.9 69.62 0.14 7.64 19.48 8.5
8/20/2023 5:45:00 PM 20.95 69.71 0.14 7.67 17.08 8.52
8/20/2023 6:00:00 PM 20.99 69.782 0.14 7.69 19.67 8.51
8/20/2023 6:15:00 PM 21.01 69.818 0.14 7.7 19.49 8.52
8/20/2023 6:30:00 PM 21.04 69.872 0.14 7.71 19.26 8.51
8/20/2023 6:45:00 PM 21.05 69.89 0.14 7.72 18.83 8.5
8/20/2023 7:00:00 PM 21.06 69.908 0.14 7.72 18.96 8.48
8/20/2023 7:15:00 PM 21.05 69.89 0.14 7.73 19.32 8.5
8/20/2023 7:30:00 PM 21.05 69.89 0.141 7.73 18.24 8.5
8/20/2023 7:45:00 PM 21.04 69.872 0.141 7.73 19.17 8.51
8/20/2023 8:00:00 PM 21.03 69.854 0.142 7.73 19.81 8.52
8/20/2023 8:15:00 PM 21.01 69.818 0.143 7.74 19.76 8.51
8/20/2023 8:30:00 PM 20.99 69.782 0.142 7.74 19.13 8.51
8/20/2023 8:45:00 PM 20.96 69.728 0.142 7.73 19.37 8.51
8/20/2023 9:00:00 PM 20.94 69.692 0.142 7.73 20.23 8.5
8/20/2023 9:15:00 PM 20.92 69.656 0.143 7.73 18.83 8.51
8/20/2023 9:30:00 PM 20.91 69.638 0.143 7.73 18.94 8.51
8/20/2023 9:45:00 PM 20.9 69.62 0.142 7.73 19.05 8.5
8/20/2023 10:00:00 PM 20.88 69.584 0.143 7.73 19.38 8.49
8/20/2023 10:15:00 PM 20.86 69.548 0.143 7.73 19.31 8.49
8/20/2023 10:30:00 PM 20.84 69.512 0.142 7.73 18.49 8.48
8/20/2023 10:45:00 PM 20.82 69.476 0.143 7.73 21.05 8.48
8/20/2023 11:00:00 PM 20.8 69.44 0.143 7.73 20.9 8.49
8/20/2023 11:15:00 PM 20.78 69.404 0.143 7.74 20.32 8.47
8/20/2023 11:30:00 PM 20.77 69.386 0.143 7.74 20.39 8.45
8/20/2023 11:45:00 PM 20.75 69.35 0.143 7.74 20.06 8.42
8/21/2023 12:00:00 AM 20.74 69.332 0.143 7.74 20.6 8.42
8/21/2023 12:15:00 AM 20.73 69.314 0.143 7.73 19.81 8.42
8/21/2023 12:30:00 AM 20.72 69.296 0.143 7.73 19.07 8.4
8/21/2023 12:45:00 AM 20.72 69.296 0.143 7.73 20.69 8.39
8/21/2023 1:00:00 AM 20.72 69.296 0.143 7.73 19.33 8.37
8/21/2023 1:15:00 AM 20.72 69.296 0.143 7.73 20.3 8.36
8/21/2023 1:30:00 AM 20.72 69.296 0.143 7.72 20.38 8.36
8/21/2023 1:45:00 AM 20.72 69.296 0.144 7.72 19.68 8.35
8/21/2023 2:00:00 AM 20.74 69.332 0.144 7.72 20.54 8.35
8/21/2023 2:15:00 AM 20.75 69.35 0.144 7.72 20.37 8.34
8/21/2023 2:30:00 AM 20.75 69.35 0.144 7.72 20.37 8.33
8/21/2023 2:45:00 AM 20.75 69.35 0.144 7.72 19.68 8.34
8/21/2023 3:00:00 AM 20.75 69.35 0.145 7.72 21.04 8.34
8/21/2023 3:15:00 AM 20.76 69.368 0.144 7.72 19.82 8.32
8/21/2023 3:30:00 AM 20.76 69.368 0.144 7.72 19.22 8.32
8/21/2023 3:45:00 AM 20.77 69.386 0.144 7.72 19.95 8.32
8/21/2023 4:00:00 AM 20.77 69.386 0.144 7.72 19.65 8.3
8/21/2023 4:15:00 AM 20.77 69.386 0.144 7.72 19.39 8.3
8/21/2023 4:30:00 AM 20.76 69.368 0.145 7.72 19.24 8.29
8/21/2023 4:45:00 AM 20.76 69.368 0.146 7.72 19.47 8.28
8/21/2023 5:00:00 AM 20.76 69.368 0.146 7.72 18.88 8.3
8/21/2023 5:15:00 AM 20.75 69.35 0.147 7.72 18.89 8.28
8/21/2023 5:30:00 AM 20.74 69.332 0.148 7.72 19.4 8.28
8/21/2023 5:45:00 AM 20.73 69.314 0.148 7.72 17.89 8.27
8/21/2023 6:00:00 AM 20.72 69.296 0.149 7.72 18.68 8.25
8/21/2023 6:15:00 AM 20.71 69.278 0.149 7.72 18.58 8.25
8/21/2023 6:30:00 AM 20.69 69.242 0.149 7.72 18.18 8.24
8/21/2023 6:45:00 AM 20.68 69.224 0.149 7.72 19.21 8.23
8/21/2023 7:00:00 AM 20.67 69.206 0.149 7.72 18.87 8.22
8/21/2023 7:15:00 AM 20.65 69.17 0.149 7.72 18.49 8.21
8/21/2023 7:30:00 AM 20.63 69.134 0.15 7.71 18.61 8.21
8/21/2023 7:45:00 AM 20.62 69.116 0.15 7.71 18.18 8.21
8/21/2023 8:00:00 AM 20.61 69.098 0.15 7.71 17.97 8.2
8/21/2023 8:15:00 AM 20.6 69.08 0.15 7.71 18.25 8.18
8/21/2023 8:30:00 AM 20.59 69.062 0.15 7.71 17.98 8.19
8/21/2023 8:45:00 AM 20.58 69.044 0.15 7.71 18.23 8.18
8/21/2023 9:00:00 AM 20.58 69.044 0.15 7.71 17.74 8.19
8/21/2023 9:15:00 AM 20.58 69.044 0.15 7.71 17.88 8.19
8/21/2023 9:30:00 AM 20.59 69.062 0.152 7.7 17.64 8.17
8/21/2023 9:45:00 AM 20.59 69.062 0.152 7.71 17.69 8.19
8/21/2023 10:00:00 AM 20.61 69.098 0.151 7.71 17.79 8.2
8/21/2023 10:15:00 AM 20.63 69.134 0.151 7.71 17.18 8.18
8/21/2023 10:30:00 AM 20.65 69.17 0.152 7.71 17.71 8.19
8/21/2023 10:45:00 AM 20.69 69.242 0.152 7.71 17.86 8.17
8/21/2023 11:00:00 AM 20.74 69.332 0.152 7.71 17.5 8.2
8/21/2023 11:15:00 AM 20.79 69.422 0.151 7.71 17.61 8.2
8/21/2023 11:30:00 AM 20.83 69.494 0.151 7.71 17.21 8.01
8/21/2023 11:45:00 AM 20.86 69.548 0.15 7.71 17.05 8.23
8/21/2023 12:00:00 PM 20.9 69.62 0.149 7.72 17.45 8.24
8/21/2023 12:15:00 PM 20.94 69.692 0.149 7.72 17.44 8.27
8/21/2023 12:30:00 PM 20.98 69.764 0.148 7.72 17.08 7.31
8/21/2023 12:45:00 PM 21.03 69.854 0.148 7.72 17.16 8.23
8/21/2023 1:00:00 PM 21.07 69.926 0.148 7.73 17.15 8.26
8/21/2023 1:15:00 PM 21.13 70.034 0.149 7.73 16.81 8.21
8/21/2023 1:30:00 PM 21.18 70.124 0.148 7.73 17.15 8.33
8/21/2023 1:45:00 PM 21.25 70.25 0.149 7.74 17.21 8.34
8/21/2023 2:00:00 PM 21.41 70.538 0.151 7.74 20.91 8.6
8/21/2023 2:15:00 PM 21.46 70.628 0.152 7.67 17.42 8.67
8/21/2023 2:30:00 PM 21.42 70.556 0.15 7.65 16.24 8.39
8/21/2023 2:45:00 PM 21.56 70.808 0.149 7.68 16.58 8.43
8/21/2023 3:00:00 PM 21.65 70.97 0.15 7.72 16.26 8.46
8/21/2023 3:15:00 PM 21.74 71.132 0.15 7.74 16.17 8.48
8/21/2023 3:30:00 PM 21.83 71.294 0.15 7.76 16 8.49
8/21/2023 3:45:00 PM 21.91 71.438 0.15 7.77 16.04 8.53
8/21/2023 4:00:00 PM 22.01 71.618 0.15 7.78 15.79 8.53
8/21/2023 4:15:00 PM 22.08 71.744 0.151 7.78 16.01 8.55
8/21/2023 4:30:00 PM 22.14 71.852 0.151 7.79 16.36 8.56
8/21/2023 4:45:00 PM 22.19 71.942 0.152 7.79 16.37 8.57
8/21/2023 5:00:00 PM 22.25 72.05 0.152 7.8 16.65 8.58
8/21/2023 5:15:00 PM 22.29 72.122 0.152 7.8 16.09 8.57
8/21/2023 5:30:00 PM 22.34 72.212 0.152 7.8 16.28 8.59
8/21/2023 5:45:00 PM 22.38 72.284 0.151 7.81 16.04 8.58
8/21/2023 6:00:00 PM 22.42 72.356 0.152 7.81 16.4 8.59
8/21/2023 6:15:00 PM 22.45 72.41 0.152 7.81 16.15 8.6
8/21/2023 6:30:00 PM 22.47 72.446 0.152 7.81 15.49 8.57
8/21/2023 6:45:00 PM 22.49 72.482 0.152 7.81 16.26 8.56
8/21/2023 7:00:00 PM 22.49 72.482 0.152 7.81 16.58 8.56
8/21/2023 7:15:00 PM 22.5 72.5 0.152 7.81 16.61 8.57
8/21/2023 7:30:00 PM 22.52 72.536 0.152 7.81 27.2 8.58
8/21/2023 7:45:00 PM 22.53 72.554 0.152 7.83 22.31 8.56
8/21/2023 8:00:00 PM 22.52 72.536 0.152 7.83 23.09 8.54
8/21/2023 8:15:00 PM 22.52 72.536 0.152 7.83 33.85 8.52
8/21/2023 8:30:00 PM 22.52 72.536 0.152 7.83 18.45 8.53
8/21/2023 8:45:00 PM 22.51 72.518 0.153 7.83 16.44 8.53
8/21/2023 9:00:00 PM 22.5 72.5 0.153 7.83 17.06 8.51
8/21/2023 9:15:00 PM 22.48 72.464 0.153 7.83 17.06 8.49
8/21/2023 9:30:00 PM 22.44 72.392 0.153 7.83 15.37 8.47
8/21/2023 9:45:00 PM 22.39 72.302 0.153 7.83 14.38 8.46
8/21/2023 10:00:00 PM 22.34 72.212 0.153 7.83 14.64 8.33
8/21/2023 10:15:00 PM 22.29 72.122 0.153 7.82 14.25 8.32
8/21/2023 10:30:00 PM 22.25 72.05 0.153 7.83 13.8 8.43
8/21/2023 10:45:00 PM 22.23 72.014 0.153 7.83 16.36 8.46
8/21/2023 11:00:00 PM 22.2 71.96 0.153 7.82 19.25 8.45
8/21/2023 11:15:00 PM 22.17 71.906 0.153 7.83 15.27 8.44
8/21/2023 11:30:00 PM 22.16 71.888 0.153 7.82 16.05 8.42
8/21/2023 11:45:00 PM 22.14 71.852 0.153 7.82 17.03 8.42
8/22/2023 12:00:00 AM 22.12 71.816 0.154 7.82 14.4 8.38
8/22/2023 12:15:00 AM 22.11 71.798 0.154 7.82 14.07 8.46
8/22/2023 12:30:00 AM 22.08 71.744 0.154 7.82 14.07 8.36
8/22/2023 12:45:00 AM 22.07 71.726 0.154 7.82 13.55 8.33
8/22/2023 1:00:00 AM 22.05 71.69 0.154 7.82 14.13 8.33
8/22/2023 1:15:00 AM 22.03 71.654 0.154 7.81 14.46 8.35
8/22/2023 1:30:00 AM 22.02 71.636 0.154 7.81 13.06 8.33
8/22/2023 1:45:00 AM 22 71.6 0.154 7.81 13.49 8.29
8/22/2023 2:00:00 AM 21.98 71.564 0.154 7.81 12.24 8.31
8/22/2023 2:15:00 AM 21.96 71.528 0.154 7.82 11.07 8.21
8/22/2023 2:30:00 AM 22.01 71.618 0.162 7.79 14.06 8.64
8/22/2023 2:45:00 AM 21.93 71.474 0.157 7.74 10.65 8.54
8/22/2023 3:00:00 AM 21.87 71.366 0.155 7.77 15.57 8.28
8/22/2023 3:15:00 AM 21.86 71.348 0.155 7.79 12.68 8.26
8/22/2023 3:30:00 AM 21.84 71.312 0.155 7.8 13.54 8.27
8/22/2023 3:45:00 AM 21.84 71.312 0.155 7.8 15.51 8.27
8/22/2023 4:00:00 AM 21.83 71.294 0.156 7.8 11.64 8.23
8/22/2023 4:15:00 AM 21.81 71.258 0.156 7.81 11.82 8.22
8/22/2023 4:30:00 AM 21.8 71.24 0.156 7.8 12.43 8.24
8/22/2023 4:45:00 AM 21.79 71.222 0.156 7.81 10.8 8.2
8/22/2023 5:00:00 AM 21.77 71.186 0.156 7.8 13.58 8.21
8/22/2023 5:15:00 AM 21.76 71.168 0.156 7.81 9.68 8.2
8/22/2023 5:30:00 AM 21.75 71.15 0.157 7.81 11.1 8.2
8/22/2023 5:45:00 AM 21.74 71.132 0.158 7.8 14.23 8.18
8/22/2023 6:00:00 AM 21.72 71.096 0.16 7.8 11.6 8.16
8/22/2023 6:15:00 AM 21.69 71.042 0.16 7.8 13.11 8.18
8/22/2023 6:30:00 AM 21.65 70.97 0.162 7.81 11.24 8.2
8/22/2023 6:45:00 AM 21.63 70.934 0.162 7.8 12.7 8.13
8/22/2023 7:00:00 AM 21.61 70.898 0.162 7.81 9.93 8.14
8/22/2023 7:15:00 AM 21.6 70.88 0.163 7.81 10.41 8.13
8/22/2023 7:30:00 AM 21.58 70.844 0.163 7.81 10.75 8.1
8/22/2023 7:45:00 AM 21.56 70.808 0.163 7.8 10.28 8.11
8/22/2023 8:00:00 AM 21.52 70.736 0.164 7.81 12.62 8.14
8/22/2023 8:15:00 AM 21.51 70.718 0.163 7.81 11.75 8.15
8/22/2023 8:30:00 AM 21.48 70.664 0.163 7.81 10.23 8.13
8/22/2023 8:45:00 AM 21.45 70.61 0.142 7.81 9.62 8.13
8/22/2023 9:00:00 AM 21.43 70.574 0.164 7.81 8.96 8.13
8/22/2023 9:15:00 AM 21.42 70.556 0.163 7.81 9.45 8.14
8/22/2023 9:30:00 AM 21.4 70.52 0.163 7.81 9.56 8.15
8/22/2023 9:45:00 AM 21.4 70.52 0.164 7.82 10.42 8.15
8/22/2023 10:00:00 AM 21.39 70.502 0.164 7.81 8.74 8.13
8/22/2023 10:15:00 AM 21.4 70.52 0.164 7.81 9.01 8.13
8/22/2023 10:30:00 AM 21.41 70.538 0.165 7.8 8.06 8.19
8/22/2023 10:45:00 AM 21.43 70.574 0.168 7.81 11.98 8.22
8/22/2023 11:00:00 AM 21.43 70.574 0.169 7.82 9.75 8.21
8/22/2023 11:15:00 AM 21.45 70.61 0.169 7.83 9.87 8.23
8/22/2023 11:30:00 AM 21.48 70.664 0.17 7.83 10.96 8.26
8/22/2023 11:45:00 AM 21.53 70.754 0.169 7.84 9.18 8.3
8/22/2023 12:00:00 PM 21.56 70.808 0.17 7.85 8.6 8.29
8/22/2023 12:15:00 PM 21.6 70.88 0.169 7.85 8.61 8.32
8/22/2023 12:30:00 PM 21.64 70.952 0.166 7.85 9.75 8.36
8/22/2023 12:45:00 PM 21.71 71.078 0.164 7.86 9.1 8.36
8/22/2023 1:00:00 PM 21.76 71.168 0.163 7.86 7.95 8.37
8/22/2023 1:15:00 PM 21.81 71.258 0.163 7.86 9.34 8.39
8/22/2023 1:30:00 PM 21.88 71.384 0.162 7.87 9.09 8.44
8/22/2023 1:45:00 PM 21.97 71.546 0.161 7.87 8.61 8.46
8/22/2023 2:00:00 PM 22.04 71.672 0.161 7.88 8.55 8.52
8/22/2023 2:15:00 PM 22.11 71.798 0.161 7.88 8.65 8.55
8/22/2023 2:30:00 PM 22.19 71.942 0.161 7.89 8.31 8.56
8/22/2023 2:45:00 PM 22.27 72.086 0.161 7.9 7.5 8.55
8/22/2023 3:00:00 PM 22.35 72.23 0.161 7.89 7.31 8.58
8/22/2023 3:15:00 PM 22.42 72.356 0.161 7.9 8.18 8.63
8/22/2023 3:30:00 PM 22.5 72.5 0.161 7.9 7.5 8.64
8/22/2023 3:45:00 PM 22.56 72.608 0.161 7.9 7.74 8.65
8/22/2023 4:00:00 PM 22.61 72.698 0.16 7.9 7.51 8.64
8/22/2023 4:15:00 PM 22.65 72.77 0.161 7.89 6.68 8.65
8/22/2023 4:30:00 PM 22.7 72.86 0.161 7.9 6.64 8.7
8/22/2023 4:45:00 PM 22.76 72.968 0.16 7.9 6.76 8.64
8/22/2023 5:00:00 PM 22.8 73.04 0.161 7.91 6.63 8.73
8/22/2023 5:15:00 PM 22.85 73.13 0.161 7.91 7.04 8.47
8/22/2023 5:30:00 PM 22.89 73.202 0.161 7.92 6.72 8.74
8/22/2023 5:45:00 PM 22.93 73.274 0.161 7.93 6.51 8.7
8/22/2023 6:00:00 PM 22.96 73.328 0.161 7.93 7.13 8.68
8/22/2023 6:15:00 PM 22.96 73.328 0.161 7.92 7.02 8.67
8/22/2023 6:30:00 PM 22.97 73.346 0.161 7.92 6.68 8.66
8/22/2023 6:45:00 PM 22.98 73.364 0.161 7.92 6.47 8.69
8/22/2023 7:00:00 PM 22.98 73.364 0.161 7.92 6.45 8.66
8/22/2023 7:15:00 PM 22.97 73.346 0.161 7.93 6.68 8.67
8/22/2023 7:30:00 PM 22.96 73.328 0.161 7.93 6.38 8.63
8/22/2023 7:45:00 PM 22.95 73.31 0.162 7.93 6.71 8.66
8/22/2023 8:00:00 PM 22.95 73.31 0.162 7.93 6.7 8.62
8/22/2023 8:15:00 PM 22.93 73.274 0.162 7.93 6.47 8.65
8/22/2023 8:30:00 PM 22.91 73.238 0.162 7.93 6.29 8.63
8/22/2023 8:45:00 PM 22.88 73.184 0.162 7.93 7.25 8.56
8/22/2023 9:00:00 PM 22.84 73.112 0.162 7.93 7.56 8.56
8/22/2023 9:15:00 PM 22.8 73.04 0.162 7.93 6.65 8.6
8/22/2023 9:30:00 PM 22.76 72.968 0.162 7.93 7.15 8.57
8/22/2023 9:45:00 PM 22.72 72.896 0.162 7.92 6.5 8.57
8/22/2023 10:00:00 PM 22.68 72.824 0.162 7.92 6.55 8.54
8/22/2023 10:15:00 PM 22.63 72.734 0.162 7.92 6.87 8.5
8/22/2023 10:30:00 PM 22.58 72.644 0.162 7.91 7.53 8.5
8/22/2023 10:45:00 PM 22.53 72.554 0.162 7.91 7.14 8.51
8/22/2023 11:00:00 PM 22.48 72.464 0.162 7.91 6.59 8.49
8/22/2023 11:15:00 PM 22.44 72.392 0.162 7.9 6.98 8.47
8/22/2023 11:30:00 PM 22.39 72.302 0.162 7.9 7.12 8.46
8/22/2023 11:45:00 PM 22.34 72.212 0.162 7.89 6.94 8.44
8/23/2023 12:00:00 AM 22.3 72.14 0.162 7.89 6.74 8.44
8/23/2023 12:15:00 AM 22.26 72.068 0.162 7.89 7.46 8.41
8/23/2023 12:30:00 AM 22.21 71.978 0.162 7.88 7.68 8.42
8/23/2023 12:45:00 AM 22.16 71.888 0.163 7.88 7.14 8.38
8/23/2023 1:00:00 AM 22.12 71.816 0.163 7.88 8.11 8.38
8/23/2023 1:15:00 AM 22.07 71.726 0.163 7.87 7.6 8.33
8/23/2023 1:30:00 AM 22.03 71.654 0.163 7.87 7.71 8.34
8/23/2023 1:45:00 AM 21.99 71.582 0.163 7.87 7.39 8.29
8/23/2023 2:00:00 AM 21.97 71.546 0.162 7.87 7.77 8.27
8/23/2023 2:15:00 AM 22.22 71.996 0.17 7.85 13.41 8.63
8/23/2023 2:30:00 AM 22.15 71.87 0.168 7.81 12.55 8.72
8/23/2023 2:45:00 AM 21.92 71.456 0.164 7.81 11.59 8.41
8/23/2023 3:00:00 AM 21.84 71.312 0.163 7.83 9.41 8.3
8/23/2023 3:15:00 AM 21.83 71.294 0.162 7.83 8.82 8.28
8/23/2023 3:30:00 AM 21.81 71.258 0.163 7.83 7.32 8.25
8/23/2023 3:45:00 AM 21.79 71.222 0.163 7.84 7.92 8.22
8/23/2023 4:00:00 AM 21.79 71.222 0.163 7.83 7.87 8.21
8/23/2023 4:15:00 AM 21.76 71.168 0.164 7.83 7.56 8.18
8/23/2023 4:30:00 AM 21.77 71.186 0.163 7.83 7.36 8.17
8/23/2023 4:45:00 AM 21.76 71.168 0.163 7.83 7.87 8.13
8/23/2023 5:00:00 AM 21.75 71.15 0.163 7.83 8.36 8.15
8/23/2023 5:15:00 AM 21.74 71.132 0.163 7.83 7.84 8.13
8/23/2023 5:30:00 AM 21.75 71.15 0.163 7.83 7.57 8.11
8/23/2023 5:45:00 AM 21.74 71.132 0.163 7.83 8.13 8.11
8/23/2023 6:00:00 AM 21.72 71.096 0.164 7.82 7.3 8.1
8/23/2023 6:15:00 AM 21.72 71.096 0.164 7.82 8.04 8.09
8/23/2023 6:30:00 AM 21.71 71.078 0.164 7.82 7.37 8.06
8/23/2023 6:45:00 AM 21.69 71.042 0.164 7.82 7.98 8.07
8/23/2023 7:00:00 AM 21.68 71.024 0.163 7.82 7.41 8.06
8/23/2023 7:15:00 AM 21.67 71.006 0.164 7.81 9.27 8.03
8/23/2023 7:30:00 AM 21.66 70.988 0.164 7.81 7.65 8.04
8/23/2023 7:45:00 AM 21.65 70.97 0.164 7.81 8.47 8.02
8/23/2023 8:00:00 AM 21.65 70.97 0.163 7.81 7.69 8.04
8/23/2023 8:15:00 AM 21.65 70.97 0.163 7.81 8.14 8.05
8/23/2023 8:30:00 AM 21.66 70.988 0.163 7.81 8.22 8.03
8/23/2023 8:45:00 AM 21.66 70.988 0.163 7.81 7.78 8.02
8/23/2023 9:00:00 AM 21.67 71.006 0.163 7.81 8.66 8.04
8/23/2023 9:15:00 AM 21.67 71.006 0.164 7.81 7.95 8.25
8/23/2023 9:30:00 AM 21.68 71.024 0.165 7.81 7.9 8.04
8/23/2023 9:45:00 AM 21.69 71.042 0.167 7.81 8 8.05
8/23/2023 10:00:00 AM 21.73 71.114 0.168 7.83 7.74 8.1
8/23/2023 10:15:00 AM 21.74 71.132 0.17 7.84 8.18 8.1
8/23/2023 10:30:00 AM 21.77 71.186 0.17 7.84 7.46 8.12
8/23/2023 10:45:00 AM 21.79 71.222 0.171 7.84 7.68 8.15
8/23/2023 11:00:00 AM 21.83 71.294 0.171 7.85 7.99 8.17
8/23/2023 11:15:00 AM 21.86 71.348 0.171 7.86 8.13 8.18
8/23/2023 11:30:00 AM 21.93 71.474 0.171 7.87 8.5 8.22
8/23/2023 11:45:00 AM 21.99 71.582 0.17 7.87 8.14 8.21
8/23/2023 12:00:00 PM 22.04 71.672 0.171 7.89 8.38 8.29
8/23/2023 12:15:00 PM 22.08 71.744 0.17 7.89 7.94 8.32
8/23/2023 12:30:00 PM 22.08 71.744 0.172 7.9 8.29 8.36
8/23/2023 12:45:00 PM 22.08 71.744 0.17 7.91 7.53 8.34
8/23/2023 1:00:00 PM 22.09 71.762 0.169 7.91 7.36 8.37
8/23/2023 1:15:00 PM 22.11 71.798 0.168 7.91 9.38 8.23
8/23/2023 1:30:00 PM 22.13 71.834 0.167 7.92 8.08 8.45
8/23/2023 1:45:00 PM 22.15 71.87 0.167 7.93 8.01 8.49
8/23/2023 2:00:00 PM 22.17 71.906 0.166 7.93 8.22 8.52
8/23/2023 2:15:00 PM 22.18 71.924 0.166 7.94 7.65 8.55
8/23/2023 2:30:00 PM 22.19 71.942 0.166 7.94 7.43 8.57
8/23/2023 2:45:00 PM 22.19 71.942 0.166 7.95 8.06 8.6
8/23/2023 3:00:00 PM 22.19 71.942 0.166 7.96 7.66 8.62
8/23/2023 3:15:00 PM 22.19 71.942 0.165 7.96 7.93 8.64
8/23/2023 3:30:00 PM 22.2 71.96 0.165 7.97 7.65 8.65
8/23/2023 3:45:00 PM 22.2 71.96 0.166 7.97 7.46 8.67
8/23/2023 4:00:00 PM 22.21 71.978 0.166 7.97 7.34 8.7
8/23/2023 4:15:00 PM 22.37 72.266 0.176 7.94 18.31 8.75
8/23/2023 4:30:00 PM 22.23 72.014 0.172 7.86 9.08 8.66
8/23/2023 4:45:00 PM 22.24 72.032 0.166 7.89 9.05 8.74
8/23/2023 5:00:00 PM 22.25 72.05 0.165 7.95 8.46 8.75
8/23/2023 5:15:00 PM 22.26 72.068 0.166 7.98 8.25 8.8
8/23/2023 5:30:00 PM 22.26 72.068 0.165 7.99 7.59 8.81
8/23/2023 5:45:00 PM 22.26 72.068 0.165 7.99 6.94 8.84
8/23/2023 6:00:00 PM 22.26 72.068 0.165 8 7.2 8.81
8/23/2023 6:15:00 PM 22.24 72.032 0.166 7.97 7.07 8.85
8/23/2023 6:30:00 PM 22.22 71.996 0.166 7.99 7.07 8.84
8/23/2023 6:45:00 PM 22.19 71.942 0.167 8 6.85 8.84
8/23/2023 7:00:00 PM 22.18 71.924 0.167 8.01 7.55 8.86
8/23/2023 7:15:00 PM 22.17 71.906 0.167 8.02 6.92 8.83
8/23/2023 7:30:00 PM 22.15 71.87 0.166 8.01 6.98 8.83
8/23/2023 7:45:00 PM 22.12 71.816 0.167 8.01 7.51 8.83
8/23/2023 8:00:00 PM 22.09 71.762 0.167 8.01 7.39 8.79
8/23/2023 8:15:00 PM 22.05 71.69 0.168 8.01 7.61 8.77
8/23/2023 8:30:00 PM 22.03 71.654 0.168 8.01 6.88 8.74
8/23/2023 8:45:00 PM 22.02 71.636 0.167 8 7.17 8.74
8/23/2023 9:00:00 PM 22 71.6 0.167 8 7.68 8.7
8/23/2023 9:15:00 PM 21.97 71.546 0.168 7.99 7.79 8.71
8/23/2023 9:30:00 PM 21.95 71.51 0.167 7.99 7.38 8.68
8/23/2023 9:45:00 PM 21.91 71.438 0.168 7.98 7.45 8.65
8/23/2023 10:00:00 PM 21.88 71.384 0.168 7.98 7.7 8.63
8/23/2023 10:15:00 PM 21.85 71.33 0.169 7.98 7.61 8.59
8/23/2023 10:30:00 PM 21.82 71.276 0.17 7.97 7.42 8.59
8/23/2023 10:45:00 PM 21.8 71.24 0.17 7.97 7.45 8.55
8/23/2023 11:00:00 PM 21.78 71.204 0.17 7.97 6.91 8.51
8/23/2023 11:15:00 PM 21.76 71.168 0.169 7.96 7.31 8.54
8/23/2023 11:30:00 PM 21.74 71.132 0.169 7.96 7.98 8.5
8/23/2023 11:45:00 PM 21.73 71.114 0.169 7.95 7.78 8.48
8/24/2023 12:00:00 AM 21.7 71.06 0.17 7.94 8.35 8.48
8/24/2023 12:15:00 AM 21.68 71.024 0.17 7.94 8.13 8.43
8/24/2023 12:30:00 AM 21.66 70.988 0.17 7.94 7.57 8.45
8/24/2023 12:45:00 AM 21.65 70.97 0.17 7.93 7.58 8.39
8/24/2023 1:00:00 AM 21.63 70.934 0.171 7.93 7.36 8.37
8/24/2023 1:15:00 AM 21.62 70.916 0.171 7.93 7.72 8.37
8/24/2023 1:30:00 AM 21.6 70.88 0.171 7.92 7.27 8.34
8/24/2023 1:45:00 AM 21.6 70.88 0.171 7.92 7.92 8.34
8/24/2023 2:00:00 AM 21.59 70.862 0.171 7.91 7.2 8.33
8/24/2023 2:15:00 AM 21.58 70.844 0.171 7.91 7.6 8.28
8/24/2023 2:30:00 AM 21.57 70.826 0.172 7.9 7.78 8.27
8/24/2023 2:45:00 AM 21.56 70.808 0.172 7.9 7.62 8.3
8/24/2023 3:00:00 AM 21.54 70.772 0.172 7.9 7.3 8.22
8/24/2023 3:15:00 AM 21.55 70.79 0.171 7.89 7.94 8.22
8/24/2023 3:30:00 AM 21.53 70.754 0.172 7.89 7.62 8.21
8/24/2023 3:45:00 AM 21.52 70.736 0.172 7.89 7.56 8.18
8/24/2023 4:00:00 AM 21.51 70.718 0.172 7.89 7.81 8.19
8/24/2023 4:15:00 AM 21.5 70.7 0.172 7.88 8.11 8.18
8/24/2023 4:30:00 AM 21.49 70.682 0.173 7.88 7.93 8.22
8/24/2023 4:45:00 AM 21.49 70.682 0.173 7.88 7.57 8.15
8/24/2023 5:00:00 AM 21.5 70.7 0.172 7.87 8.18 8.14
8/24/2023 5:15:00 AM 21.49 70.682 0.172 7.86 7.79 8.11
8/24/2023 5:30:00 AM 21.48 70.664 0.172 7.87 8.23 8.09
8/24/2023 5:45:00 AM 21.47 70.646 0.172 7.86 7.46 8.11
8/24/2023 6:00:00 AM 21.46 70.628 0.172 7.87 7.68 8.07
8/24/2023 6:15:00 AM 21.46 70.628 0.172 7.86 7.85 8.07
8/24/2023 6:30:00 AM 21.45 70.61 0.173 7.86 7.65 8.07
8/24/2023 6:45:00 AM 21.43 70.574 0.173 7.86 7.36 8.07
8/24/2023 7:00:00 AM 21.43 70.574 0.173 7.86 7.24 8.05
8/24/2023 7:15:00 AM 21.42 70.556 0.174 7.86 7.52 8.04
8/24/2023 7:30:00 AM 21.42 70.556 0.174 7.85 7.32 8.07
8/24/2023 7:45:00 AM 21.41 70.538 0.174 7.86 7.83 8.07
8/24/2023 8:00:00 AM 21.42 70.556 0.173 7.86 7.47 8.05
8/24/2023 8:15:00 AM 21.4 70.52 0.174 7.86 7.67 8.04
8/24/2023 8:30:00 AM 21.4 70.52 0.174 7.86 7.97 8.03
8/24/2023 8:45:00 AM 21.4 70.52 0.174 7.85 7.67 8.02
8/24/2023 9:00:00 AM 21.38 70.484 0.175 7.85 7.43 8.02
8/24/2023 9:15:00 AM 21.38 70.484 0.175 7.86 7.41 8.03
8/24/2023 9:30:00 AM 21.37 70.466 0.175 7.86 7.7 8.02
8/24/2023 9:45:00 AM 21.38 70.484 0.175 7.86 6.51 8.02
8/24/2023 10:00:00 AM 21.39 70.502 0.175 7.86 7.24 8.04
8/24/2023 10:15:00 AM 21.4 70.52 0.175 7.86 6.91 8.05
8/24/2023 10:30:00 AM 21.4 70.52 0.175 7.86 7.12 8.06
8/24/2023 10:45:00 AM 21.4 70.52 0.176 7.87 6.79 8.09
8/24/2023 11:00:00 AM 21.68 71.024 0.181 7.87 17.91 8.54
8/24/2023 11:15:00 AM 21.64 70.952 0.179 7.86 9.4 8.46
8/24/2023 11:30:00 AM 21.42 70.556 0.177 7.85 9.15 8.16
8/24/2023 11:45:00 AM 21.42 70.556 0.176 7.87 7.47 8.14
8/24/2023 12:00:00 PM 21.42 70.556 0.175 7.88 7.16 8.13
8/24/2023 12:15:00 PM 21.43 70.574 0.175 7.88 7.22 8.17
8/24/2023 12:30:00 PM 21.43 70.574 0.175 7.88 6.95 8.17
8/24/2023 12:45:00 PM 21.43 70.574 0.175 7.89 6.84 8.17
8/24/2023 1:00:00 PM 21.43 70.574 0.175 7.89 6.68 8.18
8/24/2023 1:15:00 PM 21.41 70.538 0.176 7.9 6.54 8.19
8/24/2023 1:30:00 PM 21.42 70.556 0.176 7.9 6.75 8.19
8/24/2023 1:45:00 PM 21.46 70.628 0.176 7.9 6.31 8.25
8/24/2023 2:00:00 PM 21.5 70.7 0.177 7.91 6.48 8.29
8/24/2023 2:15:00 PM 21.55 70.79 0.177 7.92 6.28 8.3
8/24/2023 2:30:00 PM 21.56 70.808 0.177 7.93 7.49 8.36
8/24/2023 2:45:00 PM 21.58 70.844 0.177 7.93 6.92 8.4
8/24/2023 3:00:00 PM 21.6 70.88 0.177 7.94 6.59 8.39
8/24/2023 3:15:00 PM 21.6 70.88 0.178 7.95 6.68 8.41
8/24/2023 3:30:00 PM 21.61 70.898 0.179 7.95 7.2 8.45
8/24/2023 3:45:00 PM 21.61 70.898 0.177 7.96 6.87 8.48
8/24/2023 4:00:00 PM 21.61 70.898 0.177 7.97 6.43 8.47
8/24/2023 4:15:00 PM 21.59 70.862 0.178 7.97 6.6 8.5
8/24/2023 4:30:00 PM 21.6 70.88 0.178 7.97 6.99 8.5
8/24/2023 4:45:00 PM 21.6 70.88 0.178 7.97 6.55 8.53
8/24/2023 5:00:00 PM 21.59 70.862 0.179 7.98 6.93 8.57
8/24/2023 5:15:00 PM 21.58 70.844 0.18 7.99 6.76 8.56
8/24/2023 5:30:00 PM 21.58 70.844 0.18 7.99 6.66 8.56
8/24/2023 5:45:00 PM 21.57 70.826 0.181 8 6.29 8.55
8/24/2023 6:00:00 PM 21.57 70.826 0.181 8 6.81 8.55
8/24/2023 6:15:00 PM 21.58 70.844 0.181 8 6.88 8.58
8/24/2023 6:30:00 PM 21.59 70.862 0.18 8 6.64 8.58
8/24/2023 6:45:00 PM 21.58 70.844 0.181 8 6.45 8.59
8/24/2023 7:00:00 PM 21.58 70.844 0.18 8 6.3 8.6
8/24/2023 7:15:00 PM 21.59 70.862 0.18 7.99 6.71 8.53
8/24/2023 7:30:00 PM 21.6 70.88 0.179 7.99 6.55 8.57
8/24/2023 7:45:00 PM 21.6 70.88 0.179 7.99 6.77 8.6
8/24/2023 8:00:00 PM 21.59 70.862 0.18 7.99 6.9 8.57
8/24/2023 8:15:00 PM 21.58 70.844 0.181 7.99 6.96 8.55
8/24/2023 8:30:00 PM 21.56 70.808 0.18 8 7.09 8.54
8/24/2023 8:45:00 PM 21.54 70.772 0.18 7.99 6.99 8.53
8/24/2023 9:00:00 PM 21.51 70.718 0.181 7.99 7.2 8.52
8/24/2023 9:15:00 PM 21.48 70.664 0.181 7.99 7.12 8.49
8/24/2023 9:30:00 PM 21.46 70.628 0.18 7.98 7.05 8.46
8/24/2023 9:45:00 PM 21.43 70.574 0.181 7.97 9.25 8.44
8/24/2023 10:00:00 PM 21.41 70.538 0.181 7.97 7.14 8.39
8/24/2023 10:15:00 PM 21.39 70.502 0.18 7.96 7.69 8.37
8/24/2023 10:30:00 PM 21.37 70.466 0.18 7.96 7.09 8.38
8/24/2023 10:45:00 PM 21.35 70.43 0.181 7.95 8.75 8.35
8/24/2023 11:00:00 PM 21.32 70.376 0.182 7.95 7.79 8.33
8/24/2023 11:15:00 PM 21.3 70.34 0.181 7.95 7.1 8.32
8/24/2023 11:30:00 PM 21.27 70.286 0.181 7.94 7.17 8.29
8/24/2023 11:45:00 PM 21.25 70.25 0.181 7.94 7.21 8.27
8/25/2023 12:00:00 AM 21.22 70.196 0.181 7.94 7.39 8.27
8/25/2023 12:15:00 AM 21.2 70.16 0.181 7.93 7.24 8.26
8/25/2023 12:30:00 AM 21.19 70.142 0.182 7.93 6.6 8.23
8/25/2023 12:45:00 AM 21.16 70.088 0.182 7.92 6.68 8.2
8/25/2023 1:00:00 AM 21.15 70.07 0.181 7.92 6.62 8.23
8/25/2023 1:15:00 AM 21.13 70.034 0.181 7.92 6.84 8.19
8/25/2023 1:30:00 AM 21.1 69.98 0.182 7.91 6.82 8.18
8/25/2023 1:45:00 AM 21.07 69.926 0.182 7.91 6.98 8.17
8/25/2023 2:00:00 AM 21.05 69.89 0.182 7.9 6.59 8.14
8/25/2023 2:15:00 AM 21.02 69.836 0.183 7.9 7.12 8.12
8/25/2023 2:30:00 AM 21 69.8 0.182 7.9 6.63 8.13
8/25/2023 2:45:00 AM 20.99 69.782 0.182 7.89 7.13 8.11
8/25/2023 3:00:00 AM 20.96 69.728 0.182 7.89 6.99 8.1
8/25/2023 3:15:00 AM 20.94 69.692 0.183 7.89 7 8.08
8/25/2023 3:30:00 AM 20.92 69.656 0.183 7.88 7.43 8.09
8/25/2023 3:45:00 AM 20.9 69.62 0.183 7.88 6.49 8.1
8/25/2023 4:00:00 AM 20.89 69.602 0.182 7.88 7.14 8.09
8/25/2023 4:15:00 AM 20.87 69.566 0.182 7.88 6.94 8.11
8/25/2023 4:30:00 AM 20.87 69.566 0.182 7.88 7.17 8.11
8/25/2023 4:45:00 AM 20.85 69.53 0.182 7.88 6.89 8.08
8/25/2023 5:00:00 AM 20.84 69.512 0.181 7.87 6.87 8.07
8/25/2023 5:15:00 AM 20.83 69.494 0.181 7.87 6.91 8.01
8/25/2023 5:30:00 AM 20.82 69.476 0.182 7.87 6.75 8.06
8/25/2023 5:45:00 AM 20.8 69.44 0.182 7.87 7.02 8.1
8/25/2023 6:00:00 AM 20.79 69.422 0.182 7.87 1077.17 8.07
8/25/2023 6:15:00 AM 20.77 69.386 0.183 7.87 6.88 8.06
8/25/2023 6:30:00 AM 20.75 69.35 0.184 7.84 6.96 8.07
8/25/2023 6:45:00 AM 20.74 69.332 0.183 7.86 6.67 8.08
8/25/2023 7:00:00 AM 20.73 69.314 0.183 7.87 6.98 8.07
8/25/2023 7:15:00 AM 20.73 69.314 0.183 7.87 6.82 8.05
8/25/2023 7:30:00 AM 20.71 69.278 0.183 7.86 6.38 8.06
8/25/2023 7:45:00 AM 20.71 69.278 0.183 7.86 6.06 8.07
8/25/2023 8:00:00 AM 20.71 69.278 0.185 7.85 6.23 7.94
8/25/2023 8:15:00 AM 20.71 69.278 0.185 7.86 7.38 8.08
8/25/2023 8:30:00 AM 20.72 69.296 0.184 7.86 6.47 8.08
8/25/2023 8:45:00 AM 20.73 69.314 0.185 7.87 6.65 8.11
8/25/2023 9:00:00 AM 20.74 69.332 0.185 7.87 6.12 8.14
8/25/2023 9:15:00 AM 20.75 69.35 0.185 7.87 6.51 8.13
8/25/2023 9:30:00 AM 20.77 69.386 0.185 7.87 6.7 8.14
8/25/2023 9:45:00 AM 20.8 69.44 0.184 7.87 6.39 8.16
8/25/2023 10:00:00 AM 20.82 69.476 0.185 7.88 6.74 8.2
8/25/2023 10:15:00 AM 20.86 69.548 0.185 7.89 6.99 8.26
8/25/2023 10:30:00 AM 20.89 69.602 0.185 7.9 7 8.3
8/25/2023 10:45:00 AM 20.91 69.638 0.186 7.9 6.86 8.28
8/25/2023 11:00:00 AM 20.94 69.692 0.186 7.91 6.68 8.35
8/25/2023 11:15:00 AM 20.96 69.728 0.186 7.92 7.39 8.33
8/25/2023 11:30:00 AM 21.48 70.664 0.189 7.89 12.72 8.63
8/25/2023 11:45:00 AM 21.27 70.286 0.187 7.86 9.91 8.6
8/25/2023 12:00:00 PM 21.15 70.07 0.186 7.87 7.48 8.81
8/25/2023 12:15:00 PM 21.06 69.908 0.19 7.86 7.3 8.74
8/25/2023 12:30:00 PM 21.07 69.926 0.194 7.89 7.11 8.72
8/25/2023 12:45:00 PM 21.09 69.962 0.196 7.94 7.13 8.7
8/25/2023 1:00:00 PM 21.14 70.052 0.197 7.96 6.46 8.69
8/25/2023 1:15:00 PM 21.2 70.16 0.197 7.98 7 8.7
8/25/2023 1:30:00 PM 21.3 70.34 0.197 8 6.02 8.72
8/25/2023 1:45:00 PM 21.42 70.556 0.196 8.01 6.15 8.74
8/25/2023 2:00:00 PM 21.59 70.862 0.197 8.02 6.77 8.8
8/25/2023 2:15:00 PM 21.65 70.97 0.195 8.03 6.49 8.8
8/25/2023 2:30:00 PM 21.66 70.988 0.195 8.04 7.08 8.83
8/25/2023 2:45:00 PM 21.72 71.096 0.194 8.05 6.69 8.86
8/25/2023 3:00:00 PM 21.78 71.204 0.192 8.06 6.36 8.88
8/25/2023 3:15:00 PM 21.84 71.312 0.19 8.06 6.67 8.89
8/25/2023 3:30:00 PM 21.91 71.438 0.189 8.07 6.58 8.92
8/25/2023 3:45:00 PM 22.02 71.636 0.188 8.07 6.46 8.93
8/25/2023 4:00:00 PM 22.13 71.834 0.186 8.08 6.11 8.95
8/25/2023 4:15:00 PM 22.23 72.014 0.186 8.08 6.26 8.99
8/25/2023 4:30:00 PM 22.3 72.14 0.186 8.09 6.69 8.99
8/25/2023 4:45:00 PM 22.33 72.194 0.186 8.09 6.66 8.99
8/25/2023 5:00:00 PM 22.35 72.23 0.185 8.1 6.75 9.02
8/25/2023 5:15:00 PM 22.35 72.23 0.185 8.11 6.56 9.04
8/25/2023 5:30:00 PM 22.38 72.284 0.185 8.11 6.78 9.06
8/25/2023 5:45:00 PM 22.4 72.32 0.184 8.12 6.78 9.06
8/25/2023 6:00:00 PM 22.41 72.338 0.184 8.13 7.81 9.11
8/25/2023 6:15:00 PM 22.44 72.392 0.183 8.14 6.79 9.11
8/25/2023 6:30:00 PM 22.48 72.464 0.184 8.15 7.82 9.11
8/25/2023 6:45:00 PM 22.53 72.554 0.184 8.15 8.33 9.11
8/25/2023 7:00:00 PM 22.58 72.644 0.184 8.16 8.07 9.1
8/25/2023 7:15:00 PM 22.61 72.698 0.185 8.16 7.09 9.1
8/25/2023 7:30:00 PM 22.62 72.716 0.185 8.16 8.29 9.09
8/25/2023 7:45:00 PM 22.62 72.716 0.185 8.16 8.22 9.05
8/25/2023 8:00:00 PM 22.64 72.752 0.184 8.16 7.98 9.04
8/25/2023 8:15:00 PM 22.64 72.752 0.184 8.15 7.58 8.98
8/25/2023 8:30:00 PM 22.65 72.77 0.184 8.15 8.24 8.99
8/25/2023 8:45:00 PM 22.65 72.77 0.184 8.14 7.43 8.99
8/25/2023 9:00:00 PM 22.64 72.752 0.184 8.14 7.2 8.97
8/25/2023 9:15:00 PM 22.63 72.734 0.183 8.13 7.13 8.94
8/25/2023 9:30:00 PM 22.61 72.698 0.183 8.13 7.86 8.89
8/25/2023 9:45:00 PM 22.58 72.644 0.182 8.11 8.17 8.9
8/25/2023 10:00:00 PM 22.55 72.59 0.183 8.11 7.4 8.85
8/25/2023 10:15:00 PM 22.52 72.536 0.183 8.1 7.44 8.83
8/25/2023 10:30:00 PM 22.29 72.122 0.191 7.96 8.2 8.76
8/25/2023 10:45:00 PM 22.36 72.248 0.186 7.89 7.8 8.78
8/25/2023 11:00:00 PM 22.46 72.42799 0.183 7.98 8.26 8.82
8/25/2023 11:15:00 PM 22.44 72.392 0.183 8 6.88 8.74
8/25/2023 11:30:00 PM 22.42 72.356 0.182 8.01 8.91 8.72
8/25/2023 11:45:00 PM 22.4 72.32 0.182 8.01 7.26 8.68
8/26/2023 12:00:00 AM 22.37 72.266 0.182 8.01 6.94 8.67
8/26/2023 12:15:00 AM 22.36 72.248 0.182 8 7.32 8.61
8/26/2023 12:30:00 AM 22.33 72.194 0.182 7.99 7.39 8.56
8/26/2023 12:45:00 AM 22.3 72.14 0.182 7.99 7.45 8.5
8/26/2023 1:00:00 AM 22.27 72.086 0.183 7.98 7.73 8.55
8/26/2023 1:15:00 AM 22.23 72.014 0.182 7.98 7.76 8.5
8/26/2023 1:30:00 AM 22.2 71.96 0.182 7.97 7.66 8.46
8/26/2023 1:45:00 AM 22.16 71.888 0.182 7.96 7.47 8.42
8/26/2023 2:00:00 AM 22.13 71.834 0.183 7.95 7.33 8.4
8/26/2023 2:15:00 AM 22.09 71.762 0.183 7.95 7.39 8.36
8/26/2023 2:30:00 AM 22.08 71.744 0.182 7.94 7.22 8.32
8/26/2023 2:45:00 AM 22.06 71.708 0.182 7.93 7.03 8.33
8/26/2023 3:00:00 AM 22.04 71.672 0.182 7.92 7.23 8.29
8/26/2023 3:15:00 AM 22.03 71.654 0.182 7.92 6.98 8.26
8/26/2023 3:30:00 AM 22.01 71.618 0.183 7.91 7.43 8.22
8/26/2023 3:45:00 AM 22.01 71.618 0.182 7.91 7.06 8.21
8/26/2023 4:00:00 AM 22 71.6 0.182 7.9 7.54 8.21
8/26/2023 4:15:00 AM 21.98 71.564 0.183 7.9 7.31 8.21
8/26/2023 4:30:00 AM 21.97 71.546 0.183 7.89 7.57 8.17
8/26/2023 4:45:00 AM 21.97 71.546 0.183 7.89 7.39 8.19
8/26/2023 5:00:00 AM 21.97 71.546 0.183 7.89 6.7 8.16
8/26/2023 5:15:00 AM 21.96 71.528 0.184 7.89 7.3 8.12
8/26/2023 5:30:00 AM 21.96 71.528 0.185 7.88 7.4 8.13
8/26/2023 5:45:00 AM 21.96 71.528 0.186 7.88 7.16 8.11
8/26/2023 6:00:00 AM 21.95 71.51 0.188 7.88 6.95 8.09
8/26/2023 6:15:00 AM 21.96 71.528 0.189 7.88 7.96 8.12
8/26/2023 6:30:00 AM 21.96 71.528 0.189 7.87 7.05 8.11
8/26/2023 6:45:00 AM 21.97 71.546 0.19 7.87 6.98 8.09
8/26/2023 7:00:00 AM 21.98 71.564 0.191 7.87 7.34 8.08
8/26/2023 7:15:00 AM 21.99 71.582 0.19 7.87 7.01 8.12
8/26/2023 7:30:00 AM 22.01 71.618 0.19 7.87 7.53 8.08
8/26/2023 7:45:00 AM 22.03 71.654 0.19 7.87 7.26 8.08
8/26/2023 8:00:00 AM 22.04 71.672 0.191 7.87 6.68 8.12
8/26/2023 8:15:00 AM 22.06 71.708 0.191 7.88 6.73 7.94
8/26/2023 8:30:00 AM 22.08 71.744 0.192 7.88 6.99 8.09
8/26/2023 8:45:00 AM 22.11 71.798 0.191 7.89 7.45 8.12
8/26/2023 9:00:00 AM 22.14 71.852 0.191 7.89 6.93 8.12
8/26/2023 9:15:00 AM 22.18 71.924 0.191 7.89 6.88 8.17
8/26/2023 9:30:00 AM 22.2 71.96 0.193 7.9 7.12 8.18
8/26/2023 9:45:00 AM 22.25 72.05 0.193 7.9 6.82 8.19
8/26/2023 10:00:00 AM 22.27 72.086 0.195 7.91 6.92 8.24
8/26/2023 10:15:00 AM 22.32 72.176 0.194 7.92 6.61 8.27
8/26/2023 10:30:00 AM 22.37 72.266 0.192 7.93 6.62 8.29
8/26/2023 10:45:00 AM 22.45 72.41 0.19 7.94 6.51 8.33
8/26/2023 11:00:00 AM 22.58 72.644 0.188 7.94 6.43 8.41
8/26/2023 11:15:00 AM 22.64 72.752 0.186 7.95 6.34 8.43
8/26/2023 11:30:00 AM 22.7 72.86 0.185 7.95 6.31 8.47
8/26/2023 11:45:00 AM 22.73 72.914 0.186 7.96 6.13 8.48
8/26/2023 12:00:00 PM 22.78 73.004 0.186 7.97 6.47 8.56
8/26/2023 12:15:00 PM 22.87 73.166 0.185 7.98 5.96 8.56
8/26/2023 12:30:00 PM 22.91 73.238 0.185 7.99 6.06 8.58
8/26/2023 12:45:00 PM 22.96 73.328 0.185 8 6.18 8.59
8/26/2023 1:00:00 PM 23.03 73.454 0.186 8 5.83 8.63
8/26/2023 1:15:00 PM 23.06 73.508 0.186 8.02 6.6 8.67
8/26/2023 1:30:00 PM 23.07 73.526 0.186 8.03 6.38 8.7
8/26/2023 1:45:00 PM 23.08 73.544 0.186 8.04 5.87 8.71
8/26/2023 2:00:00 PM 23.12 73.616 0.185 8.05 6.37 8.76
8/26/2023 2:15:00 PM 23.2 73.76 0.185 8.06 6.23 8.8
8/26/2023 2:30:00 PM 23.28 73.904 0.185 8.07 6.26 8.82
8/26/2023 2:45:00 PM 23.37 74.066 0.185 8.08 7.14 8.87
8/26/2023 3:00:00 PM 23.48 74.264 0.185 8.1 6.7 8.87
8/26/2023 3:15:00 PM 23.59 74.462 0.184 8.11 22.18 8.93
8/26/2023 3:30:00 PM 23.71 74.67799 0.184 8.13 6.85 8.94
8/26/2023 3:45:00 PM 23.81 74.858 0.184 8.15 6.37 8.96
8/26/2023 4:00:00 PM 23.87 74.966 0.184 8.16 7.3 8.98
8/26/2023 4:15:00 PM 23.99 75.182 0.184 8.17 6.17 9.05
8/26/2023 4:30:00 PM 24.06 75.308 0.184 8.19 6.24 9.09
8/26/2023 4:45:00 PM 24.15 75.47 0.184 8.2 6.58 9.11
8/26/2023 5:00:00 PM 24.23 75.614 0.184 8.22 6.3 9.13
8/26/2023 5:15:00 PM 24.3 75.74 0.183 8.23 7.31 9.17
8/26/2023 5:30:00 PM 24.31 75.758 0.184 8.24 7.01 9.2
8/26/2023 5:45:00 PM 24.3 75.74 0.184 8.26 6.92 9.23
8/26/2023 6:00:00 PM 24.29 75.722 0.184 8.26 6.84 9.23
8/26/2023 6:15:00 PM 24.28 75.704 0.184 8.27 6.8 9.24
8/26/2023 6:30:00 PM 24.28 75.704 0.184 8.27 6.6 9.23
8/26/2023 6:45:00 PM 24.29 75.722 0.184 8.28 6.86 9.19
8/26/2023 7:00:00 PM 24.3 75.74 0.184 8.28 6.26 9.22
8/26/2023 7:15:00 PM 24.32 75.776 0.183 8.28 6.79 9.19
8/26/2023 7:30:00 PM 24.31 75.758 0.184 8.27 6.67 9.16
8/26/2023 7:45:00 PM 24.29 75.722 0.184 8.27 6.21 9.15
8/26/2023 8:00:00 PM 23.74 74.732 0.191 8.09 16.27 8.76
8/26/2023 8:15:00 PM 24.05 75.29 0.186 8.03 11.89 8.89
8/26/2023 8:30:00 PM 24.23 75.614 0.183 8.16 7.82 9.06
8/26/2023 8:45:00 PM 24.21 75.578 0.183 8.2 6.95 9.01
8/26/2023 9:00:00 PM 24.17 75.506 0.183 8.2 6.56 8.95
8/26/2023 9:15:00 PM 24.1 75.38 0.184 8.2 7.02 8.94
8/26/2023 9:30:00 PM 24.02 75.236 0.185 8.2 18.95 8.89
8/26/2023 9:45:00 PM 23.94 75.092 0.184 8.19 6.85 8.87
8/26/2023 10:00:00 PM 23.86 74.948 0.184 8.18 6.78 8.84
8/26/2023 10:15:00 PM 23.78 74.804 0.185 8.16 6.95 8.79
8/26/2023 10:30:00 PM 23.72 74.696 0.185 8.15 7.16 8.76
8/26/2023 10:45:00 PM 23.65 74.57 0.185 8.14 7.02 8.75
8/26/2023 11:00:00 PM 23.61 74.498 0.185 8.13 6.08 8.72
8/26/2023 11:15:00 PM 23.56 74.408 0.184 8.12 6.54 8.71
8/26/2023 11:30:00 PM 23.52 74.336 0.184 8.11 6.6 8.67
8/26/2023 11:45:00 PM 23.47 74.246 0.184 8.11 6.91 8.66
8/27/2023 12:00:00 AM 23.43 74.174 0.184 8.09 6.71 8.62
8/27/2023 12:15:00 AM 23.37 74.066 0.183 8.08 6.66 8.6
8/27/2023 12:30:00 AM 23.31 73.958 0.183 8.07 7.08 8.58
8/27/2023 12:45:00 AM 23.26 73.868 0.183 8.06 6.29 8.54
8/27/2023 1:00:00 AM 23.21 73.778 0.183 8.05 7.12 8.5
8/27/2023 1:15:00 AM 23.15 73.67 0.183 8.03 7.76 8.48
8/27/2023 1:30:00 AM 23.11 73.598 0.183 8.02 7.33 8.44
8/27/2023 1:45:00 AM 23.05 73.49 0.184 8.01 7.28 8.42
8/27/2023 2:00:00 AM 23 73.4 0.185 8 7.09 8.38
8/27/2023 2:15:00 AM 22.94 73.292 0.185 8 7.05 8.32
8/27/2023 2:30:00 AM 22.9 73.22 0.185 7.99 6.58 8.3
8/27/2023 2:45:00 AM 22.86 73.148 0.185 7.98 6.8 8.27
8/27/2023 3:00:00 AM 22.83 73.094 0.184 7.97 6.58 8.25
8/27/2023 3:15:00 AM 22.79 73.022 0.185 7.95 6.36 8.2
8/27/2023 3:30:00 AM 22.77 72.986 0.185 7.94 6.28 8.2
8/27/2023 3:45:00 AM 22.76 72.968 0.184 7.94 6.26 8.18
8/27/2023 4:00:00 AM 22.74 72.932 0.184 7.94 6.11 8.13
8/27/2023 4:15:00 AM 22.74 72.932 0.184 7.93 6.06 8.14
8/27/2023 4:30:00 AM 22.73 72.914 0.185 7.92 5.56 8.1
8/27/2023 4:45:00 AM 22.72 72.896 0.185 7.92 6.25 8.07
8/27/2023 5:00:00 AM 22.71 72.878 0.186 7.92 6.02 8.09
8/27/2023 5:15:00 AM 22.7 72.86 0.186 7.92 6.09 8.06
8/27/2023 5:30:00 AM 22.69 72.842 0.186 7.92 6.27 8.06
8/27/2023 5:45:00 AM 22.69 72.842 0.186 7.91 6.01 8.04
8/27/2023 6:00:00 AM 22.69 72.842 0.185 7.91 6.36 8
8/27/2023 6:15:00 AM 22.68 72.824 0.185 7.91 6.44 8.02
8/27/2023 6:30:00 AM 22.67 72.806 0.186 7.9 6.2 8
8/27/2023 6:45:00 AM 22.66 72.788 0.186 7.9 6.51 7.97
8/27/2023 7:00:00 AM 22.64 72.752 0.187 7.9 6.39 7.95
8/27/2023 7:15:00 AM 22.63 72.734 0.187 7.89 6.6 7.96
8/27/2023 7:30:00 AM 22.62 72.716 0.187 7.9 5.97 7.93
8/27/2023 7:45:00 AM 22.62 72.716 0.186 7.9 6.34 7.91
8/27/2023 8:00:00 AM 22.61 72.698 0.186 7.89 5.96 7.92
8/27/2023 8:15:00 AM 22.6 72.68 0.187 7.89 6.27 7.98
8/27/2023 8:30:00 AM 22.59 72.662 0.187 7.89 6.24 7.95
8/27/2023 8:45:00 AM 22.59 72.662 0.187 7.89 6.06 7.98
8/27/2023 9:00:00 AM 22.6 72.68 0.186 7.9 5.87 8.01
8/27/2023 9:15:00 AM 22.59 72.662 0.187 7.9 6.4 8.01
8/27/2023 9:30:00 AM 22.6 72.68 0.187 7.91 6.3 8.04
8/27/2023 9:45:00 AM 22.62 72.716 0.186 7.91 5.89 8.09
8/27/2023 10:00:00 AM 22.65 72.77 0.186 7.91 5.5 8.14
8/27/2023 10:15:00 AM 22.66 72.788 0.187 7.92 6.17 8.16
8/27/2023 10:30:00 AM 22.67 72.806 0.187 7.92 6.19 8.04
8/27/2023 10:45:00 AM 22.7 72.86 0.186 7.93 5.9 8.24
8/27/2023 11:00:00 AM 22.74 72.932 0.186 7.93 6.4 8.21
8/27/2023 11:15:00 AM 22.78 73.004 0.187 7.86 5.94 8.35
8/27/2023 11:30:00 AM 22.84 73.112 0.187 7.84 5.9 8.35
8/27/2023 11:45:00 AM 22.87 73.166 0.187 7.88 5.41 8.38
8/27/2023 12:00:00 PM 22.89 73.202 0.188 7.96 5.82 8.42
8/27/2023 12:15:00 PM 22.92 73.256 0.189 7.99 5.52 8.5
8/27/2023 12:30:00 PM 22.94 73.292 0.188 8.01 5.97 8.5
8/27/2023 12:45:00 PM 23.01 73.418 0.188 8.01 5.49 8.57
8/27/2023 1:00:00 PM 23.09 73.562 0.188 8.03 5.84 8.61
8/27/2023 1:15:00 PM 23.13 73.634 0.187 8.05 6.4 8.64
8/27/2023 1:30:00 PM 23.19 73.742 0.187 8.06 6.29 8.66
8/27/2023 1:45:00 PM 23.27 73.886 0.187 8.08 6.56 8.71
8/27/2023 2:00:00 PM 23.34 74.012 0.186 8.1 6.14 8.76
8/27/2023 2:15:00 PM 23.42 74.156 0.186 8.11 6.11 8.85
8/27/2023 2:30:00 PM 23.47 74.246 0.186 8.13 6.09 8.87
8/27/2023 2:45:00 PM 23.51 74.318 0.186 8.15 5.57 8.89
8/27/2023 3:00:00 PM 23.58 74.444 0.185 8.17 5.98 8.93
8/27/2023 3:15:00 PM 23.67 74.606 0.186 8.19 6.17 8.97
8/27/2023 3:30:00 PM 23.74 74.732 0.186 8.21 6.21 9.01
8/27/2023 3:45:00 PM 23.81 74.858 0.186 8.24 6.14 9.07
8/27/2023 4:00:00 PM 23.87 74.966 0.185 8.25 6.04 9.1
8/27/2023 4:15:00 PM 23.94 75.092 0.182 8.27 5.72 9.17
8/27/2023 4:30:00 PM 23.82 74.876 0.197 8.18 8.71 8.82
8/27/2023 4:45:00 PM 23.82 74.876 0.192 8.07 16.69 8.77
8/27/2023 5:00:00 PM 23.92 75.056 0.19 8.09 32.83 9.07
8/27/2023 5:15:00 PM 24.1 75.38 0.187 8.22 20.32 9.56
8/27/2023 5:30:00 PM 24.13 75.434 0.187 8.28 17.35 9.55
8/27/2023 5:45:00 PM 24.17 75.506 0.187 8.32 14.62 9.51
8/27/2023 6:00:00 PM 24.21 75.578 0.187 8.36 12.97 9.54
8/27/2023 6:15:00 PM 24.21 75.578 0.187 8.38 6.09 9.44
8/27/2023 6:30:00 PM 24.2 75.56 0.188 8.4 6.54 9.42
8/27/2023 6:45:00 PM 24.2 75.56 0.188 8.41 5.77 9.43
8/27/2023 7:00:00 PM 24.18 75.524 0.188 8.41 5.56 9.43
8/27/2023 7:15:00 PM 24.17 75.506 0.188 8.41 5.41 9.29
8/27/2023 7:30:00 PM 24.16 75.488 0.188 8.41 5.1 9.35
8/27/2023 7:45:00 PM 24.14 75.452 0.188 8.4 5.38 9.36
8/27/2023 8:00:00 PM 24.12 75.416 0.189 8.39 5.48 9.34
8/27/2023 8:15:00 PM 24.1 75.38 0.189 8.39 5.32 9.28
8/27/2023 8:30:00 PM 24.07 75.326 0.189 8.39 5.3 9.22
8/27/2023 8:45:00 PM 24.03 75.254 0.189 8.37 5.61 9.18
8/27/2023 9:00:00 PM 24 75.2 0.189 8.36 5.25 9.12
8/27/2023 9:15:00 PM 23.95 75.11 0.189 8.36 5.99 9.09
8/27/2023 9:30:00 PM 23.9 75.02 0.189 8.35 5.61 9.06
8/27/2023 9:45:00 PM 23.84 74.912 0.19 8.34 5.63 9.02
8/27/2023 10:00:00 PM 23.78 74.804 0.19 8.32 5.79 8.99
8/27/2023 10:15:00 PM 23.72 74.696 0.19 8.31 5.88 8.97
8/27/2023 10:30:00 PM 23.66 74.588 0.19 8.29 6 8.91
8/27/2023 10:45:00 PM 23.57 74.426 0.19 8.28 7.19 8.89
8/27/2023 11:00:00 PM 23.52 74.336 0.191 8.26 7.62 8.84
8/27/2023 11:15:00 PM 23.47 74.246 0.19 8.25 6.98 8.82
8/27/2023 11:30:00 PM 23.42 74.156 0.191 8.23 6.45 8.8
8/27/2023 11:45:00 PM 23.38 74.084 0.191 8.22 6.59 8.79
8/28/2023 12:00:00 AM 23.33 73.994 0.191 8.21 6.34 8.74
8/28/2023 12:15:00 AM 23.27 73.886 0.191 8.19 6.52 8.71
8/28/2023 12:30:00 AM 23.22 73.796 0.191 8.18 6.74 8.7
8/28/2023 12:45:00 AM 23.17 73.706 0.192 8.17 6.67 8.67
8/28/2023 1:00:00 AM 23.11 73.598 0.192 8.16 6.51 8.63
8/28/2023 1:15:00 AM 23.06 73.508 0.191 8.15 6.4 8.62
8/28/2023 1:30:00 AM 23.03 73.454 0.191 8.13 5.75 8.6
8/28/2023 1:45:00 AM 22.98 73.364 0.191 8.12 6.35 8.55
8/28/2023 2:00:00 AM 22.94 73.292 0.192 8.11 5.71 8.5
8/28/2023 2:15:00 AM 22.9 73.22 0.192 8.1 6.05 8.45
8/28/2023 2:30:00 AM 22.87 73.166 0.192 8.09 6.13 8.44
8/28/2023 2:45:00 AM 22.83 73.094 0.193 8.07 5.91 8.42
8/28/2023 3:00:00 AM 22.79 73.022 0.193 8.07 5.83 8.39
8/28/2023 3:15:00 AM 22.75 72.95 0.194 8.06 6.5 8.36
8/28/2023 3:30:00 AM 22.72 72.896 0.195 8.05 6.68 8.34
8/28/2023 3:45:00 AM 22.68 72.824 0.196 8.04 8.01 8.33
8/28/2023 4:00:00 AM 22.66 72.788 0.196 8.04 11.12 8.32
8/28/2023 4:15:00 AM 22.65 72.77 0.195 8.04 8.24 8.3
8/28/2023 4:30:00 AM 22.94 73.292 0.199 8.03 10.3 8.48
8/28/2023 4:45:00 AM 23.05 73.49 0.197 7.98 9.54 8.45
8/28/2023 5:00:00 AM 22.64 72.752 0.194 7.99 7.5 8.22
8/28/2023 5:15:00 AM 22.61 72.698 0.194 8.01 6.68 8.28
8/28/2023 5:30:00 AM 22.59 72.662 0.195 8.01 6.39 8.16
8/28/2023 5:45:00 AM 22.58 72.644 0.195 8.01 7.39 8.17
8/28/2023 6:00:00 AM 22.57 72.626 0.195 8.01 6.57 8.17
8/28/2023 6:15:00 AM 22.55 72.59 0.195 8 6.95 8.16
8/28/2023 6:30:00 AM 22.55 72.59 0.195 8 6.59 8.14
8/28/2023 6:45:00 AM 22.52 72.536 0.197 7.99 6.69 8.11
8/28/2023 7:00:00 AM 22.51 72.518 0.197 7.99 6 8.09
8/28/2023 7:15:00 AM 22.52 72.536 0.196 7.99 6.6 8.12
8/28/2023 7:30:00 AM 22.51 72.518 0.196 7.99 6.3 8.07
8/28/2023 7:45:00 AM 22.5 72.5 0.196 7.99 6.77 8.08
8/28/2023 8:00:00 AM 22.5 72.5 0.197 7.98 6.28 8.1
8/28/2023 8:15:00 AM 22.5 72.5 0.196 7.99 6.4 8.12
8/28/2023 8:30:00 AM 22.5 72.5 0.197 7.99 6.16 8.11
8/28/2023 8:45:00 AM 22.5 72.5 0.197 8 5.91 8.14
8/28/2023 9:00:00 AM 22.52 72.536 0.197 8 6.21 8.19
8/28/2023 9:15:00 AM 22.55 72.59 0.198 8 5.93 8.2
8/28/2023 9:30:00 AM 22.57 72.626 0.198 8.01 5.94 8.25
8/28/2023 9:45:00 AM 22.59 72.662 0.199 8.02 6.21 8.3
8/28/2023 10:00:00 AM 22.64 72.752 0.198 8.03 6.42 8.35
8/28/2023 10:15:00 AM 22.67 72.806 0.198 8.04 6.14 8.36
8/28/2023 10:30:00 AM 22.7 72.86 0.199 8.05 6.24 8.4
8/28/2023 10:45:00 AM 22.72 72.896 0.199 8.06 6.06 8.42
8/28/2023 11:00:00 AM 22.74 72.932 0.199 8.06 5.98 8.45
8/28/2023 11:15:00 AM 22.75 72.95 0.198 8.07 6.09 8.48
8/28/2023 11:30:00 AM 22.76 72.968 0.199 8.08 6.31 8.5
8/28/2023 11:45:00 AM 22.76 72.968 0.2 8.08 6.09 8.55
8/28/2023 12:00:00 PM 22.76 72.968 0.2 8.1 6.16 8.55
8/28/2023 12:15:00 PM 22.76 72.968 0.2 8.1 5.77 8.54
8/28/2023 12:30:00 PM 22.75 72.95 0.2 8.1 6.06 8.58
8/28/2023 12:45:00 PM 22.75 72.95 0.2 8.11 5.74 8.62
8/28/2023 1:00:00 PM 22.76 72.968 0.2 8.12 6.08 8.66
8/28/2023 1:15:00 PM 22.76 72.968 0.2 8.14 6.23 8.66
8/28/2023 1:30:00 PM 22.77 72.986 0.2 8.15 5.88 8.72
8/28/2023 1:45:00 PM 22.8 73.04 0.2 8.16 6.05 8.76
8/28/2023 2:00:00 PM 22.83 73.094 0.201 8.18 6.5 8.81
8/28/2023 2:15:00 PM 22.87 73.166 0.2 8.2 7.35 8.87
8/28/2023 2:30:00 PM 22.92 73.256 0.2 8.22 6.7 8.9
8/28/2023 2:45:00 PM 22.95 73.31 0.2 8.24 5.88 8.94
8/28/2023 3:00:00 PM 22.97 73.346 0.2 8.25 5.92 8.96
8/28/2023 3:15:00 PM 22.99 73.382 0.2 8.27 6.38 9.02
8/28/2023 3:30:00 PM 22.99 73.382 0.2 8.28 5.39 9.03
8/28/2023 3:45:00 PM 23.01 73.418 0.2 8.31 6.19 9.12
8/28/2023 4:00:00 PM 23.04 73.472 0.199 8.33 6.39 9.14
8/28/2023 4:15:00 PM 23.06 73.508 0.199 8.35 5.89 9.18
8/28/2023 4:30:00 PM 23.08 73.544 0.199 8.37 6.31 9.22
8/28/2023 4:45:00 PM 23.08 73.544 0.2 8.38 6.12 9.26
8/28/2023 5:00:00 PM 23.08 73.544 0.2 8.4 5.71 9.29
8/28/2023 5:15:00 PM 23.09 73.562 0.2 8.42 5.89 9.32
8/28/2023 5:30:00 PM 23.11 73.598 0.2 8.43 5.95 9.31
8/28/2023 5:45:00 PM 23.11 73.598 0.2 8.44 5.52 9.37
8/28/2023 6:00:00 PM 23.12 73.616 0.2 8.45 6.12 9.37
8/28/2023 6:15:00 PM 23.12 73.616 0.201 8.47 5.91 9.38
8/28/2023 6:30:00 PM 23.12 73.616 0.2 8.47 5.8 9.41
8/28/2023 6:45:00 PM 23.11 73.598 0.201 8.47 5.97 9.4
8/28/2023 7:00:00 PM 23.1 73.58 0.201 8.48 5.83 9.36
8/28/2023 7:15:00 PM 23.08 73.544 0.201 8.47 5.57 9.35
8/28/2023 7:30:00 PM 23.07 73.526 0.201 8.47 5.59 9.35
8/28/2023 7:45:00 PM 23.06 73.508 0.201 8.46 5.95 9.32
8/28/2023 8:00:00 PM 23.04 73.472 0.202 8.46 5.67 9.3
8/28/2023 8:15:00 PM 23.02 73.436 0.202 8.45 5.92 9.25
8/28/2023 8:30:00 PM 23.01 73.418 0.202 8.45 5.87 9.24
8/28/2023 8:45:00 PM 22.99 73.382 0.202 8.44 5.81 9.19
8/28/2023 9:00:00 PM 22.95 73.31 0.203 8.43 5.81 9.19
8/28/2023 9:15:00 PM 22.91 73.238 0.203 8.41 6.29 9.15
8/28/2023 9:30:00 PM 22.87 73.166 0.203 8.4 5.68 9.09
8/28/2023 9:45:00 PM 22.83 73.094 0.203 8.39 5.96 9.06
8/28/2023 10:00:00 PM 22.78 73.004 0.204 8.37 5.49 9.02
8/28/2023 10:15:00 PM 22.74 72.932 0.204 8.35 5.99 8.99
8/28/2023 10:30:00 PM 22.71 72.878 0.204 8.34 5.99 8.95
8/28/2023 10:45:00 PM 22.67 72.806 0.204 8.32 6.1 8.93
8/28/2023 11:00:00 PM 22.64 72.752 0.204 8.3 6.47 8.9
8/28/2023 11:15:00 PM 22.61 72.698 0.205 8.29 6.32 8.87
8/28/2023 11:30:00 PM 22.58 72.644 0.205 8.28 5.81 8.83
8/28/2023 11:45:00 PM 22.55 72.59 0.205 8.27 6.25 8.81
8/29/2023 12:00:00 AM 22.53 72.554 0.205 8.26 6.4 8.8
8/29/2023 12:15:00 AM 22.51 72.518 0.206 8.24 6.51 8.76
8/29/2023 12:30:00 AM 22.48 72.464 0.205 8.23 5.99 8.72
8/29/2023 12:45:00 AM 22.46 72.42799 0.205 8.22 6.15 8.72
8/29/2023 1:00:00 AM 22.42 72.356 0.206 8.21 5.98 8.66
8/29/2023 1:15:00 AM 22.38 72.284 0.206 8.19 6.44 8.62
8/29/2023 1:30:00 AM 22.35 72.23 0.207 8.18 6.45 8.6
8/29/2023 1:45:00 AM 22.33 72.194 0.206 8.17 5.96 8.5
8/29/2023 2:00:00 AM 22.3 72.14 0.206 8.15 6.39 8.48
8/29/2023 2:15:00 AM 22.27 72.086 0.207 8.14 6.73 8.44
8/29/2023 2:30:00 AM 22.63 72.734 0.209 8.1 10.16 8.51
8/29/2023 2:45:00 AM 22.54 72.57201 0.208 8.06 13.47 8.49
8/29/2023 3:00:00 AM 22.18 71.924 0.207 8.08 6.63 8.31
8/29/2023 3:15:00 AM 22.15 71.87 0.207 8.09 6.52 8.29
8/29/2023 3:30:00 AM 22.13 71.834 0.207 8.08 6.43 8.28
8/29/2023 3:45:00 AM 22.11 71.798 0.207 8.08 6.41 8.25
8/29/2023 4:00:00 AM 22.09 71.762 0.207 8.07 6.4 8.25
8/29/2023 4:15:00 AM 22.08 71.744 0.207 8.07 6.5 8.21
8/29/2023 4:30:00 AM 22.05 71.69 0.207 8.06 6.3 8.21
8/29/2023 4:45:00 AM 22.05 71.69 0.207 8.06 6.17 8.23
8/29/2023 5:00:00 AM 22.04 71.672 0.206 8.05 6.27 8.19
8/29/2023 5:15:00 AM 22.04 71.672 0.206 8.05 6.34 8.17
8/29/2023 5:30:00 AM 22.03 71.654 0.205 8.04 6.48 8.15
8/29/2023 5:45:00 AM 22.02 71.636 0.206 8.03 6.43 8.13
8/29/2023 6:00:00 AM 22 71.6 0.207 8.03 6.24 8.08
8/29/2023 6:15:00 AM 21.98 71.564 0.207 8.03 6.68 8.06
8/29/2023 6:30:00 AM 21.98 71.564 0.207 8.03 6.77 8.09
8/29/2023 6:45:00 AM 21.97 71.546 0.207 8.02 6.22 8.08
8/29/2023 7:00:00 AM 21.96 71.528 0.208 8.02 6.64 8.06
8/29/2023 7:15:00 AM 21.96 71.528 0.207 8.02 6.46 8.04
8/29/2023 7:30:00 AM 21.96 71.528 0.207 8.02 6.14 8.05
8/29/2023 7:45:00 AM 21.96 71.528 0.207 8.02 5.99 8.03
8/29/2023 8:00:00 AM 21.96 71.528 0.207 8.02 6.49 8.06
8/29/2023 8:15:00 AM 21.97 71.546 0.208 8.02 5.86 8.09
8/29/2023 8:30:00 AM 21.99 71.582 0.207 8.02 6.63 8.11
8/29/2023 8:45:00 AM 22.02 71.636 0.208 8.03 6.66 8.19
8/29/2023 9:00:00 AM 22.03 71.654 0.208 8.04 6.47 8.21
8/29/2023 9:15:00 AM 22.06 71.708 0.208 8.05 6.3 8.26
8/29/2023 9:30:00 AM 22.07 71.726 0.209 8.06 6.38 8.31
8/29/2023 9:45:00 AM 22.43 72.374 0.214 8.05 12.78 8.54
8/29/2023 10:00:00 AM 22.35 72.23 0.211 8.01 6.07 8.49
8/29/2023 10:15:00 AM 22.16 71.888 0.209 8.05 6.42 8.42
8/29/2023 10:30:00 AM 22.23 72.014 0.208 8.08 6.03 8.49
8/29/2023 10:45:00 AM 22.28 72.104 0.208 8.11 5.82 8.53
8/29/2023 11:00:00 AM 22.32 72.176 0.208 8.12 5.75 8.56
8/29/2023 11:15:00 AM 22.35 72.23 0.208 8.14 6.11 8.6
8/29/2023 11:30:00 AM 22.39 72.302 0.208 8.16 5.94 8.64
8/29/2023 11:45:00 AM 22.44 72.392 0.208 8.18 5.81 8.71
8/29/2023 12:00:00 PM 22.45 72.41 0.208 8.19 5.42 8.72
8/29/2023 12:15:00 PM 22.48 72.464 0.208 8.21 6.15 8.77
8/29/2023 12:30:00 PM 22.53 72.554 0.208 8.23 5.74 8.81
8/29/2023 12:45:00 PM 22.55 72.59 0.209 8.24 5.67 8.83
8/29/2023 1:00:00 PM 22.58 72.644 0.209 8.26 6.4 8.9
8/29/2023 1:15:00 PM 22.6 72.68 0.21 8.28 6.09 8.96
8/29/2023 1:30:00 PM 22.61 72.698 0.21 8.3 5.82 8.97
8/29/2023 1:45:00 PM 22.65 72.77 0.209 8.31 5.79 9.03
8/29/2023 2:00:00 PM 22.69 72.842 0.209 8.33 5.79 9.1
8/29/2023 2:15:00 PM 22.75 72.95 0.208 8.36 5.68 9.19
8/29/2023 2:30:00 PM 22.76 72.968 0.208 8.38 6.01 9.24
8/29/2023 2:45:00 PM 22.77 72.986 0.208 8.4 6.07 9.31
8/29/2023 3:00:00 PM 22.8 73.04 0.208 8.42 5.85 9.41
8/29/2023 3:15:00 PM 22.85 73.13 0.207 8.44 5.98 9.49
8/29/2023 3:30:00 PM 22.94 73.292 0.206 8.47 5.99 9.61
8/29/2023 3:45:00 PM 22.97 73.346 0.207 8.5 6.18 9.62
8/29/2023 4:00:00 PM 22.99 73.382 0.207 8.52 6.59 9.67
8/29/2023 4:15:00 PM 22.99 73.382 0.206 8.54 6.17 9.7
8/29/2023 4:30:00 PM 23 73.4 0.207 8.55 5.73 9.72
8/29/2023 4:45:00 PM 23.04 73.472 0.207 8.56 5.89 9.78
8/29/2023 5:00:00 PM 23.06 73.508 0.206 8.58 5.27 9.83
8/29/2023 5:15:00 PM 23.09 73.562 0.206 8.6 5.94 9.87
8/29/2023 5:30:00 PM 23.11 73.598 0.207 8.62 5.86 9.9
8/29/2023 5:45:00 PM 23.13 73.634 0.207 8.64 5.57 9.91
8/29/2023 6:00:00 PM 23.07 73.526 0.214 8.47 16.11 9.23
8/29/2023 6:15:00 PM 23.02 73.436 0.211 8.34 7.08 9.11
8/29/2023 6:30:00 PM 23.11 73.598 0.208 8.4 5.78 9.6
8/29/2023 6:45:00 PM 23.19 73.742 0.207 8.63 5.51 9.99
8/29/2023 7:00:00 PM 23.2 73.76 0.206 8.67 5.95 9.96
8/29/2023 7:15:00 PM 23.19 73.742 0.206 8.68 5.53 9.94
8/29/2023 7:30:00 PM 23.17 73.706 0.206 8.68 5.62 9.92
8/29/2023 7:45:00 PM 23.14 73.652 0.207 8.67 5.54 9.84
8/29/2023 8:00:00 PM 23.13 73.634 0.206 8.67 5.57 9.81
8/29/2023 8:15:00 PM 23.11 73.598 0.207 8.66 5.61 9.78
8/29/2023 8:30:00 PM 23.08 73.544 0.207 8.65 5.72 9.75
8/29/2023 8:45:00 PM 23.06 73.508 0.207 8.63 5.76 9.68
8/29/2023 9:00:00 PM 23.04 73.472 0.207 8.62 5.93 9.62
8/29/2023 9:15:00 PM 23.03 73.454 0.207 8.6 5.72 9.58
8/29/2023 9:30:00 PM 23.01 73.418 0.207 8.59 5.5 9.52
8/29/2023 9:45:00 PM 23 73.4 0.207 8.57 5.82 9.42
8/29/2023 10:00:00 PM 22.98 73.364 0.207 8.55 5.63 9.35
8/29/2023 10:15:00 PM 22.96 73.328 0.207 8.52 5.77 9.26
8/29/2023 10:30:00 PM 22.95 73.31 0.207 8.5 5.43 9.19
8/29/2023 10:45:00 PM 22.92 73.256 0.207 8.47 5.52 9.14
8/29/2023 11:00:00 PM 22.9 73.22 0.207 8.46 5.95 9.06
8/29/2023 11:15:00 PM 22.89 73.202 0.207 8.44 5.72 9.01
8/29/2023 11:30:00 PM 22.86 73.148 0.207 8.41 6.06 8.95
8/29/2023 11:45:00 PM 22.85 73.13 0.207 8.39 5.91 8.9
8/30/2023 12:00:00 AM 22.83 73.094 0.207 8.37 5.77 8.84
8/30/2023 12:15:00 AM 22.81 73.058 0.207 8.36 6.12 8.79
8/30/2023 12:30:00 AM 22.8 73.04 0.207 8.34 5.83 8.76
8/30/2023 12:45:00 AM 22.78 73.004 0.207 8.32 5.98 8.71
8/30/2023 1:00:00 AM 22.75 72.95 0.208 8.3 5.61 8.68
8/30/2023 1:15:00 AM 22.73 72.914 0.207 8.28 5.95 8.63
8/30/2023 1:30:00 AM 22.69 72.842 0.208 8.26 5.88 8.59
8/30/2023 1:45:00 AM 22.67 72.806 0.207 8.24 5.94 8.55
8/30/2023 2:00:00 AM 22.65 72.77 0.207 8.23 5.86 8.5
8/30/2023 2:15:00 AM 22.62 72.716 0.207 8.21 6.04 8.47
8/30/2023 2:30:00 AM 22.59 72.662 0.207 8.2 5.99 8.44
8/30/2023 2:45:00 AM 22.57 72.626 0.207 8.18 6.39 8.4
8/30/2023 3:00:00 AM 22.54 72.57201 0.207 8.16 5.79 8.35
8/30/2023 3:15:00 AM 22.48 72.464 0.204 8.16 5.71 8.36
8/30/2023 3:30:00 AM 22.41 72.338 0.203 8.15 6.17 8.31
8/30/2023 3:45:00 AM 22.33 72.194 0.201 8.14 6.66 8.32
8/30/2023 4:00:00 AM 22.21 71.978 0.196 8.16 9.58 8.29
8/30/2023 4:15:00 AM 22.11 71.798 0.189 8.22 14.48 8.28
8/30/2023 4:30:00 AM 22.16 71.888 0.193 8.18 10 8.26
8/30/2023 4:45:00 AM 22.18 71.924 0.196 8.14 8.38 8.26
8/30/2023 5:00:00 AM 22.18 71.924 0.197 8.12 8.3 8.24
8/30/2023 5:15:00 AM 22.19 71.942 0.197 8.11 8.76 8.24
8/30/2023 5:30:00 AM 22.17 71.906 0.197 8.1 9.6 8.21
8/30/2023 5:45:00 AM 22.14 71.852 0.197 8.09 9.86 8.2
8/30/2023 6:00:00 AM 22.12 71.816 0.197 8.09 9.47 8.17
8/30/2023 6:15:00 AM 22.14 71.852 0.197 8.09 9.96 8.17
8/30/2023 6:30:00 AM 22.09 71.762 0.201 8.08 11.5 8.17
8/30/2023 6:45:00 AM 22.01 71.618 0.202 8.07 13.63 8.11
8/30/2023 7:00:00 AM 21.94 71.492 0.2 8.07 17.94 8.06
8/30/2023 7:15:00 AM 21.85 71.33 0.196 8.06 25.04 8.03
8/30/2023 7:30:00 AM 21.8 71.24 0.194 8.06 31.36 8.02
8/30/2023 7:45:00 AM 21.69 71.042 0.194 8.05 35.92 7.92
8/30/2023 8:00:00 AM 21.56 70.808 0.196 8.05 45 7.89
8/30/2023 8:15:00 AM 21.42 70.556 0.196 8.04 46.94 7.87
8/30/2023 8:30:00 AM 21.26 70.268 0.197 8.03 46.62 7.81
8/30/2023 8:45:00 AM 21.04 69.872 0.197 8.02 59.18 7.77
8/30/2023 9:00:00 AM 20.94 69.692 0.187 8 65.46 7.64
8/30/2023 9:15:00 AM 20.93 69.674 0.174 7.98 83.46 7.57
8/30/2023 9:30:00 AM 20.92 69.656 0.164 7.96 92 7.58
8/30/2023 9:45:00 AM 20.95 69.71 0.157 7.94 89.97 7.56
8/30/2023 10:00:00 AM 20.96 69.728 0.151 7.92 92.15 7.54
8/30/2023 10:15:00 AM 20.91 69.638 0.147 7.9 115.36 7.52
8/30/2023 10:30:00 AM 20.84 69.512 0.144 7.88 121.35 7.49
8/30/2023 10:45:00 AM 20.83 69.494 0.142 7.85 132.07 7.5
8/30/2023 11:00:00 AM 20.83 69.494 0.14 7.84 111.61 7.53
8/30/2023 11:15:00 AM 20.87 69.566 0.139 7.82 126.17 7.45
8/30/2023 11:30:00 AM 20.89 69.602 0.138 7.81 116.72 7.44
8/30/2023 11:45:00 AM 20.96 69.728 0.139 7.8 114.84 7.41
8/30/2023 12:00:00 PM 21.06 69.908 0.143 7.79 90.41 7.45
8/30/2023 12:15:00 PM 21.25 70.25 0.15 7.8 88.85 7.48
8/30/2023 12:30:00 PM 21.45 70.61 0.155 7.81 69.87 7.46
8/30/2023 12:45:00 PM 21.65 70.97 0.159 7.82 66.26 7.47
8/30/2023 1:00:00 PM 21.81 71.258 0.162 7.83 59.04 7.53
8/30/2023 1:15:00 PM 21.87 71.366 0.164 7.83 45.49 7.54
8/30/2023 1:30:00 PM 22.37 72.266 0.189 7.86 23.92 8.17
8/30/2023 1:45:00 PM 22.2 71.96 0.179 7.87 30.76 8.07
8/30/2023 2:00:00 PM 22.21 71.978 0.17 7.87 38.88 7.7
8/30/2023 2:15:00 PM 22.26 72.068 0.172 7.88 33.41 7.75
8/30/2023 2:30:00 PM 22.29 72.122 0.174 7.88 28.93 7.83
8/30/2023 2:45:00 PM 22.37 72.266 0.176 7.89 26.79 7.85
8/30/2023 3:00:00 PM 22.49 72.482 0.177 7.9 26.43 7.83
8/30/2023 3:15:00 PM 22.54 72.57201 0.175 7.9 29 7.71
8/30/2023 3:30:00 PM 22.41 72.338 0.172 7.89 31.78 7.55
8/30/2023 3:45:00 PM 22.3 72.14 0.168 7.88 33.91 7.44
8/30/2023 4:00:00 PM 22.2 71.96 0.164 7.85 32.72 7.4
8/30/2023 4:15:00 PM 22.16 71.888 0.16 7.83 32.82 7.35
8/30/2023 4:30:00 PM 22.14 71.852 0.157 7.82 37.19 7.33
8/30/2023 4:45:00 PM 22.1 71.78 0.155 7.81 41.78 7.32
8/30/2023 5:00:00 PM 22.05 71.69 0.153 7.79 40.13 7.33
8/30/2023 5:15:00 PM 21.97 71.546 0.151 7.79 50.6 7.34
8/30/2023 5:30:00 PM 21.9 71.42 0.149 7.78 46.21 7.32
8/30/2023 5:45:00 PM 21.84 71.312 0.146 7.77 50.28 7.35
8/30/2023 6:00:00 PM 21.77 71.186 0.144 7.76 46.21 7.37
8/30/2023 6:15:00 PM 21.69 71.042 0.143 7.76 46.48 7.43
8/30/2023 6:30:00 PM 21.62 70.916 0.141 7.75 46.21 7.43
8/30/2023 6:45:00 PM 21.55 70.79 0.139 7.75 41.28 7.44
8/30/2023 7:00:00 PM 21.5 70.7 0.138 7.75 45.86 7.44
8/30/2023 7:15:00 PM 21.45 70.61 0.136 7.74 44.58 7.46
8/30/2023 7:30:00 PM 21.4 70.52 0.134 7.74 50.93 7.45
8/30/2023 7:45:00 PM 21.34 70.412 0.133 7.73 53.96 7.47
8/30/2023 8:00:00 PM 21.27 70.286 0.131 7.73 46.49 7.49
8/30/2023 8:15:00 PM 21.21 70.17799 0.13 7.72 53.08 7.5
8/30/2023 8:30:00 PM 21.17 70.106 0.13 7.72 44.72 7.53
8/30/2023 8:45:00 PM 21.15 70.07 0.129 7.71 49.99 7.5
8/30/2023 9:00:00 PM 21.12 70.016 0.129 7.71 49.74 7.52
8/30/2023 9:15:00 PM 21.1 69.98 0.129 7.71 48.43 7.56
8/30/2023 9:30:00 PM 21.08 69.944 0.129 7.71 45.76 7.55
8/30/2023 9:45:00 PM 21.06 69.908 0.13 7.71 44.46 7.55
8/30/2023 10:00:00 PM 21.05 69.89 0.13 7.71 43.33 7.54
8/30/2023 10:15:00 PM 21.04 69.872 0.131 7.71 45.41 7.54
8/30/2023 10:30:00 PM 21.02 69.836 0.132 7.71 39.14 7.56
8/30/2023 10:45:00 PM 21.01 69.818 0.133 7.71 40.24 7.58
8/30/2023 11:00:00 PM 21.01 69.818 0.134 7.71 40.96 7.62
8/30/2023 11:15:00 PM 21.01 69.818 0.135 7.72 36.76 7.59
8/30/2023 11:30:00 PM 21.02 69.836 0.136 7.72 38.34 7.71
8/30/2023 11:45:00 PM 21.04 69.872 0.138 7.72 38.35 7.63
8/31/2023 12:00:00 AM 21.05 69.89 0.139 7.72 33.3 7.64
8/31/2023 12:15:00 AM 21.07 69.926 0.139 7.73 31.18 7.66
8/31/2023 12:30:00 AM 21.1 69.98 0.14 7.73 29.97 7.72
8/31/2023 12:45:00 AM 21.11 69.998 0.141 7.74 31.5 7.74
8/31/2023 1:00:00 AM 21.14 70.052 0.142 7.75 31.7 7.79
8/31/2023 1:15:00 AM 21.15 70.07 0.143 7.75 29.94 7.75
8/31/2023 1:30:00 AM 21.17 70.106 0.144 7.76 28 7.8
8/31/2023 1:45:00 AM 21.17 70.106 0.144 7.76 22.12 7.84
8/31/2023 2:00:00 AM 21.18 70.124 0.144 7.77 27.67 7.82
8/31/2023 2:15:00 AM 21.17 70.106 0.145 7.77 26.06 7.87
8/31/2023 2:30:00 AM 21.17 70.106 0.145 7.78 26.64 7.97
8/31/2023 2:45:00 AM 21.17 70.106 0.146 7.78 25.41 7.94
8/31/2023 3:00:00 AM 21.16 70.088 0.147 7.78 24.57 7.89
8/31/2023 3:15:00 AM 21.16 70.088 0.147 7.78 24.1 7.86
8/31/2023 3:30:00 AM 21.15 70.07 0.148 7.79 23.05 7.84
8/31/2023 3:45:00 AM 21.14 70.052 0.149 7.79 21.39 7.87
8/31/2023 4:00:00 AM 21.14 70.052 0.149 7.79 20.49 7.9
8/31/2023 4:15:00 AM 21.15 70.07 0.15 7.79 20.76 7.97
8/31/2023 4:30:00 AM 21.13 70.034 0.151 7.79 21.06 7.82
8/31/2023 4:45:00 AM 21.1 69.98 0.152 7.79 18.12 7.85
8/31/2023 5:00:00 AM 21.08 69.944 0.152 7.79 17.13 7.84
8/31/2023 5:15:00 AM 21.06 69.908 0.153 7.79 17.56 7.81
8/31/2023 5:30:00 AM 21.04 69.872 0.154 7.79 17.62 7.83
8/31/2023 5:45:00 AM 21.47 70.646 0.168 7.8 14.55 8.04
8/31/2023 6:00:00 AM 21.31 70.358 0.165 7.79 11.07 8.19
8/31/2023 6:15:00 AM 20.98 69.764 0.154 7.78 19.28 7.82
8/31/2023 6:30:00 AM 20.9 69.62 0.154 7.79 19.14 7.77
8/31/2023 6:45:00 AM 20.87 69.566 0.154 7.79 16.55 7.77
8/31/2023 7:00:00 AM 20.84 69.512 0.154 7.78 16.77 7.74
8/31/2023 7:15:00 AM 20.81 69.458 0.154 7.79 16.67 7.77
8/31/2023 7:30:00 AM 20.77 69.386 0.154 7.79 18.3 7.81
8/31/2023 7:45:00 AM 20.72 69.296 0.155 7.79 16.64 7.74
8/31/2023 8:00:00 AM 20.68 69.224 0.155 7.78 16.13 7.78
8/31/2023 8:15:00 AM 20.65 69.17 0.155 7.78 13.27 7.73
8/31/2023 8:30:00 AM 20.6 69.08 0.156 7.77 14.72 7.77
8/31/2023 8:45:00 AM 20.56 69.008 0.157 7.78 16.45 7.74
8/31/2023 9:00:00 AM 20.53 68.954 0.157 7.78 16.28 7.73
8/31/2023 9:15:00 AM 20.51 68.918 0.158 7.78 15.85 7.72
8/31/2023 9:30:00 AM 20.49 68.882 0.158 7.78 15.38 7.72
8/31/2023 9:45:00 AM 20.49 68.882 0.159 7.78 14.84 7.73
8/31/2023 10:00:00 AM 20.48 68.864 0.159 7.78 15.37 7.72
8/31/2023 10:15:00 AM 20.48 68.864 0.16 7.78 11.92 7.74
8/31/2023 10:30:00 AM 20.49 68.882 0.161 7.78 14.62 7.75
8/31/2023 10:45:00 AM 20.48 68.864 0.161 7.78 14.36 7.75
8/31/2023 11:00:00 AM 20.52 68.936 0.162 7.78 14.58 7.77
8/31/2023 11:15:00 AM 20.54 68.972 0.162 7.79 13.71 7.92
8/31/2023 11:30:00 AM 20.57 69.026 0.162 7.79 12.11 7.9
8/31/2023 11:45:00 AM 20.61 69.098 0.163 7.79 11.21 7.91
8/31/2023 12:00:00 PM 20.68 69.224 0.163 7.79 10.99 7.93
8/31/2023 12:15:00 PM 20.73 69.314 0.164 7.8 10.88 7.94
8/31/2023 12:30:00 PM 20.79 69.422 0.164 7.81 12.55 7.98
8/31/2023 12:45:00 PM 20.83 69.494 0.164 7.81 11.98 8.04
8/31/2023 1:00:00 PM 20.88 69.584 0.164 7.82 10.5 8.05
8/31/2023 1:15:00 PM 20.93 69.674 0.165 7.83 11.51 8.09
8/31/2023 1:30:00 PM 20.99 69.782 0.166 7.83 12.3 8.18
8/31/2023 1:45:00 PM 21.05 69.89 0.166 7.84 11.38 8.22
8/31/2023 2:00:00 PM 21.11 69.998 0.166 7.85 11.13 8.16
8/31/2023 2:15:00 PM 21.19 70.142 0.166 7.86 11.91 8.28
8/31/2023 2:30:00 PM 21.25 70.25 0.166 7.87 9.65 8.34
8/31/2023 2:45:00 PM 21.31 70.358 0.167 7.88 11.05 8.39
8/31/2023 3:00:00 PM 21.37 70.466 0.167 7.89 10.78 8.43
8/31/2023 3:15:00 PM 21.43 70.574 0.167 7.9 12.67 8.5
8/31/2023 3:30:00 PM 21.49 70.682 0.168 7.91 10.71 8.49
8/31/2023 3:45:00 PM 21.55 70.79 0.167 7.92 9.79 8.52
8/31/2023 4:00:00 PM 21.61 70.898 0.167 7.93 10.88 8.55
8/31/2023 4:15:00 PM 21.66 70.988 0.168 7.94 10.71 8.59
8/31/2023 4:30:00 PM 21.69 71.042 0.168 7.95 10.4 8.6
8/31/2023 4:45:00 PM 21.73 71.114 0.168 7.96 10.01 8.59
8/31/2023 5:00:00 PM 21.76 71.168 0.168 7.96 10.24 8.62
8/31/2023 5:15:00 PM 21.78 71.204 0.168 7.97 9.4 8.63
8/31/2023 5:30:00 PM 21.8 71.24 0.167 7.97 10.2 8.63
8/31/2023 5:45:00 PM 21.81 71.258 0.168 7.98 10.49 8.66
8/31/2023 6:00:00 PM 21.82 71.276 0.167 7.98 10.28 8.64
8/31/2023 6:15:00 PM 21.81 71.258 0.167 7.98 9.54 8.64
8/31/2023 6:30:00 PM 21.8 71.24 0.167 7.98 10.22 8.62
8/31/2023 6:45:00 PM 21.77 71.186 0.167 7.98 10.03 8.38
8/31/2023 7:00:00 PM 21.74 71.132 0.167 7.98 10.54 8.64
8/31/2023 7:15:00 PM 21.71 71.078 0.167 7.98 11.95 8.64
8/31/2023 7:30:00 PM 21.69 71.042 0.168 7.98 11.67 8.66
8/31/2023 7:45:00 PM 21.66 70.988 0.167 7.98 10.66 8.64
8/31/2023 8:00:00 PM 21.69 71.042 0.17 7.98 12.33 8.75
8/31/2023 8:15:00 PM 21.69 71.042 0.173 7.91 10.24 8.71
8/31/2023 8:30:00 PM 21.55 70.79 0.172 7.86 17.36 8.88
8/31/2023 8:45:00 PM 21.53 70.754 0.168 7.89 19.67 8.76
8/31/2023 9:00:00 PM 21.49 70.682 0.168 7.93 15.62 8.69
8/31/2023 9:15:00 PM 21.44 70.592 0.168 7.94 15.38 8.63
8/31/2023 9:30:00 PM 21.41 70.538 0.169 7.94 16.29 8.6
8/31/2023 9:45:00 PM 21.38 70.484 0.169 7.94 13.85 8.61
8/31/2023 10:00:00 PM 21.35 70.43 0.17 7.94 12.48 8.61
8/31/2023 10:15:00 PM 21.31 70.358 0.17 7.94 11.3 8.59
8/31/2023 10:30:00 PM 21.28 70.304 0.17 7.93 11.63 8.56
8/31/2023 10:45:00 PM 21.24 70.232 0.17 7.93 11.39 8.55
8/31/2023 11:00:00 PM 21.19 70.142 0.171 7.93 12.96 8.53
8/31/2023 11:15:00 PM 21.17 70.106 0.171 7.93 11.54 8.52
8/31/2023 11:30:00 PM 21.13 70.034 0.172 7.92 13.6 8.49
8/31/2023 11:45:00 PM 21.09 69.962 0.172 7.92 11.96 8.5
9/1/2023 12:00:00 AM 21.06 69.908 0.172 7.92 10.41 8.46
9/1/2023 12:15:00 AM 21.03 69.854 0.172 7.91 11.45 8.46
9/1/2023 12:30:00 AM 21.01 69.818 0.173 7.91 10.3 8.45
9/1/2023 12:45:00 AM 20.98 69.764 0.173 7.9 11.54 8.42
9/1/2023 1:00:00 AM 20.94 69.692 0.173 7.9 11.76 8.41
9/1/2023 1:15:00 AM 20.92 69.656 0.173 7.89 10.93 7.84
9/1/2023 1:30:00 AM 20.9 69.62 0.173 7.89 10.93 8.34
9/1/2023 1:45:00 AM 20.87 69.566 0.174 7.89 11.17 7.99
9/1/2023 2:00:00 AM 20.85 69.53 0.174 7.88 11.76 8.27
9/1/2023 2:15:00 AM 20.83 69.494 0.174 7.88 11.23 8.28
9/1/2023 2:30:00 AM 20.8 69.44 0.174 7.88 10.13 8.34
9/1/2023 2:45:00 AM 20.78 69.404 0.174 7.88 11.82 8.33
9/1/2023 3:00:00 AM 20.76 69.368 0.174 7.87 11.54 8.31
9/1/2023 3:15:00 AM 20.73 69.314 0.175 7.87 12.23 8.3
9/1/2023 3:30:00 AM 20.72 69.296 0.174 7.87 11.13 8.28
9/1/2023 3:45:00 AM 20.7 69.26 0.174 7.87 11.49 8.26
9/1/2023 4:00:00 AM 20.68 69.224 0.174 7.86 11.77 8.29
9/1/2023 4:15:00 AM 20.65 69.17 0.175 7.86 11.43 8.27
9/1/2023 4:30:00 AM 20.64 69.152 0.175 7.86 12.06 8.28
9/1/2023 4:45:00 AM 20.61 69.098 0.175 7.86 11.27 8.25
9/1/2023 5:00:00 AM 20.58 69.044 0.175 7.86 11.19 8.24
9/1/2023 5:15:00 AM 20.57 69.026 0.174 7.85 12.04 8.21
9/1/2023 5:30:00 AM 20.53 68.954 0.175 7.86 11.76 8.19
9/1/2023 5:45:00 AM 20.49 68.882 0.175 7.85 11.73 8.19
9/1/2023 6:00:00 AM 20.46 68.828 0.175 7.85 10.34 8.18
9/1/2023 6:15:00 AM 20.44 68.792 0.175 7.85 11.19 8.18
9/1/2023 6:30:00 AM 20.41 68.738 0.175 7.85 10.85 8.15
9/1/2023 6:45:00 AM 20.38 68.684 0.176 7.85 11.32 8.16
9/1/2023 7:00:00 AM 20.33 68.594 0.176 7.85 11.57 8.11
9/1/2023 7:15:00 AM 20.3 68.54 0.176 7.84 11.55 8.12
9/1/2023 7:30:00 AM 20.27 68.486 0.176 7.84 12.03 8.08
9/1/2023 7:45:00 AM 20.23 68.414 0.176 7.84 11.27 8.09
9/1/2023 8:00:00 AM 20.2 68.36 0.177 7.84 11.38 8.07
9/1/2023 8:15:00 AM 20.16 68.288 0.177 7.84 10.82 8.06
9/1/2023 8:30:00 AM 20.13 68.234 0.177 7.84 10.82 8.08
9/1/2023 8:45:00 AM 20.11 68.198 0.177 7.84 11.17 8.06
9/1/2023 9:00:00 AM 20.09 68.162 0.177 7.84 11.04 8.02
9/1/2023 9:15:00 AM 20.09 68.162 0.177 7.84 10.07 8.05
9/1/2023 9:30:00 AM 20.08 68.144 0.178 7.84 10.98 8.06
9/1/2023 9:45:00 AM 20.07 68.126 0.178 7.84 12.65 8.05
9/1/2023 10:00:00 AM 20.09 68.162 0.178 7.84 9.51 8.06
9/1/2023 10:15:00 AM 20.12 68.216 0.178 7.85 10.71 8.08
9/1/2023 10:30:00 AM 20.12 68.216 0.178 7.85 10.55 8.12
9/1/2023 10:45:00 AM 20.14 68.252 0.178 7.85 10.89 8.16
9/1/2023 11:00:00 AM 20.16 68.288 0.179 7.86 10.6 8.18
9/1/2023 11:15:00 AM 20.21 68.378 0.179 7.86 11.25 8.22
9/1/2023 11:30:00 AM 20.25 68.45 0.176 7.87 9.18 8.23
9/1/2023 11:45:00 AM 20.29 68.522 0.179 7.88 10.71 8.32
9/1/2023 12:00:00 PM 20.35 68.63 0.179 7.89 9.29 8.34
9/1/2023 12:15:00 PM 20.41 68.738 0.179 7.89 10.44 8.4
9/1/2023 12:30:00 PM 20.47 68.846 0.179 7.9 10.56 8.46
9/1/2023 12:45:00 PM 20.53 68.954 0.179 7.91 11.26 8.5
9/1/2023 1:00:00 PM 20.6 69.08 0.179 7.92 10.04 8.52
9/1/2023 1:15:00 PM 20.69 69.242 0.178 7.93 10.76 8.58
9/1/2023 1:30:00 PM 20.75 69.35 0.179 7.94 12.58 8.63
9/1/2023 1:45:00 PM 20.85 69.53 0.178 7.95 9.9 8.65
9/1/2023 2:00:00 PM 20.9 69.62 0.179 7.96 28.72 8.69
9/1/2023 2:15:00 PM 20.98 69.764 0.179 7.96 23.66 8.74
9/1/2023 2:30:00 PM 21.08 69.944 0.178 7.97 11.76 8.74
9/1/2023 2:45:00 PM 21.16 70.088 0.178 7.98 11.61 8.75
9/1/2023 3:00:00 PM 21.23 70.214 0.178 7.99 11.78 8.79
9/1/2023 3:15:00 PM 21.31 70.358 0.179 8 11.1 8.77
9/1/2023 3:30:00 PM 21.38 70.484 0.178 8.01 11.23 8.79
9/1/2023 3:45:00 PM 21.46 70.628 0.178 8.01 11.18 8.79
9/1/2023 4:00:00 PM 21.52 70.736 0.178 8.02 10.49 8.8
9/1/2023 4:15:00 PM 21.56 70.808 0.178 8.02 10.37 8.8
9/1/2023 4:30:00 PM 21.6 70.88 0.178 8.02 11.03 8.8
9/1/2023 4:45:00 PM 21.53 70.754 0.186 7.93 16.45 8.81
9/1/2023 5:00:00 PM 21.44 70.592 0.183 7.87 13.96 8.86
9/1/2023 5:15:00 PM 21.65 70.97 0.178 7.92 13.9 8.83
9/1/2023 5:30:00 PM 21.72 71.096 0.177 7.95 12.94 8.82
9/1/2023 5:45:00 PM 21.76 71.168 0.177 7.98 11.53 8.8
9/1/2023 6:00:00 PM 21.8 71.24 0.177 8 12.27 8.78
9/1/2023 6:15:00 PM 21.82 71.276 0.176 8.01 16.44 8.79
9/1/2023 6:30:00 PM 21.82 71.276 0.176 8.01 12.66 8.75
9/1/2023 6:45:00 PM 21.81 71.258 0.176 8.01 12.41 8.72
9/1/2023 7:00:00 PM 21.8 71.24 0.175 8.01 13.08 8.71
9/1/2023 7:15:00 PM 21.77 71.186 0.176 8.01 12.67 8.7
9/1/2023 7:30:00 PM 21.76 71.168 0.175 8 12.86 8.67
9/1/2023 7:45:00 PM 21.73 71.114 0.175 8 13.4 8.66
9/1/2023 8:00:00 PM 21.71 71.078 0.174 7.99 14.23 8.65
9/1/2023 8:15:00 PM 21.67 71.006 0.174 7.99 14.21 8.64
9/1/2023 8:30:00 PM 21.62 70.916 0.174 7.98 13.58 8.61
9/1/2023 8:45:00 PM 21.58 70.844 0.174 7.97 14.6 8.59
9/1/2023 9:00:00 PM 21.53 70.754 0.173 7.97 14.8 8.59
9/1/2023 9:15:00 PM 21.48 70.664 0.173 7.96 13.39 8.58
9/1/2023 9:30:00 PM 21.44 70.592 0.172 7.95 15.71 8.52
9/1/2023 9:45:00 PM 21.38 70.484 0.172 7.95 13.32 8.5
9/1/2023 10:00:00 PM 21.32 70.376 0.172 7.94 14.63 8.46
9/1/2023 10:15:00 PM 21.27 70.286 0.172 7.93 15.63 8.44
9/1/2023 10:30:00 PM 21.21 70.17799 0.172 7.92 14.04 8.4
9/1/2023 10:45:00 PM 21.16 70.088 0.172 7.92 15.61 8.41
9/1/2023 11:00:00 PM 21.11 69.998 0.172 7.91 16.22 8.39
9/1/2023 11:15:00 PM 21.07 69.926 0.172 7.91 15.26 8.35
9/1/2023 11:30:00 PM 21.02 69.836 0.171 7.9 14.36 8.34
9/1/2023 11:45:00 PM 20.97 69.746 0.171 7.89 14.16 8.29
9/2/2023 12:00:00 AM 20.92 69.656 0.171 7.88 16.53 8.24
9/2/2023 12:15:00 AM 20.88 69.584 0.171 7.88 15.69 8.25
9/2/2023 12:30:00 AM 20.83 69.494 0.171 7.87 14.37 8.19
9/2/2023 12:45:00 AM 20.78 69.404 0.171 7.86 15.45 8.11
9/2/2023 1:00:00 AM 20.74 69.332 0.171 7.86 15.49 8.16
9/2/2023 1:15:00 AM 20.7 69.26 0.171 7.85 15.56 8.15
9/2/2023 1:30:00 AM 20.66 69.188 0.171 7.85 15.95 8.11
9/2/2023 1:45:00 AM 20.63 69.134 0.171 7.84 15.66 8.1
9/2/2023 2:00:00 AM 20.59 69.062 0.17 7.84 15.88 8.05
9/2/2023 2:15:00 AM 20.56 69.008 0.17 7.83 13.9 8.11
9/2/2023 2:30:00 AM 20.52 68.936 0.171 7.83 15.18 8.06
9/2/2023 2:45:00 AM 20.5 68.9 0.171 7.82 14.76 8.09
9/2/2023 3:00:00 AM 20.48 68.864 0.171 7.82 15.81 8.08
9/2/2023 3:15:00 AM 20.45 68.81 0.17 7.82 15.73 8.09
9/2/2023 3:30:00 AM 20.43 68.774 0.17 7.82 15.46 8.07
9/2/2023 3:45:00 AM 20.4 68.72 0.17 7.82 15.13 8.08
9/2/2023 4:00:00 AM 20.37 68.666 0.17 7.82 16.06 8.12
9/2/2023 4:15:00 AM 20.36 68.648 0.17 7.82 15.89 8.1
9/2/2023 4:30:00 AM 20.33 68.594 0.17 7.82 15.69 8.1
9/2/2023 4:45:00 AM 20.3 68.54 0.17 7.82 15.93 8.11
9/2/2023 5:00:00 AM 20.28 68.504 0.17 7.82 14.26 8.13
9/2/2023 5:15:00 AM 20.25 68.45 0.171 7.82 15.14 8.13
9/2/2023 5:30:00 AM 20.22 68.396 0.172 7.82 13.58 8.12
9/2/2023 5:45:00 AM 20.2 68.36 0.172 7.82 14.17 8.14
9/2/2023 6:00:00 AM 20.18 68.324 0.172 7.82 14.63 8.16
9/2/2023 6:15:00 AM 20.16 68.288 0.172 7.82 14.94 8.13
9/2/2023 6:30:00 AM 20.14 68.252 0.172 7.82 14.69 8.17
9/2/2023 6:45:00 AM 20.13 68.234 0.172 7.82 13.68 8.14
9/2/2023 7:00:00 AM 20.13 68.234 0.172 7.83 13.88 8.12
9/2/2023 7:15:00 AM 20.11 68.198 0.173 7.82 14.38 8.12
9/2/2023 7:30:00 AM 20.11 68.198 0.173 7.83 13.52 8.15
9/2/2023 7:45:00 AM 20.11 68.198 0.173 7.83 13.42 8.15
9/2/2023 8:00:00 AM 20.09 68.162 0.173 7.83 12.23 8.17
9/2/2023 8:15:00 AM 20.09 68.162 0.173 7.83 13.07 8.1
9/2/2023 8:30:00 AM 20.07 68.126 0.173 7.83 11.69 8.14
9/2/2023 8:45:00 AM 20.08 68.144 0.173 7.83 12.21 8.13
9/2/2023 9:00:00 AM 20.09 68.162 0.173 7.83 12.14 8.16
9/2/2023 9:15:00 AM 20.09 68.162 0.173 7.83 11.51 8.2
9/2/2023 9:30:00 AM 20.09 68.162 0.173 7.83 12.68 8.15
9/2/2023 9:45:00 AM 20.13 68.234 0.173 7.84 11.06 8.28
9/2/2023 10:00:00 AM 20.12 68.216 0.174 7.84 11.76 8.29
9/2/2023 10:15:00 AM 20.15 68.27 0.174 7.85 11.41 8.25
9/2/2023 10:30:00 AM 20.18 68.324 0.175 7.85 11.46 8.32
9/2/2023 10:45:00 AM 20.21 68.378 0.175 7.86 9.53 8.37
9/2/2023 11:00:00 AM 20.27 68.486 0.175 7.87 10.45 8.4
9/2/2023 11:15:00 AM 20.32 68.576 0.175 7.88 10.98 8.45
9/2/2023 11:30:00 AM 20.38 68.684 0.176 7.88 10.23 8.55
9/2/2023 11:45:00 AM 20.44 68.792 0.177 7.9 10.53 8.55
9/2/2023 12:00:00 PM 20.77 69.386 0.185 7.88 23.37 8.8
9/2/2023 12:15:00 PM 20.72 69.296 0.18 7.85 29.88 8.81
9/2/2023 12:30:00 PM 20.66 69.188 0.177 7.9 24.41 8.74
9/2/2023 12:45:00 PM 20.73 69.314 0.177 7.92 19.07 8.75
9/2/2023 1:00:00 PM 20.82 69.476 0.177 7.94 15.36 8.79
9/2/2023 1:15:00 PM 20.91 69.638 0.178 7.95 13.46 8.82
9/2/2023 1:30:00 PM 20.98 69.764 0.178 7.97 12.45 8.9
9/2/2023 1:45:00 PM 21.07 69.926 0.178 7.99 10.9 8.92
9/2/2023 2:00:00 PM 21.16 70.088 0.178 8 10.86 8.96
9/2/2023 2:15:00 PM 21.25 70.25 0.178 8.02 10.52 9.07
9/2/2023 2:30:00 PM 21.35 70.43 0.178 8.03 10.65 9.14
9/2/2023 2:45:00 PM 21.43 70.574 0.178 8.05 9.9 9.18
9/2/2023 3:00:00 PM 21.52 70.736 0.178 8.08 9.94 9.26
9/2/2023 3:15:00 PM 21.63 70.934 0.178 8.1 9.85 9.4
9/2/2023 3:30:00 PM 21.69 71.042 0.179 8.11 9.38 9.48
9/2/2023 3:45:00 PM 21.77 71.186 0.18 8.13 10.03 9.56
9/2/2023 4:00:00 PM 21.84 71.312 0.18 8.15 9.69 9.57
9/2/2023 4:15:00 PM 21.91 71.438 0.18 8.18 9.08 9.71
9/2/2023 4:30:00 PM 21.97 71.546 0.181 8.21 9.57 9.79
9/2/2023 4:45:00 PM 22.02 71.636 0.181 8.23 9.19 9.89
9/2/2023 5:00:00 PM 22.08 71.744 0.181 8.25 8.57 9.93
9/2/2023 5:15:00 PM 22.13 71.834 0.181 8.28 8.88 9.92
9/2/2023 5:30:00 PM 22.18 71.924 0.181 8.29 8.93 9.98
9/2/2023 5:45:00 PM 22.21 71.978 0.181 8.31 8.61 10.02
9/2/2023 6:00:00 PM 22.25 72.05 0.181 8.32 8.88 10.05
9/2/2023 6:15:00 PM 22.27 72.086 0.182 8.33 8.36 10.02
9/2/2023 6:30:00 PM 22.27 72.086 0.183 8.34 8.34 10.09
9/2/2023 6:45:00 PM 22.28 72.104 0.183 8.35 7.78 10.06
9/2/2023 7:00:00 PM 22.28 72.104 0.183 8.36 8.5 10.05
9/2/2023 7:15:00 PM 22.29 72.122 0.183 8.37 7.82 10.1
9/2/2023 7:30:00 PM 22.29 72.122 0.183 8.37 8.56 10.07
9/2/2023 7:45:00 PM 22.28 72.104 0.185 8.38 7.82 10.02
9/2/2023 8:00:00 PM 22.26 72.068 0.185 8.38 7.97 10.02
9/2/2023 8:15:00 PM 22.23 72.014 0.186 8.37 8.55 9.94
9/2/2023 8:30:00 PM 22.22 71.996 0.185 8.37 8.03 9.91
9/2/2023 8:45:00 PM 22.2 71.96 0.186 8.36 7.92 9.86
9/2/2023 9:00:00 PM 22.18 71.924 0.185 8.35 8.18 9.81
9/2/2023 9:15:00 PM 22.15 71.87 0.185 8.34 8.8 9.79
9/2/2023 9:30:00 PM 22.13 71.834 0.185 8.33 7.47 9.69
9/2/2023 9:45:00 PM 22.1 71.78 0.186 8.31 8.54 9.63
9/2/2023 10:00:00 PM 22.06 71.708 0.188 8.3 7.42 9.54
9/2/2023 10:15:00 PM 22.03 71.654 0.188 8.29 7.96 9.51
9/2/2023 10:30:00 PM 22 71.6 0.188 8.27 7.7 9.41
9/2/2023 10:45:00 PM 21.97 71.546 0.189 8.26 8.35 9.35
9/2/2023 11:00:00 PM 21.94 71.492 0.189 8.24 8.02 9.3
9/2/2023 11:15:00 PM 21.92 71.456 0.189 8.23 7.7 9.22
9/2/2023 11:30:00 PM 21.89 71.402 0.189 8.22 7.58 9.15
9/2/2023 11:45:00 PM 21.85 71.33 0.19 8.2 7.66 9.01
9/3/2023 12:00:00 AM 21.8 71.24 0.19 8.18 7.57 9.04
9/3/2023 12:15:00 AM 21.77 71.186 0.19 8.16 8.3 8.82
9/3/2023 12:30:00 AM 21.73 71.114 0.191 8.15 7.36 8.91
9/3/2023 12:45:00 AM 21.69 71.042 0.192 8.13 8.07 8.78
9/3/2023 1:00:00 AM 21.64 70.952 0.192 8.11 8.16 8.7
9/3/2023 1:15:00 AM 21.6 70.88 0.193 8.1 8.04 8.66
9/3/2023 1:30:00 AM 21.56 70.808 0.193 8.08 7.69 8.62
9/3/2023 1:45:00 AM 21.52 70.736 0.194 8.07 8.09 8.6
9/3/2023 2:00:00 AM 21.49 70.682 0.193 8.05 7.92 8.64
9/3/2023 2:15:00 AM 21.48 70.664 0.193 8.04 8.01 8.59
9/3/2023 2:30:00 AM 21.45 70.61 0.193 8.03 8.04 8.56
9/3/2023 2:45:00 AM 21.42 70.556 0.194 8.02 7.49 8.49
9/3/2023 3:00:00 AM 21.4 70.52 0.194 8.01 7.77 8.53
9/3/2023 3:15:00 AM 21.37 70.466 0.194 8 8.09 8.49
9/3/2023 3:30:00 AM 21.35 70.43 0.195 7.99 7.63 8.16
9/3/2023 3:45:00 AM 21.38 70.484 0.195 7.98 16.59 8.58
9/3/2023 4:00:00 AM 21.48 70.664 0.196 7.93 10.01 8.66
9/3/2023 4:15:00 AM 21.45 70.61 0.196 7.9 17.35 8.75
9/3/2023 4:30:00 AM 21.3 70.34 0.196 7.93 16.53 8.53
9/3/2023 4:45:00 AM 21.26 70.268 0.197 7.94 14.41 8.46
9/3/2023 5:00:00 AM 21.25 70.25 0.197 7.95 11.9 8.43
9/3/2023 5:15:00 AM 21.24 70.232 0.197 7.95 10.73 8.38
9/3/2023 5:30:00 AM 21.23 70.214 0.197 7.95 9.13 8.37
9/3/2023 5:45:00 AM 21.22 70.196 0.197 7.95 8.16 8.38
9/3/2023 6:00:00 AM 21.23 70.214 0.196 7.95 7.91 8.35
9/3/2023 6:15:00 AM 21.21 70.17799 0.196 7.94 8.03 8.29
9/3/2023 6:30:00 AM 21.19 70.142 0.197 7.94 7.8 8.32
9/3/2023 6:45:00 AM 21.18 70.124 0.197 7.94 7.52 8.29
9/3/2023 7:00:00 AM 21.17 70.106 0.197 7.94 7.37 8.35
9/3/2023 7:15:00 AM 21.17 70.106 0.197 7.94 7.92 8.33
9/3/2023 7:30:00 AM 21.15 70.07 0.197 7.94 7.98 8.3
9/3/2023 7:45:00 AM 21.15 70.07 0.197 7.94 7.63 8.3
9/3/2023 8:00:00 AM 21.15 70.07 0.197 7.94 7.45 8.27
9/3/2023 8:15:00 AM 21.14 70.052 0.198 7.94 7.8 8.31
9/3/2023 8:30:00 AM 21.15 70.07 0.198 7.94 7.69 8.31
9/3/2023 8:45:00 AM 21.17 70.106 0.198 7.94 8.92 8.29
9/3/2023 9:00:00 AM 21.18 70.124 0.198 7.95 7.3 8.35
9/3/2023 9:15:00 AM 21.22 70.196 0.197 7.95 7.52 8.38
9/3/2023 9:30:00 AM 21.25 70.25 0.197 7.96 7.48 8.41
9/3/2023 9:45:00 AM 21.27 70.286 0.198 7.96 7.21 8.43
9/3/2023 10:00:00 AM 21.32 70.376 0.198 7.97 7.71 8.44
9/3/2023 10:15:00 AM 21.38 70.484 0.198 7.98 7.16 8.53
9/3/2023 10:30:00 AM 21.46 70.628 0.197 7.99 7.36 8.5
9/3/2023 10:45:00 AM 21.5 70.7 0.198 8 7.28 8.56
9/3/2023 11:00:00 AM 21.56 70.808 0.198 8.01 7.28 8.63
9/3/2023 11:15:00 AM 21.63 70.934 0.199 8.03 7.4 8.64
9/3/2023 11:30:00 AM 21.7 71.06 0.199 8.04 6.83 8.67
9/3/2023 11:45:00 AM 21.79 71.222 0.199 8.06 6.64 8.72
9/3/2023 12:00:00 PM 21.87 71.366 0.198 8.06 6.95 8.77
9/3/2023 12:15:00 PM 21.95 71.51 0.199 8.08 6.75 8.69
9/3/2023 12:30:00 PM 22.04 71.672 0.2 8.1 7.13 8.91
9/3/2023 12:45:00 PM 22.12 71.816 0.2 8.11 6.77 8.98
9/3/2023 1:00:00 PM 22.22 71.996 0.2 8.13 6.87 9.12
9/3/2023 1:15:00 PM 22.31 72.158 0.2 8.15 7.05 9.18
9/3/2023 1:30:00 PM 22.43 72.374 0.199 8.17 6.41 9.31
9/3/2023 1:45:00 PM 22.55 72.59 0.198 8.19 6.69 9.41
9/3/2023 2:00:00 PM 22.64 72.752 0.199 8.22 6.62 9.52
9/3/2023 2:15:00 PM 22.74 72.932 0.2 8.24 6.5 9.65
9/3/2023 2:30:00 PM 22.84 73.112 0.199 8.27 6.38 9.73
9/3/2023 2:45:00 PM 22.94 73.292 0.2 8.3 6.36 9.78
9/3/2023 3:00:00 PM 23.02 73.436 0.2 8.32 7.2 9.88
9/3/2023 3:15:00 PM 23.1 73.58 0.2 8.36 6.69 9.94
9/3/2023 3:30:00 PM 23.19 73.742 0.201 8.38 6.67 9.96
9/3/2023 3:45:00 PM 23.14 73.652 0.201 8.42 11.26 9.92
9/3/2023 4:00:00 PM 22.73 72.914 0.204 8.13 13.69 8.98
9/3/2023 4:15:00 PM 23.05 73.49 0.201 8.11 13.35 9.78
9/3/2023 4:30:00 PM 23.54 74.372 0.199 8.37 13.26 10.09
9/3/2023 4:45:00 PM 23.6 74.48 0.2 8.48 12.83 10.17
9/3/2023 5:00:00 PM 23.67 74.606 0.199 8.56 11.32 10.2
9/3/2023 5:15:00 PM 23.73 74.714 0.2 8.59 11.31 10.25
9/3/2023 5:30:00 PM 23.77 74.786 0.201 8.63 11.33 10.32
9/3/2023 5:45:00 PM 23.81 74.858 0.201 8.67 10.6 10.29
9/3/2023 6:00:00 PM 23.84 74.912 0.2 8.71 10.76 10.36
9/3/2023 6:15:00 PM 23.87 74.966 0.2 8.73 10.74 10.35
9/3/2023 6:30:00 PM 23.89 75.002 0.2 8.77 10.02 10.38
9/3/2023 6:45:00 PM 23.89 75.002 0.2 8.77 9.7 10.34
9/3/2023 7:00:00 PM 23.89 75.002 0.2 8.79 10.07 10.32
9/3/2023 7:15:00 PM 23.89 75.002 0.2 8.79 10.21 10.33
9/3/2023 7:30:00 PM 23.89 75.002 0.2 8.8 9.66 10.31
9/3/2023 7:45:00 PM 23.88 74.984 0.201 8.8 9.87 10.3
9/3/2023 8:00:00 PM 23.86 74.948 0.202 8.8 9.76 10.29
9/3/2023 8:15:00 PM 23.83 74.894 0.202 8.8 9.9 10.26
9/3/2023 8:30:00 PM 23.81 74.858 0.202 8.79 8.94 10.24
9/3/2023 8:45:00 PM 23.77 74.786 0.202 8.77 9.23 10.18
9/3/2023 9:00:00 PM 23.74 74.732 0.202 8.76 8.5 10.15
9/3/2023 9:15:00 PM 23.7 74.66 0.203 8.74 8.57 10.14
9/3/2023 9:30:00 PM 23.66 74.588 0.203 8.73 8.59 10.11
9/3/2023 9:45:00 PM 23.62 74.516 0.202 8.71 8.53 10.07
9/3/2023 10:00:00 PM 23.58 74.444 0.202 8.68 8.4 10.04
9/3/2023 10:15:00 PM 23.53 74.354 0.202 8.66 8.12 9.98
9/3/2023 10:30:00 PM 23.49 74.282 0.202 8.63 7.73 9.92
9/3/2023 10:45:00 PM 23.45 74.21 0.202 8.6 7.59 9.87
9/3/2023 11:00:00 PM 23.4 74.12 0.202 8.58 6.71 9.81
9/3/2023 11:15:00 PM 23.34 74.012 0.202 8.55 6.87 9.72
9/3/2023 11:30:00 PM 23.29 73.922 0.202 8.52 6.79 9.66
9/3/2023 11:45:00 PM 23.23 73.814 0.203 8.49 7.05 9.56
9/4/2023 12:00:00 AM 23.18 73.724 0.203 8.46 6.38 9.46
9/4/2023 12:15:00 AM 23.13 73.634 0.203 8.44 6.85 9.36
9/4/2023 12:30:00 AM 23.08 73.544 0.202 8.41 6.55 9.26
9/4/2023 12:45:00 AM 23.03 73.454 0.203 8.38 6.49 9.13
9/4/2023 1:00:00 AM 22.97 73.346 0.203 8.34 6.47 9.02
9/4/2023 1:15:00 AM 22.92 73.256 0.204 8.31 6.46 8.91
9/4/2023 1:30:00 AM 22.87 73.166 0.204 8.29 6.74 8.82
9/4/2023 1:45:00 AM 22.82 73.076 0.203 8.26 6.67 8.75
9/4/2023 2:00:00 AM 22.77 72.986 0.204 8.23 6.34 8.64
9/4/2023 2:15:00 AM 22.72 72.896 0.196 8.2 6.01 8.61
9/4/2023 2:30:00 AM 22.67 72.806 0.204 8.18 6.67 8.52
9/4/2023 2:45:00 AM 22.63 72.734 0.204 8.16 6.56 8.47
9/4/2023 3:00:00 AM 22.6 72.68 0.204 8.14 6.29 8.42
9/4/2023 3:15:00 AM 22.56 72.608 0.204 8.12 6.51 8.41
9/4/2023 3:30:00 AM 22.52 72.536 0.204 8.11 6.7 8.38
9/4/2023 3:45:00 AM 22.49 72.482 0.205 8.1 6.46 8.35
9/4/2023 4:00:00 AM 22.46 72.42799 0.205 8.09 6.59 8.33
9/4/2023 4:15:00 AM 22.44 72.392 0.205 8.07 6.49 8.27
9/4/2023 4:30:00 AM 22.43 72.374 0.204 8.06 6.57 8.28
9/4/2023 4:45:00 AM 22.41 72.338 0.205 8.05 6.36 8.24
9/4/2023 5:00:00 AM 22.39 72.302 0.205 8.04 6.35 8.22
9/4/2023 5:15:00 AM 22.38 72.284 0.204 8.03 6.6 8.24
9/4/2023 5:30:00 AM 22.37 72.266 0.204 8.03 6.37 8.2
9/4/2023 5:45:00 AM 22.36 72.248 0.204 8.02 6.56 8.1
9/4/2023 6:00:00 AM 22.36 72.248 0.203 8.01 6.59 8.14
9/4/2023 6:15:00 AM 22.35 72.23 0.203 8 6.31 8.13
9/4/2023 6:30:00 AM 22.35 72.23 0.203 8 6.52 8.11
9/4/2023 6:45:00 AM 22.35 72.23 0.204 7.99 6.46 8.09
9/4/2023 7:00:00 AM 22.33 72.194 0.204 7.98 6.47 8.11
9/4/2023 7:15:00 AM 22.33 72.194 0.205 7.98 6.71 8.07
9/4/2023 7:30:00 AM 22.33 72.194 0.205 7.97 6.72 8.05
9/4/2023 7:45:00 AM 22.33 72.194 0.205 7.97 6.64 8.01
9/4/2023 8:00:00 AM 22.33 72.194 0.205 7.97 6.32 8.04
9/4/2023 8:15:00 AM 22.34 72.212 0.205 7.97 6.73 8.03
9/4/2023 8:30:00 AM 22.35 72.23 0.204 7.97 6.37 8.04
9/4/2023 8:45:00 AM 22.34 72.212 0.206 7.97 8.61 8.07
9/4/2023 9:00:00 AM 22.36 72.248 0.206 7.97 6.48 8.09
9/4/2023 9:15:00 AM 22.38 72.284 0.205 7.98 6.54 8.03
9/4/2023 9:30:00 AM 22.41 72.338 0.205 7.98 6.33 8.09
9/4/2023 9:45:00 AM 22.44 72.392 0.205 7.99 6.35 8.14
9/4/2023 10:00:00 AM 22.49 72.482 0.205 8 6.43 8.23
9/4/2023 10:15:00 AM 22.55 72.59 0.204 8 6.22 8.31
9/4/2023 10:30:00 AM 22.59 72.662 0.204 8.02 6.23 8.33
9/4/2023 10:45:00 AM 22.62 72.716 0.204 8.02 6.23 8.35
9/4/2023 11:00:00 AM 22.67 72.806 0.205 8.03 6.29 8.38
9/4/2023 11:15:00 AM 22.73 72.914 0.205 8.04 6.17 8.42
9/4/2023 11:30:00 AM 22.84 73.112 0.205 8.05 6.14 8.57
9/4/2023 11:45:00 AM 22.92 73.256 0.204 8.08 6.27 8.56
9/4/2023 12:00:00 PM 23 73.4 0.205 8.11 6.17 8.71
9/4/2023 12:15:00 PM 23.08 73.544 0.206 8.11 6.1 8.79
9/4/2023 12:30:00 PM 23.18 73.724 0.206 8.15 6.06 8.9
9/4/2023 12:45:00 PM 23.3 73.94 0.205 8.17 6.04 8.98
9/4/2023 1:00:00 PM 23.4 74.12 0.205 8.18 6.03 9.2
9/4/2023 1:15:00 PM 23.51 74.318 0.204 8.22 6.1 9.33
9/4/2023 1:30:00 PM 23.59 74.462 0.204 8.24 6.12 9.41
9/4/2023 1:45:00 PM 23.69 74.642 0.203 8.27 6.05 9.41
9/4/2023 2:00:00 PM 23.76 74.768 0.203 8.29 5.95 9.49
9/4/2023 2:15:00 PM 23.87 74.966 0.203 8.32 5.98 9.59
9/4/2023 2:30:00 PM 23.97 75.146 0.203 8.35 6.05 9.69
9/4/2023 2:45:00 PM 24.07 75.326 0.203 8.39 6.19 9.8
9/4/2023 3:00:00 PM 24.17 75.506 0.204 8.44 6.23 9.83
9/4/2023 3:15:00 PM 24.31 75.758 0.203 8.49 6 9.9
9/4/2023 3:30:00 PM 24.42 75.956 0.203 8.56 6.31 9.98
9/4/2023 3:45:00 PM 24.52 76.136 0.204 8.6 6.07 10.06
9/4/2023 4:00:00 PM 24.6 76.28 0.203 8.65 6.11 10.12
9/4/2023 4:15:00 PM 24.72 76.496 0.203 8.7 5.85 10.15
9/4/2023 4:30:00 PM 24.8 76.64 0.203 8.75 5.78 10.24
9/4/2023 4:45:00 PM 24.87 76.766 0.204 8.77 6.27 10.33
9/4/2023 5:00:00 PM 24.96 76.92799 0.204 8.8 5.96 10.41
9/4/2023 5:15:00 PM 25.04 77.07201 0.203 8.88 6.18 10.51
9/4/2023 5:30:00 PM 25.1 77.18 0.203 8.91 5.94 10.63
9/4/2023 5:45:00 PM 25.16 77.288 0.203 8.95 6.41 10.72
9/4/2023 6:00:00 PM 25.2 77.36 0.203 9 6.69 10.76
9/4/2023 6:15:00 PM 25.23 77.414 0.203 9.03 6.08 10.78
9/4/2023 6:30:00 PM 25.24 77.432 0.203 9.04 6.53 10.77
9/4/2023 6:45:00 PM 25.24 77.432 0.203 9.05 6.14 10.78
9/4/2023 7:00:00 PM 25.24 77.432 0.202 9.06 6.09 10.77
9/4/2023 7:15:00 PM 25.24 77.432 0.201 9.07 6.01 10.66
9/4/2023 7:30:00 PM 25.24 77.432 0.202 9.07 6.28 10.71
9/4/2023 7:45:00 PM 25.23 77.414 0.202 9.08 5.84 10.68
9/4/2023 8:00:00 PM 25.22 77.396 0.201 9.09 5.89 10.67
9/4/2023 8:15:00 PM 25.2 77.36 0.2 9.09 6.24 10.63
9/4/2023 8:30:00 PM 25.17 77.306 0.201 9.09 6.08 10.58
9/4/2023 8:45:00 PM 25.14 77.252 0.201 9.08 5.68 10.49
9/4/2023 9:00:00 PM 24.44 75.992 0.208 8.53 9.64 9.39
9/4/2023 9:15:00 PM 24.55 76.19 0.207 8.35 12.41 9.47
9/4/2023 9:30:00 PM 24.97 76.946 0.203 8.74 12.79 10.19
9/4/2023 9:45:00 PM 24.97 76.946 0.202 8.93 14.57 10.11
9/4/2023 10:00:00 PM 24.94 76.892 0.201 8.95 12.5 10.02
9/4/2023 10:15:00 PM 24.89 76.802 0.202 8.94 13.01 9.96
9/4/2023 10:30:00 PM 24.84 76.712 0.203 8.91 11.87 9.81
9/4/2023 10:45:00 PM 24.8 76.64 0.203 8.89 11.92 9.84
9/4/2023 11:00:00 PM 24.75 76.55 0.202 8.86 11.58 9.81
9/4/2023 11:15:00 PM 24.7 76.46 0.203 8.83 10.67 9.72
9/4/2023 11:30:00 PM 24.65 76.37 0.202 8.79 10.49 9.65
9/4/2023 11:45:00 PM 24.6 76.28 0.203 8.76 10.35 9.51
9/5/2023 12:00:00 AM 24.53 76.154 0.203 8.71 9.67 9.5
9/5/2023 12:15:00 AM 24.48 76.064 0.203 8.68 9.11 9.49
9/5/2023 12:30:00 AM 24.43 75.974 0.202 8.64 9 9.36
9/5/2023 12:45:00 AM 24.37 75.866 0.203 8.6 9.01 9.32
9/5/2023 1:00:00 AM 24.3 75.74 0.204 8.56 9.55 9.2
9/5/2023 1:15:00 AM 24.24 75.632 0.204 8.52 9.46 8.9
9/5/2023 1:30:00 AM 24.18 75.524 0.204 8.47 8.9 8.81
9/5/2023 1:45:00 AM 24.12 75.416 0.203 8.43 8.51 8.68
9/5/2023 2:00:00 AM 24.05 75.29 0.204 8.38 10.59 8.65
9/5/2023 2:15:00 AM 23.99 75.182 0.205 8.34 9.5 8.46
9/5/2023 2:30:00 AM 23.94 75.092 0.204 8.3 9.28 8.38
9/5/2023 2:45:00 AM 23.88 74.984 0.205 8.26 9.04 8.34
9/5/2023 3:00:00 AM 23.83 74.894 0.204 8.23 7.95 8.23
9/5/2023 3:15:00 AM 23.78 74.804 0.204 8.21 7.93 8.18
9/5/2023 3:30:00 AM 23.73 74.714 0.205 8.18 7.62 8.12
9/5/2023 3:45:00 AM 23.68 74.624 0.205 8.16 7.78 8.1
9/5/2023 4:00:00 AM 23.63 74.534 0.205 8.13 7.48 8.06
9/5/2023 4:15:00 AM 23.59 74.462 0.205 8.12 7.59 7.97
9/5/2023 4:30:00 AM 23.56 74.408 0.205 8.1 7.08 7.92
9/5/2023 4:45:00 AM 23.52 74.336 0.206 8.09 6.74 8.01
9/5/2023 5:00:00 AM 23.48 74.264 0.205 8.08 6.94 7.94
9/5/2023 5:15:00 AM 23.45 74.21 0.206 8.06 7.08 7.88
9/5/2023 5:30:00 AM 23.41 74.138 0.206 8.05 6.97 7.89
9/5/2023 5:45:00 AM 23.38 74.084 0.207 8.04 6.87 7.82
9/5/2023 6:00:00 AM 23.36 74.048 0.207 8.03 6.85 7.87
9/5/2023 6:15:00 AM 23.33 73.994 0.207 8.02 7.04 7.82
9/5/2023 6:30:00 AM 23.3 73.94 0.207 8.02 6.87 7.83
9/5/2023 6:45:00 AM 23.28 73.904 0.207 8.01 6.88 7.79
9/5/2023 7:00:00 AM 23.25 73.85 0.208 8 7.04 7.79
9/5/2023 7:15:00 AM 23.24 73.832 0.207 8 6.72 7.8
9/5/2023 7:30:00 AM 23.23 73.814 0.207 7.99 6.84 7.57
9/5/2023 7:45:00 AM 23.22 73.796 0.207 7.99 6.71 7.69
9/5/2023 8:00:00 AM 23.21 73.778 0.207 7.99 6.91 7.84
9/5/2023 8:15:00 AM 23.21 73.778 0.207 7.99 6.38 7.81
9/5/2023 8:30:00 AM 23.21 73.778 0.207 7.99 6.45 7.76
9/5/2023 8:45:00 AM 23.21 73.778 0.207 8 6.38 7.93
9/5/2023 9:00:00 AM 23.22 73.796 0.207 8 6.24 7.97
9/5/2023 9:15:00 AM 23.65 74.57 0.217 7.98 7.61 8.33
9/5/2023 9:30:00 AM 23.68 74.624 0.213 7.96 10.38 8.26
9/5/2023 9:45:00 AM 23.59 74.462 0.211 7.96 15.69 8.38
9/5/2023 10:00:00 AM 23.32 73.976 0.209 7.98 11.55 8.28
9/5/2023 10:15:00 AM 23.35 74.03 0.21 8.03 8.87 8.33
9/5/2023 10:30:00 AM 23.43 74.174 0.209 8.06 7.57 8.38
9/5/2023 10:45:00 AM 23.52 74.336 0.208 8.08 6.97 8.45
9/5/2023 11:00:00 AM 23.6 74.48 0.209 8.1 6.47 8.5
9/5/2023 11:15:00 AM 23.68 74.624 0.209 8.14 6.39 8.56
9/5/2023 11:30:00 AM 23.77 74.786 0.21 8.16 6.25 8.68
9/5/2023 11:45:00 AM 23.84 74.912 0.211 8.19 6.1 8.84
9/5/2023 12:00:00 PM 23.94 75.092 0.213 8.21 6.14 8.96
9/5/2023 12:15:00 PM 24.05 75.29 0.215 8.25 5.95 9.08
9/5/2023 12:30:00 PM 24.15 75.47 0.216 8.28 5.99 9.2
9/5/2023 12:45:00 PM 24.24 75.632 0.216 8.33 5.86 9.3
9/5/2023 1:00:00 PM 24.34 75.812 0.216 8.36 5.83 9.4
9/5/2023 1:15:00 PM 24.43 75.974 0.216 8.4 5.88 9.5
9/5/2023 1:30:00 PM 24.56 76.208 0.214 8.45 5.81 9.56
9/5/2023 1:45:00 PM 24.67 76.406 0.214 8.5 5.86 9.61
9/5/2023 2:00:00 PM 24.79 76.622 0.214 8.54 5.78 9.67
9/5/2023 2:15:00 PM 24.9 76.82 0.214 8.59 5.77 9.74
9/5/2023 2:30:00 PM 25.02 77.036 0.214 8.64 5.82 9.81
9/5/2023 2:45:00 PM 25.14 77.252 0.213 8.69 5.8 9.9
9/5/2023 3:00:00 PM 25.26 77.468 0.212 8.73 5.7 10
9/5/2023 3:15:00 PM 25.36 77.648 0.212 8.79 5.72 10.14
9/5/2023 3:30:00 PM 25.48 77.864 0.212 8.86 5.78 10.34
9/5/2023 3:45:00 PM 25.59 78.062 0.212 8.92 6.67 10.51
9/5/2023 4:00:00 PM 25.66 78.188 0.213 8.95 5.9 10.62
9/5/2023 4:15:00 PM 25.75 78.35 0.213 9 5.97 10.78
9/5/2023 4:30:00 PM 25.85 78.53 0.212 9.04 5.95 10.88
9/5/2023 4:45:00 PM 25.93 78.674 0.212 9.07 5.94 10.95
9/5/2023 5:00:00 PM 25.99 78.782 0.213 9.09 6.32 11.01
9/5/2023 5:15:00 PM 26.07 78.926 0.212 9.13 6.51 11.07
9/5/2023 5:30:00 PM 26.14 79.052 0.212 9.16 7.09 11.12
9/5/2023 5:45:00 PM 26.19 79.142 0.212 9.18 7.54 11.13
9/5/2023 6:00:00 PM 26.23 79.214 0.213 9.19 7.99 11.13
9/5/2023 6:15:00 PM 26.26 79.268 0.212 9.21 9.05 11.19
9/5/2023 6:30:00 PM 26.29 79.32201 0.212 9.24 18.37 11.2
9/5/2023 6:45:00 PM 26.29 79.32201 0.212 9.24 20.65 11.17
9/5/2023 7:00:00 PM 26.29 79.32201 0.212 9.27 23.29 11.19
9/5/2023 7:15:00 PM 26.28 79.304 0.212 9.28 29.96 11.2
9/5/2023 7:30:00 PM 26.27 79.286 0.212 9.28 19.57 11.18
9/5/2023 7:45:00 PM 26.25 79.25 0.213 9.29 20.24 11.15
9/5/2023 8:00:00 PM 26.25 79.25 0.212 9.29 29.45 11.13
9/5/2023 8:15:00 PM 26.23 79.214 0.213 9.29 34.12 11.09
9/5/2023 8:30:00 PM 26.21 79.17799 0.213 9.29 32.61 11.04
9/5/2023 8:45:00 PM 26.19 79.142 0.213 9.28 34.92 11.02
9/5/2023 9:00:00 PM 26.16 79.088 0.213 9.27 15.24 10.96
9/5/2023 9:15:00 PM 26.11 78.998 0.214 9.26 24.12 10.93
9/5/2023 9:30:00 PM 26.07 78.926 0.213 9.25 15.39 10.85
9/5/2023 9:45:00 PM 26.03 78.854 0.213 9.25 17.11 10.81
9/5/2023 10:00:00 PM 25.98 78.764 0.214 9.23 17.04 10.74
9/5/2023 10:15:00 PM 25.95 78.71 0.214 9.22 21.7 10.62
9/5/2023 10:30:00 PM 25.58 78.044 0.219 9.03 11.61 9.6
9/5/2023 10:45:00 PM 25.53 77.954 0.218 8.52 9.18 9.24
9/5/2023 11:00:00 PM 25.78 78.404 0.214 8.77 16.21 9.97
9/5/2023 11:15:00 PM 25.75 78.35 0.214 9.02 16.82 10.04
9/5/2023 11:30:00 PM 25.7 78.26 0.214 9.03 12.83 9.9
9/5/2023 11:45:00 PM 25.66 78.188 0.215 9.01 13.77 9.79
9/6/2023 12:00:00 AM 25.61 78.098 0.214 8.99 9.41 9.7
9/6/2023 12:15:00 AM 25.56 78.008 0.215 8.95 9.01 9.63
9/6/2023 12:30:00 AM 25.5 77.9 0.215 8.92 15.11 9.57
9/6/2023 12:45:00 AM 25.44 77.792 0.216 8.88 12.8 9.52
9/6/2023 1:00:00 AM 25.38 77.684 0.215 8.85 14.11 9.47
9/6/2023 1:15:00 AM 25.32 77.576 0.216 8.8 13.22 9.41
9/6/2023 1:30:00 AM 25.26 77.468 0.216 8.76 9.23 9.31
9/6/2023 1:45:00 AM 25.19 77.342 0.216 8.71 8.15 9.23
9/6/2023 2:00:00 AM 25.11 77.198 0.217 8.65 7.6 9.1
9/6/2023 2:15:00 AM 25.06 77.108 0.217 8.6 7.26 8.93
9/6/2023 2:30:00 AM 25 77 0.217 8.55 6.81 8.79
9/6/2023 2:45:00 AM 24.93 76.874 0.217 8.49 6.08 8.62
9/6/2023 3:00:00 AM 24.87 76.766 0.217 8.44 5.89 8.45
9/6/2023 3:15:00 AM 24.81 76.658 0.218 8.39 6 8.33
9/6/2023 3:30:00 AM 24.76 76.568 0.218 8.34 5.97 8.2
9/6/2023 3:45:00 AM 24.7 76.46 0.218 8.31 6.15 8.11
9/6/2023 4:00:00 AM 24.65 76.37 0.219 8.27 5.71 8.04
9/6/2023 4:15:00 AM 24.59 76.262 0.221 8.23 5.95 7.97
9/6/2023 4:30:00 AM 24.54 76.172 0.223 8.2 5.9 7.91
9/6/2023 4:45:00 AM 24.49 76.082 0.222 8.18 5.94 7.76
9/6/2023 5:00:00 AM 24.45 76.01 0.221 8.15 5.88 7.72
9/6/2023 5:15:00 AM 24.41 75.938 0.221 8.13 5.78 7.81
9/6/2023 5:30:00 AM 24.36 75.848 0.221 8.11 5.88 7.77
9/6/2023 5:45:00 AM 24.32 75.776 0.221 8.09 6.14 7.75
9/6/2023 6:00:00 AM 24.27 75.686 0.222 8.08 6.17 7.72
9/6/2023 6:15:00 AM 24.23 75.614 0.221 8.06 6.13 7.71
9/6/2023 6:30:00 AM 24.18 75.524 0.221 8.05 6.08 7.67
9/6/2023 6:45:00 AM 24.14 75.452 0.221 8.04 6.05 7.67
9/6/2023 7:00:00 AM 24.12 75.416 0.22 8.03 6.2 7.63
9/6/2023 7:15:00 AM 24.1 75.38 0.22 8.02 5.96 7.59
9/6/2023 7:30:00 AM 24.07 75.326 0.22 8.01 6.12 7.59
9/6/2023 7:45:00 AM 24.05 75.29 0.221 8 6.15 7.57
9/6/2023 8:00:00 AM 24.03 75.254 0.221 8 6.11 7.59
9/6/2023 8:15:00 AM 24.02 75.236 0.221 8 5.95 7.63
9/6/2023 8:30:00 AM 24.02 75.236 0.221 8 6.29 7.68
9/6/2023 8:45:00 AM 24.03 75.254 0.22 8.01 6.2 7.73
9/6/2023 9:00:00 AM 24.05 75.29 0.22 8.02 5.93 7.77
9/6/2023 9:15:00 AM 24.07 75.326 0.22 8.03 5.96 7.85
9/6/2023 9:30:00 AM 24.1 75.38 0.221 8.04 6.05 7.9
9/6/2023 9:45:00 AM 24.14 75.452 0.221 8.06 6.02 7.95
9/6/2023 10:00:00 AM 24.19 75.542 0.221 8.07 5.89 8.01
9/6/2023 10:15:00 AM 24.25 75.65 0.221 8.09 6.14 8.09
9/6/2023 10:30:00 AM 24.32 75.776 0.222 8.11 5.99 8.19
9/6/2023 10:45:00 AM 24.4 75.92 0.222 8.13 6.02 8.3
9/6/2023 11:00:00 AM 24.49 76.082 0.223 8.16 5.93 8.43
9/6/2023 11:15:00 AM 24.58 76.244 0.224 8.19 6.01 8.54
9/6/2023 11:30:00 AM 24.67 76.406 0.224 8.21 5.99 8.73
9/6/2023 11:45:00 AM 24.76 76.568 0.224 8.24 5.72 8.84
9/6/2023 12:00:00 PM 24.87 76.766 0.223 8.28 5.83 9.02
9/6/2023 12:15:00 PM 25 77 0.224 8.32 5.94 9.07
9/6/2023 12:30:00 PM 25.11 77.198 0.225 8.36 5.99 9.19
9/6/2023 12:45:00 PM 25.21 77.378 0.227 8.4 5.82 9.29
9/6/2023 1:00:00 PM 25.32 77.576 0.228 8.44 6.07 9.33
9/6/2023 1:15:00 PM 25.39 77.702 0.231 8.48 5.75 9.38
9/6/2023 1:30:00 PM 25.49 77.882 0.233 8.52 5.86 9.48
9/6/2023 1:45:00 PM 25.58 78.044 0.233 8.56 5.66 9.54
9/6/2023 2:00:00 PM 25.75 78.35 0.233 8.62 5.76 9.63
9/6/2023 2:15:00 PM 25.93 78.674 0.233 8.68 6.09 9.79
9/6/2023 2:30:00 PM 26.09 78.962 0.235 8.74 5.68 9.99
9/6/2023 2:45:00 PM 26.18 79.124 0.238 8.8 5.61 10.06
9/6/2023 3:00:00 PM 26.01 78.818 0.235 8.64 8.15 9.41
9/6/2023 3:15:00 PM 25.95 78.71 0.236 8.6 12.9 9.36
9/6/2023 3:30:00 PM 26.32 79.376 0.234 8.84 17.6 10.36
9/6/2023 3:45:00 PM 26.39 79.502 0.231 8.94 19.19 10.49
9/6/2023 4:00:00 PM 26.43 79.574 0.229 9.01 20.32 10.58
9/6/2023 4:15:00 PM 26.49 79.682 0.227 9.06 23.72 10.67
9/6/2023 4:30:00 PM 26.61 79.898 0.226 9.1 26.52 10.73
9/6/2023 4:45:00 PM 26.7 80.06 0.225 9.14 28.93 10.77
9/6/2023 5:00:00 PM 26.79 80.222 0.224 9.16 33.43 10.9
9/6/2023 5:15:00 PM 26.88 80.384 0.223 9.21 38.44 10.91
9/6/2023 5:30:00 PM 26.96 80.528 0.222 9.24 44.41 10.98
9/6/2023 5:45:00 PM 27.02 80.636 0.222 9.26 50.38 10.96
9/6/2023 6:00:00 PM 27.05 80.69 0.222 9.29 46.28 11
9/6/2023 6:15:00 PM 27.1 80.78 0.221 9.31 50.86 11.03
9/6/2023 6:30:00 PM 27.14 80.852 0.22 9.33 52.95 11.01
9/6/2023 6:45:00 PM 27.16 80.888 0.221 9.34 57.42 11.02
9/6/2023 7:00:00 PM 27.17 80.906 0.221 9.34 63.14 11
9/6/2023 7:15:00 PM 27.18 80.924 0.221 9.36 66.17 11.03
9/6/2023 7:30:00 PM 27.2 80.96 0.221 9.37 73.88 11
9/6/2023 7:45:00 PM 27.21 80.978 0.221 9.37 78.76 11.02
9/6/2023 8:00:00 PM 27.21 80.978 0.221 9.38 92.78 10.98
9/6/2023 8:15:00 PM 27.21 80.978 0.221 9.38 101.69 10.96
9/6/2023 8:30:00 PM 27.19 80.942 0.221 9.38 107.25 10.95
9/6/2023 8:45:00 PM 27.18 80.924 0.22 9.38 144.63 10.91
9/6/2023 9:00:00 PM 27.16 80.888 0.22 9.38 156.15 10.91
9/6/2023 9:15:00 PM 27.13 80.834 0.22 9.38 124.37 10.87
9/6/2023 9:30:00 PM 27.1 80.78 0.219 9.38 20.67 10.82
9/6/2023 9:45:00 PM 27.07 80.726 0.219 9.37 25.56 10.8
9/6/2023 10:00:00 PM 27.02 80.636 0.22 9.36 27.33 10.76
9/6/2023 10:15:00 PM 26.98 80.564 0.22 9.34 24.52 10.73
9/6/2023 10:30:00 PM 26.63 79.934 0.226 9.21 7.66 9.9
9/6/2023 10:45:00 PM 26.64 79.952 0.226 8.99 12.16 9.5
9/6/2023 11:00:00 PM 26.62 79.916 0.226 8.93 23.36 9.29
9/6/2023 11:15:00 PM 26.76 80.168 0.221 9.06 15.17 9.84
9/6/2023 11:30:00 PM 26.72 80.096 0.221 9.11 14.44 9.93
9/6/2023 11:45:00 PM 26.67 80.006 0.222 9.12 14.85 9.89
9/7/2023 12:00:00 AM 26.61 79.898 0.222 9.1 14.97 9.76
9/7/2023 12:15:00 AM 26.54 79.772 0.223 9.08 15.48 9.66
9/7/2023 12:30:00 AM 26.49 79.682 0.222 9.06 15.62 9.53
9/7/2023 12:45:00 AM 26.44 79.592 0.222 9.04 15.23 9.45
9/7/2023 1:00:00 AM 26.38 79.484 0.222 9.01 15.66 9.35
9/7/2023 1:15:00 AM 26.31 79.358 0.223 8.98 15.23 9.29
9/7/2023 1:30:00 AM 26.24 79.232 0.222 8.95 15.35 9.23
9/7/2023 1:45:00 AM 26.18 79.124 0.223 8.91 13.7 9.15
9/7/2023 2:00:00 AM 26.11 78.998 0.223 8.86 12.83 9.07
9/7/2023 2:15:00 AM 26.05 78.89 0.223 8.82 12.02 8.99
9/7/2023 2:30:00 AM 25.98 78.764 0.224 8.76 10.79 8.85
9/7/2023 2:45:00 AM 25.91 78.638 0.228 8.7 10.37 8.7
9/7/2023 3:00:00 AM 25.84 78.512 0.235 8.64 9.35 8.52
9/7/2023 3:15:00 AM 25.77 78.386 0.239 8.59 8.64 8.36
9/7/2023 3:30:00 AM 25.7 78.26 0.239 8.55 8.04 8.24
9/7/2023 3:45:00 AM 25.62 78.116 0.238 8.5 7.57 8.07
9/7/2023 4:00:00 AM 25.56 78.008 0.235 8.45 7.29 7.96
9/7/2023 4:15:00 AM 25.5 77.9 0.234 8.41 7.12 7.9
9/7/2023 4:30:00 AM 25.44 77.792 0.232 8.36 6.78 7.81
9/7/2023 4:45:00 AM 25.38 77.684 0.231 8.32 6.65 7.74
9/7/2023 5:00:00 AM 25.32 77.576 0.232 8.29 6.79 7.69
9/7/2023 5:15:00 AM 25.26 77.468 0.233 8.25 6.53 7.63
9/7/2023 5:30:00 AM 25.2 77.36 0.233 8.23 6.31 7.59
9/7/2023 5:45:00 AM 25.41 77.738 0.236 8.2 8.53 7.79
9/7/2023 6:00:00 AM 25.62 78.116 0.234 8.18 8.26 7.83
9/7/2023 6:15:00 AM 25.12 77.216 0.231 8.17 8.79 7.56
9/7/2023 6:30:00 AM 25 77 0.23 8.14 7.48 7.49
9/7/2023 6:45:00 AM 24.96 76.92799 0.229 8.12 6.86 7.44
9/7/2023 7:00:00 AM 24.9 76.82 0.23 8.1 6.46 7.4
9/7/2023 7:15:00 AM 24.87 76.766 0.228 8.09 6.24 7.37
9/7/2023 7:30:00 AM 24.83 76.694 0.228 8.08 6.5 7.38
9/7/2023 7:45:00 AM 24.8 76.64 0.228 8.07 6.58 7.36
9/7/2023 8:00:00 AM 24.77 76.586 0.228 8.06 6.52 7.36
9/7/2023 8:15:00 AM 24.76 76.568 0.228 8.05 6.46 7.38
9/7/2023 8:30:00 AM 24.73 76.514 0.228 8.05 6.47 7.44
9/7/2023 8:45:00 AM 24.73 76.514 0.227 8.06 6.67 7.49
9/7/2023 9:00:00 AM 24.73 76.514 0.227 8.06 6.6 7.55
9/7/2023 9:15:00 AM 24.75 76.55 0.227 8.07 6.72 7.63
9/7/2023 9:30:00 AM 24.76 76.568 0.227 8.08 6.43 7.69
9/7/2023 9:45:00 AM 24.78 76.604 0.227 8.1 6.48 7.74
9/7/2023 10:00:00 AM 24.82 76.676 0.226 8.11 6.66 7.84
9/7/2023 10:15:00 AM 24.86 76.748 0.226 8.13 7.07 7.96
9/7/2023 10:30:00 AM 24.92 76.856 0.225 8.16 6.88 8.07
9/7/2023 10:45:00 AM 24.97 76.946 0.225 8.18 6.47 8.21
9/7/2023 11:00:00 AM 25.05 77.09 0.225 8.2 6.67 8.4
9/7/2023 11:15:00 AM 25.16 77.288 0.225 8.25 6.83 8.57
9/7/2023 11:30:00 AM 25.23 77.414 0.226 8.28 6.67 8.77
9/7/2023 11:45:00 AM 25.34 77.612 0.226 8.33 6.5 8.93
9/7/2023 12:00:00 PM 25.45 77.81 0.226 8.38 6.65 9.05
9/7/2023 12:15:00 PM 25.56 78.008 0.227 8.43 7.39 9.14
9/7/2023 12:30:00 PM 25.66 78.188 0.228 8.48 6.58 9.22
9/7/2023 12:45:00 PM 25.77 78.386 0.23 8.53 7.6 9.27
9/7/2023 1:00:00 PM 25.89 78.602 0.23 8.58 6.79 9.33
9/7/2023 1:15:00 PM 26.01 78.818 0.23 8.63 6.85 9.43
9/7/2023 1:30:00 PM 26.13 79.034 0.23 8.69 6.08 9.52
9/7/2023 1:45:00 PM 26.24 79.232 0.23 8.74 6.89 9.67
9/7/2023 2:00:00 PM 26.33 79.394 0.23 8.78 6.56 9.81
9/7/2023 2:15:00 PM 26.46 79.628 0.229 8.84 6.55 9.99
9/7/2023 2:30:00 PM 26.62 79.916 0.228 8.9 6.43 10.13
9/7/2023 2:45:00 PM 26.71 80.078 0.227 8.93 6.29 10.27
9/7/2023 3:00:00 PM 26.76 80.168 0.227 8.97 7.72 10.32
9/7/2023 3:15:00 PM 26.78 80.204 0.227 8.98 7.29 10.29
9/7/2023 3:30:00 PM 26.76 80.168 0.226 9 8.86 10.26
9/7/2023 3:45:00 PM 26.72 80.096 0.226 9 10.54 10.21
9/7/2023 4:00:00 PM 26.71 80.078 0.225 9 8.44 10.14
9/7/2023 4:15:00 PM 26.67 80.006 0.226 9 9.84 10.16
9/7/2023 4:30:00 PM 26.66 79.988 0.226 9 9.31 10.17
9/7/2023 4:45:00 PM 26.66 79.988 0.225 9.03 8.38 10.17
9/7/2023 5:00:00 PM 26.65 79.97 0.224 9.05 9.3 10.2
9/7/2023 5:15:00 PM 26.65 79.97 0.224 9.07 9.21 10.19
9/7/2023 5:30:00 PM 26.64 79.952 0.223 9.09 12.71 10.17
9/7/2023 5:45:00 PM 26.52 79.736 0.231 8.93 16.83 9.27
9/7/2023 6:00:00 PM 26.42 79.556 0.229 8.85 10 9.27
9/7/2023 6:15:00 PM 26.59 79.862 0.224 9.06 10.54 10.27
9/7/2023 6:30:00 PM 26.58 79.844 0.224 9.13 10.67 10.27
9/7/2023 6:45:00 PM 26.56 79.808 0.225 9.15 10.38 10.27
9/7/2023 7:00:00 PM 26.52 79.736 0.226 9.16 9.64 10.21
9/7/2023 7:15:00 PM 26.49 79.682 0.222 9.17 9.72 10.12
9/7/2023 7:30:00 PM 26.46 79.628 0.223 9.16 10.89 10.07
9/7/2023 7:45:00 PM 26.43 79.574 0.224 9.16 11.93 9.97
9/7/2023 8:00:00 PM 26.38 79.484 0.225 9.15 10.37 9.86
9/7/2023 8:15:00 PM 26.36 79.448 0.225 9.15 11.73 9.79
9/7/2023 8:30:00 PM 26.31 79.358 0.226 9.14 9.98 9.71
9/7/2023 8:45:00 PM 26.28 79.304 0.226 9.13 12.07 9.67
9/7/2023 9:00:00 PM 26.25 79.25 0.226 9.13 10.81 9.63
9/7/2023 9:15:00 PM 26.22 79.196 0.226 9.13 10.56 9.59
9/7/2023 9:30:00 PM 26.17 79.106 0.227 9.13 20.95 9.54
9/7/2023 9:45:00 PM 26.15 79.07 0.226 9.13 13.39 9.49
9/7/2023 10:00:00 PM 26.11 78.998 0.226 9.12 15.17 9.42
9/7/2023 10:15:00 PM 26.06 78.908 0.221 9.1 10.72 9.35
9/7/2023 10:30:00 PM 26.03 78.854 0.226 9.09 12.76 9.26
9/7/2023 10:45:00 PM 25.98 78.764 0.225 9.06 11.98 9.2
9/7/2023 11:00:00 PM 25.93 78.674 0.226 9.03 13.78 9.11
9/7/2023 11:15:00 PM 25.87 78.566 0.223 8.98 9.84 9.05
9/7/2023 11:30:00 PM 25.82 78.476 0.225 8.94 10.01 8.94
9/7/2023 11:45:00 PM 25.76 78.368 0.226 8.88 9.06 8.83
9/8/2023 12:00:00 AM 25.69 78.242 0.227 8.82 9.41 8.7
9/8/2023 12:15:00 AM 25.63 78.134 0.227 8.77 7.96 8.52
9/8/2023 12:30:00 AM 25.57 78.026 0.227 8.7 7.29 8.37
9/8/2023 12:45:00 AM 25.51 77.918 0.228 8.65 6.82 8.2
9/8/2023 1:00:00 AM 25.45 77.81 0.229 8.59 7.17 8.08
9/8/2023 1:15:00 AM 25.39 77.702 0.229 8.54 6.87 7.9
9/8/2023 1:30:00 AM 25.33 77.594 0.23 8.49 6.61 7.83
9/8/2023 1:45:00 AM 25.28 77.504 0.23 8.44 6.73 7.76
9/8/2023 2:00:00 AM 25.23 77.414 0.23 8.4 6.87 7.7
9/8/2023 2:15:00 AM 25.17 77.306 0.23 8.36 6.71 7.62
9/8/2023 2:30:00 AM 25.27 77.486 0.235 8.33 7.8 7.76
9/8/2023 2:45:00 AM 25.55 77.99 0.235 8.27 9 7.89
9/8/2023 3:00:00 AM 25.19 77.342 0.231 8.24 9.15 7.58
9/8/2023 3:15:00 AM 24.99 76.982 0.231 8.23 7.56 7.45
9/8/2023 3:30:00 AM 24.94 76.892 0.231 8.21 6.96 7.43
9/8/2023 3:45:00 AM 24.89 76.802 0.231 8.19 6.44 7.42
9/8/2023 4:00:00 AM 24.82 76.676 0.231 8.17 6.8 7.37
9/8/2023 4:15:00 AM 24.77 76.586 0.231 8.15 6.65 7.34
9/8/2023 4:30:00 AM 24.73 76.514 0.231 8.13 7.46 7.3
9/8/2023 4:45:00 AM 24.66 76.388 0.233 8.11 7.28 7.24
9/8/2023 5:00:00 AM 24.62 76.316 0.232 8.1 7.37 7.19
9/8/2023 5:15:00 AM 24.58 76.244 0.231 8.08 7 7.15
9/8/2023 5:30:00 AM 24.54 76.172 0.232 8.07 7.13 7.1
9/8/2023 5:45:00 AM 24.5 76.1 0.232 8.05 7.42 7.11
9/8/2023 6:00:00 AM 24.46 76.028 0.232 8.04 7.01 7.07
9/8/2023 6:15:00 AM 24.42 75.956 0.233 8.03 7.19 7.03
9/8/2023 6:30:00 AM 24.41 75.938 0.232 8.03 6.99 7.05
9/8/2023 6:45:00 AM 24.38 75.884 0.232 8.02 7.12 7.05
9/8/2023 7:00:00 AM 24.36 75.848 0.232 8.02 7.21 7.04
9/8/2023 7:15:00 AM 24.34 75.812 0.232 8.01 6.95 7.03
9/8/2023 7:30:00 AM 24.34 75.812 0.232 8.01 7.19 7.06
9/8/2023 7:45:00 AM 24.32 75.776 0.232 8.01 8.35 7.05
9/8/2023 8:00:00 AM 24.3 75.74 0.233 8.01 7.41 7.08
9/8/2023 8:15:00 AM 24.3 75.74 0.232 8.01 7.48 7.13
9/8/2023 8:30:00 AM 24.3 75.74 0.231 8.02 7.62 7.16
9/8/2023 8:45:00 AM 24.3 75.74 0.231 8.02 7.95 7.21
9/8/2023 9:00:00 AM 24.29 75.722 0.231 8.02 7.28 7.25
9/8/2023 9:15:00 AM 24.29 75.722 0.23 8.03 7.33 7.36
9/8/2023 9:30:00 AM 24.3 75.74 0.229 8.04 7.37 7.42
9/8/2023 9:45:00 AM 24.29 75.722 0.229 8.05 7.63 7.45
9/8/2023 10:00:00 AM 24.31 75.758 0.228 8.05 7.91 7.47
9/8/2023 10:15:00 AM 24.33 75.794 0.228 8.06 7.26 7.55
9/8/2023 10:30:00 AM 24.36 75.848 0.227 8.08 7.96 7.65
9/8/2023 10:45:00 AM 24.41 75.938 0.227 8.11 7.69 7.74
9/8/2023 11:00:00 AM 24.9 76.82 0.235 8.16 10.04 8
9/8/2023 11:15:00 AM 24.76 76.568 0.233 8.13 9.54 8.06
9/8/2023 11:30:00 AM 24.62 76.316 0.229 8.2 16.96 8.25
9/8/2023 11:45:00 AM 24.6 76.28 0.227 8.22 11.99 8.27
9/8/2023 12:00:00 PM 24.64 76.352 0.227 8.23 9.83 8.32
9/8/2023 12:15:00 PM 24.76 76.568 0.227 8.28 8.96 8.6
9/8/2023 12:30:00 PM 24.84 76.712 0.228 8.32 9.43 8.72
9/8/2023 12:45:00 PM 24.97 76.946 0.227 8.37 8.03 8.92
9/8/2023 1:00:00 PM 25.06 77.108 0.227 8.41 7.63 9.02
9/8/2023 1:15:00 PM 25.12 77.216 0.226 8.45 7.92 9.08
9/8/2023 1:30:00 PM 25.17 77.306 0.225 8.49 6.92 9.14
9/8/2023 1:45:00 PM 25.22 77.396 0.225 8.55 7.02 9.23
9/8/2023 2:00:00 PM 25.26 77.468 0.226 8.59 7.06 9.28
9/8/2023 2:15:00 PM 25.34 77.612 0.226 8.64 7.03 9.37
9/8/2023 2:30:00 PM 25.39 77.702 0.227 8.7 6.85 9.4
9/8/2023 2:45:00 PM 25.44 77.792 0.227 8.74 6.73 9.43
9/8/2023 3:00:00 PM 25.49 77.882 0.227 8.78 6.67 9.56
9/8/2023 3:15:00 PM 25.52 77.936 0.228 8.82 6.81 9.57
9/8/2023 3:30:00 PM 25.57 78.026 0.229 8.86 7.04 9.76
9/8/2023 3:45:00 PM 25.59 78.062 0.23 8.89 8.55 9.86
9/8/2023 4:00:00 PM 25.65 78.17 0.23 8.94 6.68 10.08
9/8/2023 4:15:00 PM 25.69 78.242 0.229 8.99 7.46 10.23
9/8/2023 4:30:00 PM 25.75 78.35 0.227 9.04 6.87 10.33
9/8/2023 4:45:00 PM 25.8 78.44 0.227 9.08 6.85 10.43
9/8/2023 5:00:00 PM 25.86 78.548 0.226 9.12 6.69 10.5
9/8/2023 5:15:00 PM 25.88 78.584 0.225 9.15 7.11 10.6
9/8/2023 5:30:00 PM 25.89 78.602 0.225 9.17 7.16 10.64
9/8/2023 5:45:00 PM 25.89 78.602 0.225 9.19 7.49 10.7
9/8/2023 6:00:00 PM 25.89 78.602 0.227 9.21 7.33 10.72
9/8/2023 6:15:00 PM 25.92 78.656 0.232 9.22 6.81 10.74
9/8/2023 6:30:00 PM 25.92 78.656 0.238 9.24 7.15 10.75
9/8/2023 6:45:00 PM 25.92 78.656 0.242 9.26 7.5 10.78
9/8/2023 7:00:00 PM 25.93 78.674 0.242 9.27 7.56 10.77
9/8/2023 7:15:00 PM 25.92 78.656 0.243 9.28 6.95 10.76
9/8/2023 7:30:00 PM 25.91 78.638 0.245 9.29 8.57 10.73
9/8/2023 7:45:00 PM 25.92 78.656 0.244 9.3 9.08 10.78
9/8/2023 8:00:00 PM 25.92 78.656 0.243 9.3 10.68 10.76
9/8/2023 8:15:00 PM 25.91 78.638 0.242 9.31 13.39 10.75
9/8/2023 8:30:00 PM 25.9 78.62 0.238 9.31 12.38 10.72
9/8/2023 8:45:00 PM 25.88 78.584 0.235 9.31 10.33 10.63
9/8/2023 9:00:00 PM 25.84 78.512 0.232 9.29 9.65 10.56
9/8/2023 9:15:00 PM 25.8 78.44 0.229 9.28 15.13 10.48
9/8/2023 9:30:00 PM 25.74 78.332 0.228 9.26 14.14 10.35
9/8/2023 9:45:00 PM 25.71 78.278 0.226 9.24 9.22 10.23
9/8/2023 10:00:00 PM 25.67 78.206 0.226 9.22 9.66 10.15
9/8/2023 10:15:00 PM 25.62 78.116 0.226 9.2 9.89 10.02
9/8/2023 10:30:00 PM 25.59 78.062 0.225 9.19 7.38 9.95
9/8/2023 10:45:00 PM 25.56 78.008 0.225 9.17 8.22 9.82
9/8/2023 11:00:00 PM 25.52 77.936 0.227 9.15 7.55 9.73
9/8/2023 11:15:00 PM 25.49 77.882 0.23 9.12 6.99 9.61
9/8/2023 11:30:00 PM 25.46 77.828 0.232 9.1 6.87 9.54
9/8/2023 11:45:00 PM 25.43 77.774 0.234 9.08 7.34 9.46
9/9/2023 12:00:00 AM 25.39 77.702 0.235 9.06 8.38 9.36
9/9/2023 12:15:00 AM 25.38 77.684 0.235 9.03 8.98 9.3
9/9/2023 12:30:00 AM 25.33 77.594 0.239 9 7.38 9.23
9/9/2023 12:45:00 AM 25.27 77.486 0.241 8.97 6.71 9.16
9/9/2023 1:00:00 AM 25.23 77.414 0.24 8.93 7.27 9.11
9/9/2023 1:15:00 AM 25.18 77.324 0.237 8.88 7.4 9.04
9/9/2023 1:30:00 AM 25.12 77.216 0.235 8.83 7.48 8.98
9/9/2023 1:45:00 AM 25.07 77.126 0.232 8.77 10.67 8.89
9/9/2023 2:00:00 AM 25.02 77.036 0.231 8.71 6.97 8.76
9/9/2023 2:15:00 AM 24.98 76.964 0.231 8.65 7.08 8.56
9/9/2023 2:30:00 AM 24.94 76.892 0.233 8.59 7.35 8.45
9/9/2023 2:45:00 AM 24.89 76.802 0.234 8.54 7.26 8.27
9/9/2023 3:00:00 AM 24.85 76.73 0.236 8.49 7.79 8.16
9/9/2023 3:15:00 AM 24.8 76.64 0.238 8.44 7.67 8.01
9/9/2023 3:30:00 AM 24.76 76.568 0.24 8.4 9.59 7.94
9/9/2023 3:45:00 AM 24.7 76.46 0.242 8.36 7.77 7.84
9/9/2023 4:00:00 AM 24.67 76.406 0.243 8.33 11.04 7.79
9/9/2023 4:15:00 AM 24.63 76.334 0.245 8.3 7.5 7.72
9/9/2023 4:30:00 AM 24.6 76.28 0.244 8.27 9.24 7.7
9/9/2023 4:45:00 AM 24.58 76.244 0.244 8.25 7.53 7.64
9/9/2023 5:00:00 AM 24.55 76.19 0.246 8.22 7.47 7.61
9/9/2023 5:15:00 AM 24.53 76.154 0.245 8.2 9.46 7.59
9/9/2023 5:30:00 AM 24.51 76.118 0.245 8.19 8.53 7.56
9/9/2023 5:45:00 AM 24.5 76.1 0.245 8.17 9.23 7.53
9/9/2023 6:00:00 AM 24.48 76.064 0.245 8.15 8.09 7.48
9/9/2023 6:15:00 AM 24.46 76.028 0.245 8.13 7.93 7.47
9/9/2023 6:30:00 AM 24.44 75.992 0.245 8.11 7.77 7.41
9/9/2023 6:45:00 AM 24.42 75.956 0.245 8.1 7.64 7.37
9/9/2023 7:00:00 AM 24.41 75.938 0.245 8.08 7.67 7.35
9/9/2023 7:15:00 AM 24.39 75.902 0.246 8.07 7.53 7.31
9/9/2023 7:30:00 AM 24.38 75.884 0.246 8.06 7.84 7.35
9/9/2023 7:45:00 AM 24.36 75.848 0.247 8.06 7.7 7.32
9/9/2023 8:00:00 AM 24.34 75.812 0.247 8.05 7.69 7.32
9/9/2023 8:15:00 AM 24.33 75.794 0.249 8.05 8.99 7.4
9/9/2023 8:30:00 AM 24.32 75.776 0.249 8.06 8.06 7.42
9/9/2023 8:45:00 AM 24.32 75.776 0.246 8.06 8.16 7.45
9/9/2023 9:00:00 AM 24.33 75.794 0.243 8.07 8.35 7.51
9/9/2023 9:15:00 AM 24.34 75.812 0.24 8.08 7.95 7.56
9/9/2023 9:30:00 AM 24.37 75.866 0.237 8.09 8.75 7.64
9/9/2023 9:45:00 AM 24.4 75.92 0.236 8.11 7.96 7.69
9/9/2023 10:00:00 AM 24.41 75.938 0.233 8.12 18.02 7.74
9/9/2023 10:15:00 AM 24.44 75.992 0.232 8.13 7.73 7.78
9/9/2023 10:30:00 AM 24.47 76.046 0.232 8.15 7.72 7.87
9/9/2023 10:45:00 AM 24.5 76.1 0.232 8.16 7.63 7.9
9/9/2023 11:00:00 AM 24.55 76.19 0.233 8.19 8.1 7.93
9/9/2023 11:15:00 AM 24.59 76.262 0.234 8.21 7.66 8.22
9/9/2023 11:30:00 AM 24.64 76.352 0.236 8.24 7.74 8.35
9/9/2023 11:45:00 AM 24.68 76.424 0.238 8.28 8.45 8.55
9/9/2023 12:00:00 PM 24.75 76.55 0.24 8.31 7.61 8.77
9/9/2023 12:15:00 PM 24.79 76.622 0.242 8.36 7.51 8.86
9/9/2023 12:30:00 PM 24.81 76.658 0.243 8.39 7.65 8.92
9/9/2023 12:45:00 PM 24.88 76.784 0.241 8.44 7.41 9.01
9/9/2023 1:00:00 PM 24.94 76.892 0.239 8.48 9.03 9.12
9/9/2023 1:15:00 PM 25.05 77.09 0.237 8.52 7.5 9.18
9/9/2023 1:30:00 PM 25.13 77.234 0.235 8.58 7.31 9.22
9/9/2023 1:45:00 PM 25.2 77.36 0.233 8.6 7.29 9.25
9/9/2023 2:00:00 PM 25.3 77.54 0.232 8.64 7.2 9.29
9/9/2023 2:15:00 PM 25.43 77.774 0.23 8.69 7.28 9.36
9/9/2023 2:30:00 PM 25.52 77.936 0.23 8.7 7.27 9.49
9/9/2023 2:45:00 PM 25.51 77.918 0.23 8.75 7.33 9.49
9/9/2023 3:00:00 PM 25.5 77.9 0.229 8.8 7.2 9.56
9/9/2023 3:15:00 PM 25.52 77.936 0.228 8.84 7.25 9.68
9/9/2023 3:30:00 PM 25.6 78.08 0.228 8.87 7.21 9.81
9/9/2023 3:45:00 PM 25.72 78.296 0.228 8.92 7.16 10.05
9/9/2023 4:00:00 PM 25.8 78.44 0.228 8.96 7.24 10.18
9/9/2023 4:15:00 PM 25.88 78.584 0.228 9 7.13 10.25
9/9/2023 4:30:00 PM 25.98 78.764 0.227 9.04 7.32 10.36
9/9/2023 4:45:00 PM 26.02 78.836 0.228 9.08 7.08 10.46
9/9/2023 5:00:00 PM 26.05 78.89 0.228 9.11 7.16 10.48
9/9/2023 5:15:00 PM 26.1 78.98 0.227 9.12 7.1 10.5
9/9/2023 5:30:00 PM 25.91 78.638 0.241 8.88 16.38 9.09
9/9/2023 5:45:00 PM 25.63 78.134 0.241 8.54 29.49 8.93
9/9/2023 6:00:00 PM 25.93 78.674 0.229 8.77 34.67 10.2
9/9/2023 6:15:00 PM 26.05 78.89 0.226 9.01 35.99 10.5
9/9/2023 6:30:00 PM 26.04 78.872 0.224 9.11 36.37 10.51
9/9/2023 6:45:00 PM 26 78.8 0.225 9.14 37.17 10.53
9/9/2023 7:00:00 PM 25.97 78.746 0.225 9.16 37.16 10.52
9/9/2023 7:15:00 PM 25.94 78.692 0.225 9.16 37.78 10.46
9/9/2023 7:30:00 PM 25.9 78.62 0.224 9.17 37.2 10.42
9/9/2023 7:45:00 PM 25.86 78.548 0.223 9.17 35.94 10.36
9/9/2023 8:00:00 PM 25.8 78.44 0.223 9.17 35.51 10.2
9/9/2023 8:15:00 PM 25.77 78.386 0.224 9.17 34.52 10.21
9/9/2023 8:30:00 PM 25.75 78.35 0.224 9.17 34.2 10.1
9/9/2023 8:45:00 PM 25.75 78.35 0.223 9.17 32.66 10.06
9/9/2023 9:00:00 PM 25.74 78.332 0.223 9.17 31.67 9.97
9/9/2023 9:15:00 PM 25.73 78.314 0.223 9.16 29.49 9.95
9/9/2023 9:30:00 PM 25.72 78.296 0.223 9.17 27.78 9.88
9/9/2023 9:45:00 PM 25.71 78.278 0.223 9.17 28.71 9.88
9/9/2023 10:00:00 PM 25.7 78.26 0.223 9.18 27.65 9.77
9/9/2023 10:15:00 PM 25.68 78.224 0.223 9.17 26.77 9.67
9/9/2023 10:30:00 PM 25.67 78.206 0.223 9.16 26.22 9.65
9/9/2023 10:45:00 PM 25.68 78.224 0.222 9.16 25.03 9.56
9/9/2023 11:00:00 PM 25.66 78.188 0.222 9.15 24.2 9.51
9/9/2023 11:15:00 PM 25.62 78.116 0.222 9.14 24.01 9.39
9/9/2023 11:30:00 PM 25.58 78.044 0.223 9.12 22.53 9.3
9/9/2023 11:45:00 PM 25.55 77.99 0.223 9.1 21.66 9.22
9/10/2023 12:00:00 AM 25.5 77.9 0.224 9.07 20.17 9.14
9/10/2023 12:15:00 AM 25.45 77.81 0.225 9.04 19.46 9.08
9/10/2023 12:30:00 AM 25.39 77.702 0.225 9 18.87 9.02
9/10/2023 12:45:00 AM 25.32 77.576 0.226 8.96 17.6 8.98
9/10/2023 1:00:00 AM 25.26 77.468 0.226 8.92 15.92 8.93
9/10/2023 1:15:00 AM 25.19 77.342 0.226 8.87 14.66 8.82
9/10/2023 1:30:00 AM 25.13 77.234 0.227 8.82 14 8.73
9/10/2023 1:45:00 AM 25.08 77.144 0.227 8.76 13.32 8.63
9/10/2023 2:00:00 AM 25.03 77.054 0.226 8.7 12.8 8.45
9/10/2023 2:15:00 AM 24.98 76.964 0.226 8.65 12.06 8.31
9/10/2023 2:30:00 AM 24.93 76.874 0.227 8.59 10.68 8.15
9/10/2023 2:45:00 AM 24.85 76.73 0.228 8.53 10.89 7.98
9/10/2023 3:00:00 AM 24.79 76.622 0.228 8.48 11.8 7.94
9/10/2023 3:15:00 AM 24.74 76.532 0.228 8.43 10.55 7.82
9/10/2023 3:30:00 AM 24.68 76.424 0.228 8.38 9.39 7.76
9/10/2023 3:45:00 AM 24.62 76.316 0.228 8.34 9.3 7.68
9/10/2023 4:00:00 AM 24.57 76.226 0.228 8.31 8.8 7.61
9/10/2023 4:15:00 AM 24.51 76.118 0.228 8.27 8.68 7.59
9/10/2023 4:30:00 AM 24.46 76.028 0.228 8.24 8.87 7.35
9/10/2023 4:45:00 AM 24.41 75.938 0.227 8.22 8.47 7.53
9/10/2023 5:00:00 AM 24.36 75.848 0.227 8.19 10.52 7.51
9/10/2023 5:15:00 AM 24.3 75.74 0.228 8.17 9.49 7.49
9/10/2023 5:30:00 AM 24.24 75.632 0.229 8.15 8.53 7.44
9/10/2023 5:45:00 AM 24.65 76.37 0.244 8.16 14.34 8.02
9/10/2023 6:00:00 AM 24.68 76.424 0.237 8.16 11.26 7.93
9/10/2023 6:15:00 AM 24.21 75.578 0.23 8.13 15.18 7.49
9/10/2023 6:30:00 AM 24.07 75.326 0.23 8.09 12.39 7.37
9/10/2023 6:45:00 AM 24 75.2 0.231 8.08 10.12 7.3
9/10/2023 7:00:00 AM 23.97 75.146 0.23 8.07 9.09 7.28
9/10/2023 7:15:00 AM 23.93 75.074 0.23 8.06 8.47 7.29
9/10/2023 7:30:00 AM 23.91 75.038 0.229 8.05 8.15 7.27
9/10/2023 7:45:00 AM 23.87 74.966 0.23 8.04 8.05 7.19
9/10/2023 8:00:00 AM 23.84 74.912 0.23 8.03 8.06 7.21
9/10/2023 8:15:00 AM 23.82 74.876 0.229 8.03 8.31 7.31
9/10/2023 8:30:00 AM 23.82 74.876 0.228 8.03 8.44 7.37
9/10/2023 8:45:00 AM 23.81 74.858 0.227 8.03 8.91 7.34
9/10/2023 9:00:00 AM 23.81 74.858 0.227 8.04 8.57 7.41
9/10/2023 9:15:00 AM 23.81 74.858 0.226 8.04 8.28 7.43
9/10/2023 9:30:00 AM 23.84 74.912 0.225 8.05 8.45 7.49
9/10/2023 9:45:00 AM 23.85 74.93 0.223 8.05 8.46 7.55
9/10/2023 10:00:00 AM 23.86 74.948 0.223 8.06 8.24 7.57
9/10/2023 10:15:00 AM 23.88 74.984 0.222 8.07 8.6 7.63
9/10/2023 10:30:00 AM 23.91 75.038 0.222 8.08 8.37 7.68
9/10/2023 10:45:00 AM 23.92 75.056 0.221 8.09 8.45 7.72
9/10/2023 11:00:00 AM 23.93 75.074 0.22 8.1 8.29 7.75
9/10/2023 11:15:00 AM 23.94 75.092 0.22 8.11 8.63 7.75
9/10/2023 11:30:00 AM 23.94 75.092 0.221 8.12 8.3 7.82
9/10/2023 11:45:00 AM 23.95 75.11 0.221 8.13 8.33 7.87
9/10/2023 12:00:00 PM 23.98 75.164 0.22 8.15 8.25 7.95
9/10/2023 12:15:00 PM 24.04 75.272 0.219 8.17 8.11 8.13
9/10/2023 12:30:00 PM 24.08 75.344 0.218 8.19 8.17 8.21
9/10/2023 12:45:00 PM 24.11 75.398 0.216 8.21 8.15 8.22
9/10/2023 1:00:00 PM 24.17 75.506 0.215 8.24 8.25 8.49
9/10/2023 1:15:00 PM 24.21 75.578 0.215 8.28 8.43 8.7
9/10/2023 1:30:00 PM 24.25 75.65 0.214 8.3 8.42 8.81
9/10/2023 1:45:00 PM 24.3 75.74 0.214 8.35 8.06 8.92
9/10/2023 2:00:00 PM 24.34 75.812 0.213 8.37 8.12 8.96
9/10/2023 2:15:00 PM 24.39 75.902 0.213 8.4 8.1 9.05
9/10/2023 2:30:00 PM 24.45 76.01 0.213 8.44 8.22 9.09
9/10/2023 2:45:00 PM 24.54 76.172 0.212 8.49 8.18 9.16
9/10/2023 3:00:00 PM 24.6 76.28 0.212 8.54 8.4 9.21
9/10/2023 3:15:00 PM 24.63 76.334 0.212 8.58 8.08 9.23
9/10/2023 3:30:00 PM 24.65 76.37 0.212 8.6 8.09 9.23
9/10/2023 3:45:00 PM 24.69 76.442 0.212 8.64 8.81 9.34
9/10/2023 4:00:00 PM 24.73 76.514 0.211 8.66 8.62 9.36
9/10/2023 4:15:00 PM 24.76 76.568 0.211 8.72 8.6 9.45
9/10/2023 4:30:00 PM 24.78 76.604 0.212 8.76 8.17 9.48
9/10/2023 4:45:00 PM 24.81 76.658 0.211 8.81 8.15 9.6
9/10/2023 5:00:00 PM 24.83 76.694 0.211 8.83 8.79 9.59
9/10/2023 5:15:00 PM 24.84 76.712 0.211 8.85 8.31 9.69
9/10/2023 5:30:00 PM 24.85 76.73 0.21 8.87 8.38 9.75
9/10/2023 5:45:00 PM 24.85 76.73 0.21 8.89 8.8 9.82
9/10/2023 6:00:00 PM 24.84 76.712 0.209 8.9 8.26 9.83
9/10/2023 6:15:00 PM 24.8 76.64 0.207 8.94 8.21 9.84
9/10/2023 6:30:00 PM 24.74 76.532 0.206 8.95 9.24 9.83
9/10/2023 6:45:00 PM 24.68 76.424 0.204 8.94 8.35 9.8
9/10/2023 7:00:00 PM 24.62 76.316 0.202 8.94 8.78 9.81
9/10/2023 7:15:00 PM 24.55 76.19 0.201 8.93 8.12 9.75
9/10/2023 7:30:00 PM 24.49 76.082 0.2 8.93 8.85 9.66
9/10/2023 7:45:00 PM 24.44 75.992 0.199 8.91 9.22 9.66
9/10/2023 8:00:00 PM 24.39 75.902 0.198 8.89 9.32 9.59
9/10/2023 8:15:00 PM 24.52 76.136 0.211 8.84 12.16 9.31
9/10/2023 8:30:00 PM 24.67 76.406 0.218 8.56 12.24 8.93
9/10/2023 8:45:00 PM 24.52 76.136 0.211 8.5 39.86 9.14
9/10/2023 9:00:00 PM 24.51 76.118 0.212 8.46 120.26 9.12
9/10/2023 9:15:00 PM 24.45 76.01 0.207 8.45 65.89 9.12
9/10/2023 9:30:00 PM 24.22 75.596 0.195 8.59 66.65 9.41
9/10/2023 9:45:00 PM 24.18 75.524 0.195 8.61 62.2 9.4
9/10/2023 10:00:00 PM 24.15 75.47 0.196 8.61 57.23 9.33
9/10/2023 10:15:00 PM 24.13 75.434 0.195 8.59 59.29 9.24
9/10/2023 10:30:00 PM 24.1 75.38 0.194 8.54 56.55 9.15
9/10/2023 10:45:00 PM 24.07 75.326 0.194 8.48 51.38 8.96
9/10/2023 11:00:00 PM 24.05 75.29 0.193 8.42 47.41 8.73
9/10/2023 11:15:00 PM 24.02 75.236 0.192 8.36 45.65 8.47
9/10/2023 11:30:00 PM 23.98 75.164 0.193 8.3 40.9 8.21
9/10/2023 11:45:00 PM 23.93 75.074 0.193 8.24 35.65 7.99
9/11/2023 12:00:00 AM 23.89 75.002 0.193 8.19 31.3 7.85
9/11/2023 12:15:00 AM 23.85 74.93 0.193 8.14 27.17 7.75
9/11/2023 12:30:00 AM 23.81 74.858 0.193 8.1 23.03 7.68
9/11/2023 12:45:00 AM 23.78 74.804 0.193 8.07 19.81 7.63
9/11/2023 1:00:00 AM 23.74 74.732 0.193 8.05 18.37 7.6
9/11/2023 1:15:00 AM 23.71 74.67799 0.194 8.02 17.08 7.57
9/11/2023 1:30:00 AM 23.67 74.606 0.193 8 15.42 7.56
9/11/2023 1:45:00 AM 23.64 74.552 0.193 7.99 14.89 7.54
9/11/2023 2:00:00 AM 23.61 74.498 0.193 7.97 13.91 7.53
9/11/2023 2:15:00 AM 23.57 74.426 0.194 7.96 13.19 7.52
9/11/2023 2:30:00 AM 23.53 74.354 0.195 7.96 12.98 7.53
9/11/2023 2:45:00 AM 23.51 74.318 0.195 7.95 12.08 7.51
9/11/2023 3:00:00 AM 23.49 74.282 0.195 7.94 12.42 7.47
9/11/2023 3:15:00 AM 23.47 74.246 0.195 7.93 11.17 7.52
9/11/2023 3:30:00 AM 23.45 74.21 0.195 7.93 10.96 7.53
9/11/2023 3:45:00 AM 23.45 74.21 0.195 7.93 11.27 7.55
9/11/2023 4:00:00 AM 23.44 74.192 0.195 7.92 11.15 7.54
9/11/2023 4:15:00 AM 23.43 74.174 0.195 7.92 10.85 7.52
9/11/2023 4:30:00 AM 23.42 74.156 0.195 7.92 11.25 7.56
9/11/2023 4:45:00 AM 23.42 74.156 0.195 7.92 11.09 7.58
9/11/2023 5:00:00 AM 23.42 74.156 0.195 7.92 11.26 7.58
9/11/2023 5:15:00 AM 23.41 74.138 0.196 7.92 11.09 7.59
9/11/2023 5:30:00 AM 23.42 74.156 0.195 7.92 12.2 7.59
9/11/2023 5:45:00 AM 23.42 74.156 0.195 7.92 10.99 7.62
9/11/2023 6:00:00 AM 23.4 74.12 0.196 7.93 11.96 7.65
9/11/2023 6:15:00 AM 23.39 74.102 0.196 7.93 12.76 7.65
9/11/2023 6:30:00 AM 23.39 74.102 0.195 7.94 11.49 7.62
9/11/2023 6:45:00 AM 23.38 74.084 0.195 7.94 11.92 7.65
9/11/2023 7:00:00 AM 23.37 74.066 0.194 7.94 11.38 7.65
9/11/2023 7:15:00 AM 23.36 74.048 0.194 7.94 11.61 7.62
9/11/2023 7:30:00 AM 23.36 74.048 0.194 7.94 11.39 7.6
9/11/2023 7:45:00 AM 23.35 74.03 0.194 7.93 11.28 7.61
9/11/2023 8:00:00 AM 23.34 74.012 0.194 7.93 11.57 7.6
9/11/2023 8:15:00 AM 23.33 73.994 0.193 7.93 12.74 7.62
9/11/2023 8:30:00 AM 23.31 73.958 0.192 7.93 12.17 7.61
9/11/2023 8:45:00 AM 23.28 73.904 0.192 7.93 12 7.6
9/11/2023 9:00:00 AM 23.25 73.85 0.191 7.93 13.03 7.61
9/11/2023 9:15:00 AM 23.23 73.814 0.19 7.93 12.83 7.63
9/11/2023 9:30:00 AM 23.21 73.778 0.19 7.93 12.68 7.64
9/11/2023 9:45:00 AM 23.19 73.742 0.19 7.93 11.81 7.66
9/11/2023 10:00:00 AM 23.27 73.886 0.198 7.93 15.9 7.68
9/11/2023 10:15:00 AM 23.74 74.732 0.208 8.02 26.52 8.05
9/11/2023 10:30:00 AM 23.31 73.958 0.193 8.02 13.48 7.72
9/11/2023 10:45:00 AM 23.11 73.598 0.188 7.95 11.96 7.63
9/11/2023 11:00:00 AM 23 73.4 0.195 7.93 11.95 7.57
9/11/2023 11:15:00 AM 22.71 72.878 0.213 7.94 12.69 7.59
9/11/2023 11:30:00 AM 22.46 72.42799 0.214 7.97 17.19 7.5
9/11/2023 11:45:00 AM 22.31 72.158 0.203 7.95 30.98 7.32
9/11/2023 12:00:00 PM 22.28 72.104 0.192 7.93 34.61 7.21
9/11/2023 12:15:00 PM 22.24 72.032 0.181 7.91 45.86 7.26
9/11/2023 12:30:00 PM 22.26 72.068 0.174 7.88 50.05 7.18
9/11/2023 12:45:00 PM 22.24 72.032 0.169 7.87 50.19 7.19
9/11/2023 1:00:00 PM 22.29 72.122 0.167 7.85 46.71 7.23
9/11/2023 1:15:00 PM 22.35 72.23 0.167 7.84 52.32 7.14
9/11/2023 1:30:00 PM 22.42 72.356 0.167 7.84 48.51 7.2
9/11/2023 1:45:00 PM 22.49 72.482 0.168 7.84 46.39 7.27
9/11/2023 2:00:00 PM 22.6 72.68 0.169 7.83 41.81 7.25
9/11/2023 2:15:00 PM 22.72 72.896 0.17 7.84 41.74 7.3
9/11/2023 2:30:00 PM 22.8 73.04 0.171 7.84 37.41 7.29
9/11/2023 2:45:00 PM 22.88 73.184 0.17 7.85 39.55 7.35
9/11/2023 3:00:00 PM 22.89 73.202 0.171 7.85 36.99 7.37
9/11/2023 3:15:00 PM 22.89 73.202 0.171 7.85 33.47 7.47
9/11/2023 3:30:00 PM 22.93 73.274 0.171 7.86 33.46 7.51
9/11/2023 3:45:00 PM 22.95 73.31 0.171 7.86 33.32 7.48
9/11/2023 4:00:00 PM 23 73.4 0.171 7.88 30.4 7.62
9/11/2023 4:15:00 PM 23.06 73.508 0.171 7.89 28.26 7.69
9/11/2023 4:30:00 PM 23.12 73.616 0.172 7.9 29.43 7.79
9/11/2023 4:45:00 PM 23.16 73.688 0.172 7.91 28.95 7.88
9/11/2023 5:00:00 PM 23.21 73.778 0.174 7.94 26.64 8.11
9/11/2023 5:15:00 PM 23.29 73.922 0.174 7.98 26.63 7.98
9/11/2023 5:30:00 PM 23.33 73.994 0.175 8 23.25 8.22
9/11/2023 5:45:00 PM 23.35 74.03 0.176 8.03 22.28 8.34
9/11/2023 6:00:00 PM 23.41 74.138 0.177 8.06 21.59 8.39
9/11/2023 6:15:00 PM 23.44 74.192 0.178 8.1 22.62 8.51
9/11/2023 6:30:00 PM 23.44 74.192 0.179 8.12 20.21 8.58
9/11/2023 6:45:00 PM 23.45 74.21 0.18 8.15 22.33 8.71
9/11/2023 7:00:00 PM 23.46 74.228 0.18 8.17 18.74 8.76

These are provisional data and have not been subject to a quality assurance process, but rather are the raw data reported by the instrument.
H: value is above sensor operating range
L: value is below sensor operating range
Offline: station is not reporting data
NC: parameter is not collected at site

Data Availability & Limitations

Uncertainty and potential for error can be associated with environmental monitoring data. Provisional data have not been subject to a quality assurance process, but rather are the raw data reported by the instrument. Data users are cautioned to consider carefully the provisional nature of the information before using it for decisions that concern personal or public safety or the conduct of business that involves substantial monetary or operational consequences.

Approved data are currently available by request by emailing: [email protected]. Approved data have been subject to a quality assurance process to correct for equipment or fouling drift. Data recorded during equipment malfunctions have been removed.

View Historical Stations that have been discontinued.